Time,TemperatureF,DewpointF,PressureIn,WindDirection,WindDirectionDegrees,WindSpeedMPH,WindSpeedGustMPH,Humidity,HourlyPrecipIn,Conditions,Clouds,dailyrainin,SoftwareType,DateUTC
2013-11-13 00:00:00,37.1,28.5,29.89,South,178,12.0,25.0,71,0.00,,,0.00,VWS V14.01,2013-11-13 06:00:00,
2013-11-13 00:01:00,37.1,28.5,29.89,South,190,13.0,22.0,71,0.00,,,0.00,VWS V14.01,2013-11-13 06:01:00,
2013-11-13 00:02:00,37.1,28.5,29.89,South,180,14.0,22.0,71,0.00,,,0.00,VWS V14.01,2013-11-13 06:02:00,
2013-11-13 00:03:00,37.2,28.6,29.89,SSW,206,16.0,25.0,71,0.00,,,0.00,VWS V14.01,2013-11-13 06:03:00,
2013-11-13 00:04:00,37.2,28.6,29.89,South,184,10.0,25.0,71,0.00,,,0.00,VWS V14.01,2013-11-13 06:04:00,
2013-11-13 00:05:00,37.3,28.7,29.88,SSE,168,15.0,25.0,71,0.00,,,0.00,VWS V14.01,2013-11-13 06:05:00,
2013-11-13 00:06:00,37.3,28.7,29.88,SSE,159,15.0,25.0,71,0.00,,,0.00,VWS V14.01,2013-11-13 06:06:00,
2013-11-13 00:07:00,37.3,28.7,29.88,South,183,9.0,25.0,71,0.00,,,0.00,VWS V14.01,2013-11-13 06:07:00,
2013-11-13 00:08:00,37.3,28.7,29.89,SSW,208,15.0,25.0,71,0.00,,,0.00,VWS V14.01,2013-11-13 06:08:00,
2013-11-13 00:09:00,37.3,28.7,29.89,SSW,211,11.0,25.0,71,0.00,,,0.00,VWS V14.01,2013-11-13 06:09:00,
2013-11-13 00:10:00,37.4,28.8,29.88,South,171,8.0,25.0,71,0.00,,,0.00,VWS V14.01,2013-11-13 06:10:00,
2013-11-13 00:11:00,37.4,28.8,29.88,SSW,197,15.0,25.0,71,0.00,,,0.00,VWS V14.01,2013-11-13 06:11:00,
2013-11-13 00:12:00,37.4,28.8,29.88,SSW,196,11.0,25.0,71,0.00,,,0.00,VWS V14.01,2013-11-13 06:12:00,
2013-11-13 00:13:00,37.4,28.8,29.88,South,171,14.0,25.0,71,0.00,,,0.00,VWS V14.01,2013-11-13 06:13:00,
2013-11-13 00:14:00,37.4,28.8,29.88,SSW,200,13.0,27.0,71,0.00,,,0.00,VWS V14.01,2013-11-13 06:14:00,
2013-11-13 00:15:00,37.4,28.8,29.88,South,185,15.0,27.0,71,0.00,,,0.00,VWS V14.01,2013-11-13 06:15:00,
2013-11-13 00:16:00,37.4,28.8,29.88,South,189,16.0,22.0,71,0.00,,,0.00,VWS V14.01,2013-11-13 06:16:00,
2013-11-13 00:17:00,37.4,28.8,29.88,SSE,167,14.0,22.0,71,0.00,,,0.00,VWS V14.01,2013-11-13 06:17:00,
2013-11-13 00:18:00,37.4,28.8,29.87,SSE,165,13.0,22.0,71,0.00,,,0.00,VWS V14.01,2013-11-13 06:18:00,
2013-11-13 00:19:00,37.4,28.8,29.87,South,169,13.0,22.0,71,0.00,,,0.00,VWS V14.01,2013-11-13 06:19:00,
2013-11-13 00:20:00,37.4,28.8,29.87,South,171,15.0,22.0,71,0.00,,,0.00,VWS V14.01,2013-11-13 06:20:00,
2013-11-13 00:21:00,37.4,28.8,29.88,SSW,196,20.0,24.0,71,0.00,,,0.00,VWS V14.01,2013-11-13 06:21:00,
2013-11-13 00:22:00,37.4,28.8,29.88,South,184,8.0,24.0,71,0.00,,,0.00,VWS V14.01,2013-11-13 06:22:00,
2013-11-13 00:23:00,37.5,28.9,29.88,SSW,192,18.0,24.0,71,0.00,,,0.00,VWS V14.01,2013-11-13 06:23:00,
2013-11-13 00:24:00,37.4,28.8,29.88,South,174,16.0,24.0,71,0.00,,,0.00,VWS V14.01,2013-11-13 06:24:00,
2013-11-13 00:25:00,37.4,28.8,29.88,South,187,18.0,24.0,71,0.00,,,0.00,VWS V14.01,2013-11-13 06:25:00,
2013-11-13 00:26:00,37.4,28.8,29.88,South,186,11.0,24.0,71,0.00,,,0.00,VWS V14.01,2013-11-13 06:26:00,
2013-11-13 00:27:00,37.4,28.8,29.88,SSW,199,13.0,24.0,71,0.00,,,0.00,VWS V14.01,2013-11-13 06:27:00,
2013-11-13 00:28:00,37.3,28.7,29.88,SSW,199,11.0,24.0,71,0.00,,,0.00,VWS V14.01,2013-11-13 06:28:00,
2013-11-13 00:29:00,37.3,28.7,29.88,SSW,193,11.0,24.0,71,0.00,,,0.00,VWS V14.01,2013-11-13 06:29:00,
2013-11-13 00:30:00,37.3,28.7,29.88,SSW,213,11.0,24.0,71,0.00,,,0.00,VWS V14.01,2013-11-13 06:30:00,
2013-11-13 00:31:00,37.3,28.7,29.88,SSW,192,9.0,15.0,71,0.00,,,0.00,VWS V14.01,2013-11-13 06:31:00,
2013-11-13 00:32:00,37.3,29.0,29.88,SSW,206,10.0,16.0,72,0.00,,,0.00,VWS V14.01,2013-11-13 06:32:00,
2013-11-13 00:33:00,37.3,29.0,29.88,South,171,10.0,16.0,72,0.00,,,0.00,VWS V14.01,2013-11-13 06:33:00,
2013-11-13 00:34:00,37.3,29.0,29.87,South,181,9.0,18.0,72,0.00,,,0.00,VWS V14.01,2013-11-13 06:34:00,
2013-11-13 00:35:00,37.3,29.0,29.87,SW,222,7.0,18.0,72,0.00,,,0.00,VWS V14.01,2013-11-13 06:35:00,
2013-11-13 00:36:00,37.3,29.0,29.87,SW,230,4.0,18.0,72,0.00,,,0.00,VWS V14.01,2013-11-13 06:36:00,
2013-11-13 00:37:00,37.4,29.1,29.87,SSW,205,4.0,18.0,72,0.00,,,0.00,VWS V14.01,2013-11-13 06:37:00,
2013-11-13 00:38:00,37.4,29.1,29.87,SSW,192,5.0,18.0,72,0.00,,,0.00,VWS V14.01,2013-11-13 06:38:00,
2013-11-13 00:39:00,37.5,29.2,29.87,SSW,203,8.0,18.0,72,0.00,,,0.00,VWS V14.01,2013-11-13 06:39:00,
2013-11-13 00:40:00,37.5,29.2,29.88,West,259,2.0,18.0,72,0.00,,,0.00,VWS V14.01,2013-11-13 06:40:00,
2013-11-13 00:41:00,37.5,29.2,29.88,West,269,3.0,18.0,72,0.00,,,0.00,VWS V14.01,2013-11-13 06:41:00,
2013-11-13 00:42:00,37.5,29.2,29.88,NNW,335,2.0,18.0,72,0.00,,,0.00,VWS V14.01,2013-11-13 06:42:00,
2013-11-13 00:43:00,37.5,29.2,29.89,NNE,18,3.0,18.0,72,0.00,,,0.00,VWS V14.01,2013-11-13 06:43:00,
2013-11-13 00:44:00,37.5,29.2,29.88,WSW,238,3.0,18.0,72,0.00,,,0.00,VWS V14.01,2013-11-13 06:44:00,
2013-11-13 00:45:00,37.5,29.2,29.88,WNW,289,2.0,18.0,72,0.00,,,0.00,VWS V14.01,2013-11-13 06:45:00,
2013-11-13 00:46:00,37.5,29.2,29.88,NW,309,1.0,3.0,72,0.00,,,0.00,VWS V14.01,2013-11-13 06:46:00,
2013-11-13 00:47:00,37.5,29.2,29.88,NW,309,0.0,3.0,72,0.00,,,0.00,VWS V14.01,2013-11-13 06:47:00,
2013-11-13 00:48:00,37.4,29.1,29.89,West,269,1.0,3.0,72,0.00,,,0.00,VWS V14.01,2013-11-13 06:48:00,
2013-11-13 00:49:00,37.4,29.1,29.88,North,6,2.0,3.0,72,0.00,,,0.00,VWS V14.01,2013-11-13 06:49:00,
2013-11-13 00:50:00,37.4,29.1,29.88,NNE,19,1.0,3.0,72,0.00,,,0.00,VWS V14.01,2013-11-13 06:50:00,
2013-11-13 00:51:00,37.3,29.0,29.88,ENE,57,1.0,3.0,72,0.00,,,0.00,VWS V14.01,2013-11-13 06:51:00,
2013-11-13 00:52:00,37.4,29.5,29.88,West,259,4.0,9.0,73,0.00,,,0.00,VWS V14.01,2013-11-13 06:52:00,
2013-11-13 00:53:00,37.4,29.5,29.88,SSW,213,4.0,9.0,73,0.00,,,0.00,VWS V14.01,2013-11-13 06:53:00,
2013-11-13 00:54:00,37.4,29.5,29.88,WSW,251,2.0,9.0,73,0.00,,,0.00,VWS V14.01,2013-11-13 06:54:00,
2013-11-13 00:55:00,37.5,29.5,29.88,SSW,201,6.0,9.0,73,0.00,,,0.00,VWS V14.01,2013-11-13 06:55:00,
2013-11-13 00:56:00,37.6,29.6,29.88,SSW,205,7.0,10.0,73,0.00,,,0.00,VWS V14.01,2013-11-13 06:56:00,
2013-11-13 00:57:00,37.7,30.1,29.88,South,188,5.0,10.0,74,0.00,,,0.00,VWS V14.01,2013-11-13 06:57:00,
2013-11-13 00:58:00,37.8,30.2,29.88,South,179,5.0,10.0,74,0.00,,,0.00,VWS V14.01,2013-11-13 06:58:00,
2013-11-13 00:59:00,38.0,30.4,29.87,SSW,211,5.0,13.0,74,0.00,,,0.00,VWS V14.01,2013-11-13 06:59:00,
2013-11-13 01:00:00,38.1,30.5,29.87,SSW,208,6.0,13.0,74,0.00,,,0.00,VWS V14.01,2013-11-13 07:00:00,
2013-11-13 01:01:00,38.2,30.2,29.87,SSW,196,15.0,15.0,73,0.00,,,0.00,VWS V14.01,2013-11-13 07:01:00,
2013-11-13 01:02:00,38.3,30.3,29.87,SSW,193,11.0,15.0,73,0.00,,,0.00,VWS V14.01,2013-11-13 07:02:00,
2013-11-13 01:03:00,38.4,30.4,29.87,SSW,192,10.0,15.0,73,0.00,,,0.00,VWS V14.01,2013-11-13 07:03:00,
2013-11-13 01:04:00,38.5,30.5,29.87,SW,226,10.0,15.0,73,0.00,,,0.00,VWS V14.01,2013-11-13 07:04:00,
2013-11-13 01:05:00,38.6,30.6,29.87,SSW,205,6.0,21.0,73,0.00,,,0.00,VWS V14.01,2013-11-13 07:05:00,
2013-11-13 01:06:00,38.7,30.7,29.87,SSW,206,13.0,21.0,73,0.00,,,0.00,VWS V14.01,2013-11-13 07:06:00,
2013-11-13 01:07:00,38.7,30.4,29.87,SSW,204,12.0,21.0,72,0.00,,,0.00,VWS V14.01,2013-11-13 07:07:00,
2013-11-13 01:08:00,38.8,30.5,29.86,SSW,192,4.0,21.0,72,0.00,,,0.00,VWS V14.01,2013-11-13 07:08:00,
2013-11-13 01:09:00,38.8,30.5,29.86,West,272,2.0,21.0,72,0.00,,,0.00,VWS V14.01,2013-11-13 07:09:00,
2013-11-13 01:10:00,38.8,30.5,29.87,SSW,213,7.0,21.0,72,0.00,,,0.00,VWS V14.01,2013-11-13 07:10:00,
2013-11-13 01:11:00,38.7,30.4,29.87,West,264,7.0,21.0,72,0.00,,,0.00,VWS V14.01,2013-11-13 07:11:00,
2013-11-13 01:12:00,38.7,30.4,29.86,South,188,7.0,21.0,72,0.00,,,0.00,VWS V14.01,2013-11-13 07:12:00,
2013-11-13 01:13:00,38.6,30.3,29.86,SW,226,7.0,21.0,72,0.00,,,0.00,VWS V14.01,2013-11-13 07:13:00,
2013-11-13 01:14:00,38.6,30.3,29.86,SSW,208,9.0,21.0,72,0.00,,,0.00,VWS V14.01,2013-11-13 07:14:00,
2013-11-13 01:15:00,38.5,30.2,29.86,SW,215,8.0,21.0,72,0.00,,,0.00,VWS V14.01,2013-11-13 07:15:00,
2013-11-13 01:16:00,38.5,30.5,29.86,SSW,212,9.0,13.0,73,0.00,,,0.00,VWS V14.01,2013-11-13 07:16:00,
2013-11-13 01:17:00,38.5,30.5,29.86,SW,219,9.0,19.0,73,0.00,,,0.00,VWS V14.01,2013-11-13 07:17:00,
2013-11-13 01:18:00,38.6,30.6,29.86,SSW,207,11.0,19.0,73,0.00,,,0.00,VWS V14.01,2013-11-13 07:18:00,
2013-11-13 01:19:00,38.7,30.7,29.85,South,178,12.0,19.0,73,0.00,,,0.00,VWS V14.01,2013-11-13 07:19:00,
2013-11-13 01:20:00,38.7,30.7,29.85,SSW,199,17.0,19.0,73,0.00,,,0.00,VWS V14.01,2013-11-13 07:20:00,
2013-11-13 01:21:00,38.8,30.8,29.85,SSW,196,11.0,19.0,73,0.00,,,0.00,VWS V14.01,2013-11-13 07:21:00,
2013-11-13 01:22:00,38.8,30.8,29.85,SSW,200,16.0,20.0,73,0.00,,,0.00,VWS V14.01,2013-11-13 07:22:00,
2013-11-13 01:23:00,38.9,30.9,29.85,SSW,209,11.0,20.0,73,0.00,,,0.00,VWS V14.01,2013-11-13 07:23:00,
2013-11-13 01:24:00,38.9,30.9,29.85,SW,221,11.0,20.0,73,0.00,,,0.00,VWS V14.01,2013-11-13 07:24:00,
2013-11-13 01:25:00,38.9,30.9,29.85,SSW,199,13.0,20.0,73,0.00,,,0.00,VWS V14.01,2013-11-13 07:25:00,
2013-11-13 01:26:00,38.9,30.9,29.85,SSW,213,11.0,22.0,73,0.00,,,0.00,VWS V14.01,2013-11-13 07:26:00,
2013-11-13 01:27:00,38.9,30.9,29.85,SSW,193,20.0,22.0,73,0.00,,,0.00,VWS V14.01,2013-11-13 07:27:00,
2013-11-13 01:28:00,38.9,30.9,29.85,SSW,197,14.0,26.0,73,0.00,,,0.00,VWS V14.01,2013-11-13 07:28:00,
2013-11-13 01:29:00,38.9,30.9,29.85,SSW,199,17.0,26.0,73,0.00,,,0.00,VWS V14.01,2013-11-13 07:29:00,
2013-11-13 01:30:00,38.9,30.9,29.84,SSE,160,21.0,26.0,73,0.00,,,0.00,VWS V14.01,2013-11-13 07:30:00,
2013-11-13 01:31:00,38.9,30.9,29.84,SSW,206,16.0,18.0,73,0.00,,,0.00,VWS V14.01,2013-11-13 07:31:00,
2013-11-13 01:32:00,38.9,30.9,29.84,SSW,205,12.0,18.0,73,0.00,,,0.00,VWS V14.01,2013-11-13 07:32:00,
2013-11-13 01:33:00,38.9,30.9,29.85,SSW,202,11.0,18.0,73,0.00,,,0.00,VWS V14.01,2013-11-13 07:33:00,
2013-11-13 01:34:00,38.9,30.9,29.84,SSW,198,16.0,20.0,73,0.00,,,0.00,VWS V14.01,2013-11-13 07:34:00,
2013-11-13 01:35:00,38.9,30.9,29.84,SSW,200,18.0,26.0,73,0.00,,,0.00,VWS V14.01,2013-11-13 07:35:00,
2013-11-13 01:36:00,38.9,30.9,29.84,SSW,193,23.0,26.0,73,0.00,,,0.00,VWS V14.01,2013-11-13 07:36:00,
2013-11-13 01:37:00,39.0,31.0,29.84,SSW,199,14.0,26.0,73,0.00,,,0.00,VWS V14.01,2013-11-13 07:37:00,
2013-11-13 01:38:00,39.0,31.0,29.84,SSW,196,17.0,26.0,73,0.00,,,0.00,VWS V14.01,2013-11-13 07:38:00,
2013-11-13 01:39:00,39.1,31.1,29.84,SSW,192,21.0,26.0,73,0.00,,,0.00,VWS V14.01,2013-11-13 07:39:00,
2013-11-13 01:40:00,39.1,31.1,29.84,SSW,193,16.0,26.0,73,0.00,,,0.00,VWS V14.01,2013-11-13 07:40:00,
2013-11-13 01:41:00,39.1,31.1,29.84,SSW,205,17.0,26.0,73,0.00,,,0.00,VWS V14.01,2013-11-13 07:41:00,
2013-11-13 01:42:00,39.1,31.1,29.84,SSW,197,13.0,26.0,73,0.00,,,0.00,VWS V14.01,2013-11-13 07:42:00,
2013-11-13 01:43:00,39.1,31.1,29.84,SW,228,15.0,26.0,73,0.00,,,0.00,VWS V14.01,2013-11-13 07:43:00,
2013-11-13 01:44:00,39.1,31.1,29.84,South,190,16.0,26.0,73,0.00,,,0.00,VWS V14.01,2013-11-13 07:44:00,
2013-11-13 01:45:00,39.1,31.1,29.84,SSW,212,12.0,26.0,73,0.00,,,0.00,VWS V14.01,2013-11-13 07:45:00,
2013-11-13 01:46:00,39.0,31.0,29.84,SSW,201,16.0,20.0,73,0.00,,,0.00,VWS V14.01,2013-11-13 07:46:00,
2013-11-13 01:47:00,38.9,30.9,29.84,SSW,192,17.0,21.0,73,0.00,,,0.00,VWS V14.01,2013-11-13 07:47:00,
2013-11-13 01:48:00,38.8,30.8,29.84,SSW,212,15.0,21.0,73,0.00,,,0.00,VWS V14.01,2013-11-13 07:48:00,
2013-11-13 01:49:00,38.8,30.8,29.84,SSW,199,11.0,24.0,73,0.00,,,0.00,VWS V14.01,2013-11-13 07:49:00,
2013-11-13 01:50:00,38.8,30.8,29.84,SSW,211,15.0,24.0,73,0.00,,,0.00,VWS V14.01,2013-11-13 07:50:00,
2013-11-13 01:51:00,38.7,31.0,29.84,SW,217,12.0,24.0,74,0.00,,,0.00,VWS V14.01,2013-11-13 07:51:00,
2013-11-13 01:52:00,38.7,31.0,29.84,SSW,204,14.0,24.0,74,0.00,,,0.00,VWS V14.01,2013-11-13 07:52:00,
2013-11-13 01:53:00,38.6,30.9,29.84,SSW,194,14.0,24.0,74,0.00,,,0.00,VWS V14.01,2013-11-13 07:53:00,
2013-11-13 01:54:00,38.6,30.9,29.84,SSW,199,11.0,24.0,74,0.00,,,0.00,VWS V14.01,2013-11-13 07:54:00,
2013-11-13 01:55:00,38.5,30.9,29.84,SSW,194,11.0,24.0,74,0.00,,,0.00,VWS V14.01,2013-11-13 07:55:00,
2013-11-13 01:56:00,38.5,30.9,29.84,South,189,10.0,24.0,74,0.00,,,0.00,VWS V14.01,2013-11-13 07:56:00,
2013-11-13 01:57:00,38.4,30.8,29.84,SSW,194,9.0,24.0,74,0.00,,,0.00,VWS V14.01,2013-11-13 07:57:00,
2013-11-13 01:58:00,38.4,30.8,29.84,South,178,12.0,24.0,74,0.00,,,0.00,VWS V14.01,2013-11-13 07:58:00,
2013-11-13 01:59:00,38.4,30.8,29.84,SW,230,4.0,24.0,74,0.00,,,0.00,VWS V14.01,2013-11-13 07:59:00,
2013-11-13 02:00:00,38.3,30.6,29.85,SSW,203,11.0,24.0,74,0.00,,,0.00,VWS V14.01,2013-11-13 08:00:00,
2013-11-13 02:01:00,38.3,30.6,29.85,SSW,196,13.0,14.0,74,0.00,,,0.00,VWS V14.01,2013-11-13 08:01:00,
2013-11-13 02:02:00,38.3,30.6,29.85,SSW,211,11.0,14.0,74,0.00,,,0.00,VWS V14.01,2013-11-13 08:02:00,
2013-11-13 02:03:00,38.2,30.6,29.85,South,187,10.0,15.0,74,0.00,,,0.00,VWS V14.01,2013-11-13 08:03:00,
2013-11-13 02:04:00,38.2,30.6,29.84,SW,221,5.0,15.0,74,0.00,,,0.00,VWS V14.01,2013-11-13 08:04:00,
2013-11-13 02:05:00,38.1,30.5,29.84,SSW,196,10.0,17.0,74,0.00,,,0.00,VWS V14.01,2013-11-13 08:05:00,
2013-11-13 02:06:00,38.1,30.5,29.84,SSW,211,12.0,17.0,74,0.00,,,0.00,VWS V14.01,2013-11-13 08:06:00,
2013-11-13 02:07:00,38.0,30.7,29.84,SSW,210,2.0,17.0,75,0.00,,,0.00,VWS V14.01,2013-11-13 08:07:00,
2013-11-13 02:08:00,38.0,30.7,29.84,West,272,5.0,17.0,75,0.00,,,0.00,VWS V14.01,2013-11-13 08:08:00,
2013-11-13 02:09:00,37.9,30.6,29.84,West,279,4.0,17.0,75,0.00,,,0.00,VWS V14.01,2013-11-13 08:09:00,
2013-11-13 02:10:00,37.9,30.6,29.85,WSW,244,9.0,17.0,75,0.00,,,0.00,VWS V14.01,2013-11-13 08:10:00,
2013-11-13 02:11:00,37.8,30.5,29.84,West,259,4.0,17.0,75,0.00,,,0.00,VWS V14.01,2013-11-13 08:11:00,
2013-11-13 02:12:00,37.8,30.5,29.84,SSW,209,3.0,17.0,75,0.00,,,0.00,VWS V14.01,2013-11-13 08:12:00,
2013-11-13 02:13:00,37.7,30.4,29.84,SSW,201,10.0,17.0,75,0.00,,,0.00,VWS V14.01,2013-11-13 08:13:00,
2013-11-13 02:14:00,37.7,30.4,29.84,SSW,209,8.0,17.0,75,0.00,,,0.00,VWS V14.01,2013-11-13 08:14:00,
2013-11-13 02:15:00,37.7,30.7,29.85,West,273,6.0,17.0,76,0.00,,,0.00,VWS V14.01,2013-11-13 08:15:00,
2013-11-13 02:16:00,37.7,30.7,29.85,WSW,244,7.0,12.0,76,0.00,,,0.00,VWS V14.01,2013-11-13 08:16:00,
2013-11-13 02:17:00,37.7,30.7,29.84,SW,224,6.0,12.0,76,0.00,,,0.00,VWS V14.01,2013-11-13 08:17:00,
2013-11-13 02:18:00,37.7,30.7,29.84,SW,221,6.0,13.0,76,0.00,,,0.00,VWS V14.01,2013-11-13 08:18:00,
2013-11-13 02:19:00,37.7,30.7,29.84,SW,235,9.0,13.0,76,0.00,,,0.00,VWS V14.01,2013-11-13 08:19:00,
2013-11-13 02:20:00,37.8,30.8,29.84,SW,214,11.0,16.0,76,0.00,,,0.00,VWS V14.01,2013-11-13 08:20:00,
2013-11-13 02:21:00,37.8,30.8,29.84,SSW,195,16.0,18.0,76,0.00,,,0.00,VWS V14.01,2013-11-13 08:21:00,
2013-11-13 02:22:00,37.8,30.8,29.84,SW,216,4.0,18.0,76,0.00,,,0.00,VWS V14.01,2013-11-13 08:22:00,
2013-11-13 02:23:00,37.8,30.8,29.84,SSW,197,3.0,18.0,76,0.00,,,0.00,VWS V14.01,2013-11-13 08:23:00,
2013-11-13 02:24:00,37.9,31.2,29.84,NNW,340,4.0,18.0,77,0.00,,,0.00,VWS V14.01,2013-11-13 08:24:00,
2013-11-13 02:25:00,37.9,30.9,29.84,NW,310,3.0,18.0,76,0.00,,,0.00,VWS V14.01,2013-11-13 08:25:00,
2013-11-13 02:26:00,37.9,30.9,29.85,WNW,282,3.0,18.0,76,0.00,,,0.00,VWS V14.01,2013-11-13 08:26:00,
2013-11-13 02:27:00,37.9,30.9,29.85,WSW,238,5.0,18.0,76,0.00,,,0.00,VWS V14.01,2013-11-13 08:27:00,
2013-11-13 02:28:00,37.9,31.2,29.85,WNW,286,2.0,18.0,77,0.00,,,0.00,VWS V14.01,2013-11-13 08:28:00,
2013-11-13 02:29:00,37.9,31.2,29.85,WNW,286,0.0,18.0,77,0.00,,,0.00,VWS V14.01,2013-11-13 08:29:00,
2013-11-13 02:30:00,37.9,31.2,29.85,WNW,282,1.0,18.0,77,0.00,,,0.00,VWS V14.01,2013-11-13 08:30:00,
2013-11-13 02:31:00,37.9,31.2,29.85,WNW,282,0.0,2.0,77,0.00,,,0.00,VWS V14.01,2013-11-13 08:31:00,
2013-11-13 02:32:00,37.9,31.2,29.85,WNW,292,4.0,4.0,77,0.00,,,0.00,VWS V14.01,2013-11-13 08:32:00,
2013-11-13 02:33:00,37.9,31.2,29.85,SW,217,5.0,8.0,77,0.00,,,0.00,VWS V14.01,2013-11-13 08:33:00,
2013-11-13 02:34:00,38.1,31.4,29.84,SW,236,3.0,8.0,77,0.00,,,0.00,VWS V14.01,2013-11-13 08:34:00,
2013-11-13 02:35:00,38.1,31.4,29.84,WSW,256,6.0,8.0,77,0.00,,,0.00,VWS V14.01,2013-11-13 08:35:00,
2013-11-13 02:36:00,38.3,31.6,29.84,West,267,4.0,8.0,77,0.00,,,0.00,VWS V14.01,2013-11-13 08:36:00,
2013-11-13 02:37:00,38.4,32.1,29.84,West,262,5.0,9.0,78,0.00,,,0.00,VWS V14.01,2013-11-13 08:37:00,
2013-11-13 02:38:00,38.6,32.2,29.84,WSW,251,9.0,9.0,78,0.00,,,0.00,VWS V14.01,2013-11-13 08:38:00,
2013-11-13 02:39:00,38.8,32.4,29.84,WNW,292,4.0,9.0,78,0.00,,,0.00,VWS V14.01,2013-11-13 08:39:00,
2013-11-13 02:40:00,38.9,32.5,29.84,SW,223,7.0,9.0,78,0.00,,,0.00,VWS V14.01,2013-11-13 08:40:00,
2013-11-13 02:41:00,39.0,32.3,29.84,West,259,3.0,9.0,77,0.00,,,0.00,VWS V14.01,2013-11-13 08:41:00,
2013-11-13 02:42:00,39.1,32.4,29.84,West,269,5.0,9.0,77,0.00,,,0.00,VWS V14.01,2013-11-13 08:42:00,
2013-11-13 02:43:00,39.2,32.5,29.84,NW,309,4.0,9.0,77,0.00,,,0.00,VWS V14.01,2013-11-13 08:43:00,
2013-11-13 02:44:00,39.3,32.6,29.84,NW,315,4.0,9.0,77,0.00,,,0.00,VWS V14.01,2013-11-13 08:44:00,
2013-11-13 02:45:00,39.3,32.6,29.84,SSW,195,5.0,9.0,77,0.00,,,0.00,VWS V14.01,2013-11-13 08:45:00,
2013-11-13 02:46:00,39.4,32.4,29.84,SSW,205,3.0,6.0,76,0.00,,,0.00,VWS V14.01,2013-11-13 08:46:00,
2013-11-13 02:47:00,39.4,32.4,29.84,West,264,1.0,6.0,76,0.00,,,0.00,VWS V14.01,2013-11-13 08:47:00,
2013-11-13 02:48:00,39.4,32.4,29.84,West,260,6.0,7.0,76,0.00,,,0.00,VWS V14.01,2013-11-13 08:48:00,
2013-11-13 02:49:00,39.4,32.4,29.84,WSW,253,7.0,7.0,76,0.00,,,0.00,VWS V14.01,2013-11-13 08:49:00,
2013-11-13 02:50:00,39.4,32.4,29.84,West,261,4.0,7.0,76,0.00,,,0.00,VWS V14.01,2013-11-13 08:50:00,
2013-11-13 02:51:00,39.4,32.4,29.84,West,267,3.0,7.0,76,0.00,,,0.00,VWS V14.01,2013-11-13 08:51:00,
2013-11-13 02:52:00,39.3,32.3,29.84,WSW,252,6.0,8.0,76,0.00,,,0.00,VWS V14.01,2013-11-13 08:52:00,
2013-11-13 02:53:00,39.4,32.7,29.83,WSW,241,6.0,8.0,77,0.00,,,0.00,VWS V14.01,2013-11-13 08:53:00,
2013-11-13 02:54:00,39.4,32.7,29.84,SW,229,4.0,8.0,77,0.00,,,0.00,VWS V14.01,2013-11-13 08:54:00,
2013-11-13 02:55:00,39.4,32.7,29.83,SW,232,5.0,11.0,77,0.00,,,0.00,VWS V14.01,2013-11-13 08:55:00,
2013-11-13 02:56:00,39.5,32.8,29.83,SW,226,6.0,11.0,77,0.00,,,0.00,VWS V14.01,2013-11-13 08:56:00,
2013-11-13 02:57:00,39.6,32.9,29.83,SW,218,4.0,11.0,77,0.00,,,0.00,VWS V14.01,2013-11-13 08:57:00,
2013-11-13 02:58:00,39.6,32.9,29.83,WNW,287,12.0,14.0,77,0.00,,,0.00,VWS V14.01,2013-11-13 08:58:00,
2013-11-13 02:59:00,39.8,33.1,29.83,WSW,257,6.0,14.0,77,0.00,,,0.00,VWS V14.01,2013-11-13 08:59:00,
2013-11-13 03:00:00,39.9,32.9,29.83,SW,214,8.0,14.0,76,0.00,,,0.00,VWS V14.01,2013-11-13 09:00:00,
2013-11-13 03:01:00,40.0,33.0,29.83,West,269,4.0,13.0,76,0.00,,,0.00,VWS V14.01,2013-11-13 09:01:00,
2013-11-13 03:02:00,40.0,32.6,29.83,WSW,250,8.0,13.0,75,0.00,,,0.00,VWS V14.01,2013-11-13 09:02:00,
2013-11-13 03:03:00,40.0,32.6,29.82,West,265,4.0,14.0,75,0.00,,,0.00,VWS V14.01,2013-11-13 09:03:00,
2013-11-13 03:04:00,40.1,32.7,29.82,WSW,242,4.0,14.0,75,0.00,,,0.00,VWS V14.01,2013-11-13 09:04:00,
2013-11-13 03:05:00,40.1,32.7,29.83,WSW,242,4.0,14.0,75,0.00,,,0.00,VWS V14.01,2013-11-13 09:05:00,
2013-11-13 03:06:00,40.1,32.7,29.82,WSW,242,4.0,14.0,75,0.00,,,0.00,VWS V14.01,2013-11-13 09:06:00,
2013-11-13 03:07:00,40.2,32.8,29.82,WSW,243,7.0,14.0,75,0.00,,,0.00,VWS V14.01,2013-11-13 09:07:00,
2013-11-13 03:08:00,40.2,32.8,29.82,SW,229,8.0,14.0,75,0.00,,,0.00,VWS V14.01,2013-11-13 09:08:00,
2013-11-13 03:09:00,40.3,32.9,29.82,WNW,293,5.0,14.0,75,0.00,,,0.00,VWS V14.01,2013-11-13 09:09:00,
2013-11-13 03:10:00,40.3,32.9,29.83,West,280,5.0,14.0,75,0.00,,,0.00,VWS V14.01,2013-11-13 09:10:00,
2013-11-13 03:11:00,40.3,32.9,29.83,SSW,213,3.0,14.0,75,0.00,,,0.00,VWS V14.01,2013-11-13 09:11:00,
2013-11-13 03:12:00,40.4,33.0,29.82,WNW,293,4.0,14.0,75,0.00,,,0.00,VWS V14.01,2013-11-13 09:12:00,
2013-11-13 03:13:00,40.4,33.0,29.82,WSW,247,8.0,14.0,75,0.00,,,0.00,VWS V14.01,2013-11-13 09:13:00,
2013-11-13 03:14:00,40.4,33.0,29.82,WSW,249,3.0,14.0,75,0.00,,,0.00,VWS V14.01,2013-11-13 09:14:00,
2013-11-13 03:15:00,40.5,33.4,29.82,West,261,9.0,14.0,76,0.00,,,0.00,VWS V14.01,2013-11-13 09:15:00,
2013-11-13 03:16:00,40.7,33.6,29.82,West,263,3.0,10.0,76,0.00,,,0.00,VWS V14.01,2013-11-13 09:16:00,
2013-11-13 03:17:00,40.9,33.8,29.82,South,186,12.0,13.0,76,0.00,,,0.00,VWS V14.01,2013-11-13 09:17:00,
2013-11-13 03:18:00,41.1,34.0,29.82,SSW,211,16.0,16.0,76,0.00,,,0.00,VWS V14.01,2013-11-13 09:18:00,
2013-11-13 03:19:00,41.4,34.3,29.82,West,263,7.0,16.0,76,0.00,,,0.00,VWS V14.01,2013-11-13 09:19:00,
2013-11-13 03:20:00,41.6,34.5,29.82,SW,224,7.0,19.0,76,0.00,,,0.00,VWS V14.01,2013-11-13 09:20:00,
2013-11-13 03:21:00,41.9,34.5,29.82,SW,221,9.0,19.0,75,0.00,,,0.00,VWS V14.01,2013-11-13 09:21:00,
2013-11-13 03:22:00,42.2,34.8,29.82,SSW,213,11.0,19.0,75,0.00,,,0.00,VWS V14.01,2013-11-13 09:22:00,
2013-11-13 03:23:00,42.5,34.7,29.82,WSW,246,5.0,19.0,74,0.00,,,0.00,VWS V14.01,2013-11-13 09:23:00,
2013-11-13 03:24:00,42.6,34.5,29.82,SW,226,17.0,19.0,73,0.00,,,0.00,VWS V14.01,2013-11-13 09:24:00,
2013-11-13 03:25:00,42.8,34.7,29.82,WSW,249,7.0,19.0,73,0.00,,,0.00,VWS V14.01,2013-11-13 09:25:00,
2013-11-13 03:26:00,42.8,34.7,29.82,SSW,204,11.0,19.0,73,0.00,,,0.00,VWS V14.01,2013-11-13 09:26:00,
2013-11-13 03:27:00,42.8,34.3,29.82,SSW,201,11.0,19.0,72,0.00,,,0.00,VWS V14.01,2013-11-13 09:27:00,
2013-11-13 03:28:00,42.7,34.2,29.82,SSW,199,10.0,19.0,72,0.00,,,0.00,VWS V14.01,2013-11-13 09:28:00,
2013-11-13 03:29:00,42.7,34.2,29.82,SW,236,5.0,19.0,72,0.00,,,0.00,VWS V14.01,2013-11-13 09:29:00,
2013-11-13 03:30:00,42.5,34.0,29.82,SW,232,4.0,19.0,72,0.00,,,0.00,VWS V14.01,2013-11-13 09:30:00,
2013-11-13 03:31:00,42.5,34.0,29.82,SSW,205,3.0,11.0,72,0.00,,,0.00,VWS V14.01,2013-11-13 09:31:00,
2013-11-13 03:32:00,42.4,34.3,29.82,West,275,4.0,11.0,73,0.00,,,0.00,VWS V14.01,2013-11-13 09:32:00,
2013-11-13 03:33:00,42.3,34.2,29.82,WNW,282,4.0,11.0,73,0.00,,,0.00,VWS V14.01,2013-11-13 09:33:00,
2013-11-13 03:34:00,42.2,34.1,29.82,West,269,5.0,11.0,73,0.00,,,0.00,VWS V14.01,2013-11-13 09:34:00,
2013-11-13 03:35:00,42.1,34.0,29.82,WNW,282,5.0,11.0,73,0.00,,,0.00,VWS V14.01,2013-11-13 09:35:00,
2013-11-13 03:36:00,42.0,33.9,29.82,WNW,299,5.0,11.0,73,0.00,,,0.00,VWS V14.01,2013-11-13 09:36:00,
2013-11-13 03:37:00,42.0,33.9,29.82,SW,231,6.0,11.0,73,0.00,,,0.00,VWS V14.01,2013-11-13 09:37:00,
2013-11-13 03:38:00,42.0,34.2,29.81,WNW,299,9.0,13.0,74,0.00,,,0.00,VWS V14.01,2013-11-13 09:38:00,
2013-11-13 03:39:00,42.1,34.3,29.81,WSW,243,6.0,13.0,74,0.00,,,0.00,VWS V14.01,2013-11-13 09:39:00,
2013-11-13 03:40:00,42.2,34.4,29.82,WSW,239,8.0,13.0,74,0.00,,,0.00,VWS V14.01,2013-11-13 09:40:00,
2013-11-13 03:41:00,42.4,35.0,29.81,West,281,7.0,13.0,75,0.00,,,0.00,VWS V14.01,2013-11-13 09:41:00,
2013-11-13 03:42:00,42.5,34.7,29.81,SW,215,9.0,14.0,74,0.00,,,0.00,VWS V14.01,2013-11-13 09:42:00,
2013-11-13 03:43:00,42.7,34.9,29.81,WSW,257,10.0,15.0,74,0.00,,,0.00,VWS V14.01,2013-11-13 09:43:00,
2013-11-13 03:44:00,42.9,35.1,29.81,SSW,212,8.0,15.0,74,0.00,,,0.00,VWS V14.01,2013-11-13 09:44:00,
2013-11-13 03:45:00,43.1,35.3,29.81,West,263,14.0,16.0,74,0.00,,,0.00,VWS V14.01,2013-11-13 09:45:00,
2013-11-13 03:46:00,43.3,35.5,29.81,WSW,248,13.0,19.0,74,0.00,,,0.00,VWS V14.01,2013-11-13 09:46:00,
2013-11-13 03:47:00,43.5,35.3,29.81,SW,224,11.0,19.0,73,0.00,,,0.00,VWS V14.01,2013-11-13 09:47:00,
2013-11-13 03:48:00,43.6,35.4,29.80,SW,219,5.0,19.0,73,0.00,,,0.00,VWS V14.01,2013-11-13 09:48:00,
2013-11-13 03:49:00,43.8,35.3,29.80,SW,230,14.0,19.0,72,0.00,,,0.00,VWS V14.01,2013-11-13 09:49:00,
2013-11-13 03:50:00,43.9,35.4,29.80,SSW,202,9.0,19.0,72,0.00,,,0.00,VWS V14.01,2013-11-13 09:50:00,
2013-11-13 03:51:00,44.0,35.5,29.80,SW,225,14.0,19.0,72,0.00,,,0.00,VWS V14.01,2013-11-13 09:51:00,
2013-11-13 03:52:00,44.1,35.2,29.80,SW,226,8.0,19.0,71,0.00,,,0.00,VWS V14.01,2013-11-13 09:52:00,
2013-11-13 03:53:00,44.2,35.3,29.80,SW,224,18.0,21.0,71,0.00,,,0.00,VWS V14.01,2013-11-13 09:53:00,
2013-11-13 03:54:00,44.3,35.4,29.80,SSW,209,13.0,21.0,71,0.00,,,0.00,VWS V14.01,2013-11-13 09:54:00,
2013-11-13 03:55:00,44.4,35.1,29.80,SSW,211,12.0,21.0,70,0.00,,,0.00,VWS V14.01,2013-11-13 09:55:00,
2013-11-13 03:56:00,44.4,35.1,29.80,SSW,209,13.0,21.0,70,0.00,,,0.00,VWS V14.01,2013-11-13 09:56:00,
2013-11-13 03:57:00,44.4,35.1,29.80,WSW,249,9.0,21.0,70,0.00,,,0.00,VWS V14.01,2013-11-13 09:57:00,
2013-11-13 03:58:00,44.4,35.1,29.80,SW,217,12.0,21.0,70,0.00,,,0.00,VWS V14.01,2013-11-13 09:58:00,
2013-11-13 03:59:00,44.3,35.0,29.80,SSW,207,7.0,21.0,70,0.00,,,0.00,VWS V14.01,2013-11-13 09:59:00,
2013-11-13 04:00:00,44.3,35.0,29.80,South,176,7.0,22.0,70,0.00,,,0.00,VWS V14.01,2013-11-13 10:00:00,
2013-11-13 04:01:00,44.3,35.0,29.80,SSW,210,6.0,12.0,70,0.00,,,0.00,VWS V14.01,2013-11-13 10:01:00,
2013-11-13 04:02:00,44.3,34.7,29.81,SW,223,6.0,12.0,69,0.00,,,0.00,VWS V14.01,2013-11-13 10:02:00,
2013-11-13 04:03:00,44.3,35.0,29.80,SW,234,7.0,12.0,70,0.00,,,0.00,VWS V14.01,2013-11-13 10:03:00,
2013-11-13 04:04:00,44.3,34.7,29.80,SW,224,13.0,24.0,69,0.00,,,0.00,VWS V14.01,2013-11-13 10:04:00,
2013-11-13 04:05:00,44.3,34.7,29.80,WSW,243,12.0,24.0,69,0.00,,,0.00,VWS V14.01,2013-11-13 10:05:00,
2013-11-13 04:06:00,44.3,34.7,29.81,South,190,9.0,24.0,69,0.00,,,0.00,VWS V14.01,2013-11-13 10:06:00,
2013-11-13 04:07:00,44.2,34.6,29.80,SW,219,7.0,24.0,69,0.00,,,0.00,VWS V14.01,2013-11-13 10:07:00,
2013-11-13 04:08:00,44.2,34.6,29.80,SSW,207,11.0,24.0,69,0.00,,,0.00,VWS V14.01,2013-11-13 10:08:00,
2013-11-13 04:09:00,44.1,34.5,29.80,SW,215,15.0,24.0,69,0.00,,,0.00,VWS V14.01,2013-11-13 10:09:00,
2013-11-13 04:10:00,44.0,34.4,29.80,SSW,203,17.0,24.0,69,0.00,,,0.00,VWS V14.01,2013-11-13 10:10:00,
2013-11-13 04:11:00,43.9,34.7,29.80,SW,236,13.0,24.0,70,0.00,,,0.00,VWS V14.01,2013-11-13 10:11:00,
2013-11-13 04:12:00,43.8,34.6,29.80,SW,229,15.0,24.0,70,0.00,,,0.00,VWS V14.01,2013-11-13 10:12:00,
2013-11-13 04:13:00,43.8,34.6,29.80,SW,217,9.0,24.0,70,0.00,,,0.00,VWS V14.01,2013-11-13 10:13:00,
2013-11-13 04:14:00,43.8,34.6,29.80,SW,231,18.0,24.0,70,0.00,,,0.00,VWS V14.01,2013-11-13 10:14:00,
2013-11-13 04:15:00,43.7,34.5,29.80,SW,223,8.0,24.0,70,0.00,,,0.00,VWS V14.01,2013-11-13 10:15:00,
2013-11-13 04:16:00,43.6,34.4,29.80,SSW,197,18.0,20.0,70,0.00,,,0.00,VWS V14.01,2013-11-13 10:16:00,
2013-11-13 04:17:00,43.6,34.4,29.80,SSW,211,12.0,20.0,70,0.00,,,0.00,VWS V14.01,2013-11-13 10:17:00,
2013-11-13 04:18:00,43.6,34.7,29.80,SSW,201,8.0,21.0,71,0.00,,,0.00,VWS V14.01,2013-11-13 10:18:00,
2013-11-13 04:19:00,43.6,34.7,29.79,SSW,209,12.0,21.0,71,0.00,,,0.00,VWS V14.01,2013-11-13 10:19:00,
2013-11-13 04:20:00,43.6,34.7,29.80,SW,224,15.0,21.0,71,0.00,,,0.00,VWS V14.01,2013-11-13 10:20:00,
2013-11-13 04:21:00,43.6,34.7,29.80,WSW,239,15.0,21.0,71,0.00,,,0.00,VWS V14.01,2013-11-13 10:21:00,
2013-11-13 04:22:00,43.7,34.8,29.80,SW,231,13.0,21.0,71,0.00,,,0.00,VWS V14.01,2013-11-13 10:22:00,
2013-11-13 04:23:00,43.8,34.9,29.80,SW,216,8.0,21.0,71,0.00,,,0.00,VWS V14.01,2013-11-13 10:23:00,
2013-11-13 04:24:00,43.9,35.0,29.80,SSW,201,14.0,21.0,71,0.00,,,0.00,VWS V14.01,2013-11-13 10:24:00,
2013-11-13 04:25:00,43.9,34.7,29.79,SSW,208,12.0,23.0,70,0.00,,,0.00,VWS V14.01,2013-11-13 10:25:00,
2013-11-13 04:26:00,44.0,34.8,29.79,SW,219,13.0,23.0,70,0.00,,,0.00,VWS V14.01,2013-11-13 10:26:00,
2013-11-13 04:27:00,44.0,34.8,29.79,SSW,211,10.0,23.0,70,0.00,,,0.00,VWS V14.01,2013-11-13 10:27:00,
2013-11-13 04:28:00,44.0,34.8,29.79,SW,223,16.0,24.0,70,0.00,,,0.00,VWS V14.01,2013-11-13 10:28:00,
2013-11-13 04:29:00,44.0,34.8,29.79,WSW,240,10.0,24.0,70,0.00,,,0.00,VWS V14.01,2013-11-13 10:29:00,
2013-11-13 04:30:00,43.9,34.7,29.79,SW,232,11.0,24.0,70,0.00,,,0.00,VWS V14.01,2013-11-13 10:30:00,
2013-11-13 04:31:00,43.9,34.7,29.79,SW,217,14.0,20.0,70,0.00,,,0.00,VWS V14.01,2013-11-13 10:31:00,
2013-11-13 04:32:00,43.8,34.6,29.79,SW,223,13.0,20.0,70,0.00,,,0.00,VWS V14.01,2013-11-13 10:32:00,
2013-11-13 04:33:00,43.8,34.6,29.79,SSW,207,9.0,20.0,70,0.00,,,0.00,VWS V14.01,2013-11-13 10:33:00,
2013-11-13 04:34:00,43.7,34.5,29.79,SW,228,15.0,21.0,70,0.00,,,0.00,VWS V14.01,2013-11-13 10:34:00,
2013-11-13 04:35:00,43.6,34.7,29.79,SW,223,13.0,21.0,71,0.00,,,0.00,VWS V14.01,2013-11-13 10:35:00,
2013-11-13 04:36:00,43.5,34.6,29.79,SW,225,12.0,21.0,71,0.00,,,0.00,VWS V14.01,2013-11-13 10:36:00,
2013-11-13 04:37:00,43.4,34.5,29.79,SW,217,16.0,26.0,71,0.00,,,0.00,VWS V14.01,2013-11-13 10:37:00,
2013-11-13 04:38:00,43.4,34.5,29.79,SW,217,11.0,26.0,71,0.00,,,0.00,VWS V14.01,2013-11-13 10:38:00,
2013-11-13 04:39:00,43.4,34.5,29.79,SW,220,6.0,26.0,71,0.00,,,0.00,VWS V14.01,2013-11-13 10:39:00,
2013-11-13 04:40:00,43.4,34.5,29.80,SW,224,10.0,26.0,71,0.00,,,0.00,VWS V14.01,2013-11-13 10:40:00,
2013-11-13 04:41:00,43.5,34.6,29.80,WSW,238,17.0,26.0,71,0.00,,,0.00,VWS V14.01,2013-11-13 10:41:00,
2013-11-13 04:42:00,43.5,34.6,29.80,SW,227,21.0,26.0,71,0.00,,,0.00,VWS V14.01,2013-11-13 10:42:00,
2013-11-13 04:43:00,43.5,34.6,29.79,SSW,196,14.0,26.0,71,0.00,,,0.00,VWS V14.01,2013-11-13 10:43:00,
2013-11-13 04:44:00,43.6,34.7,29.79,SW,226,12.0,26.0,71,0.00,,,0.00,VWS V14.01,2013-11-13 10:44:00,
2013-11-13 04:45:00,43.6,34.7,29.79,WSW,237,18.0,26.0,71,0.00,,,0.00,VWS V14.01,2013-11-13 10:45:00,
2013-11-13 04:46:00,43.7,34.8,29.80,SSW,208,11.0,19.0,71,0.00,,,0.00,VWS V14.01,2013-11-13 10:46:00,
2013-11-13 04:47:00,43.8,34.9,29.79,SSW,203,14.0,19.0,71,0.00,,,0.00,VWS V14.01,2013-11-13 10:47:00,
2013-11-13 04:48:00,43.9,35.0,29.79,South,188,16.0,19.0,71,0.00,,,0.00,VWS V14.01,2013-11-13 10:48:00,
2013-11-13 04:49:00,44.0,35.1,29.79,SW,225,14.0,19.0,71,0.00,,,0.00,VWS V14.01,2013-11-13 10:49:00,
2013-11-13 04:50:00,44.0,34.8,29.79,SSW,204,18.0,19.0,70,0.00,,,0.00,VWS V14.01,2013-11-13 10:50:00,
2013-11-13 04:51:00,44.0,34.8,29.79,SW,219,13.0,19.0,70,0.00,,,0.00,VWS V14.01,2013-11-13 10:51:00,
2013-11-13 04:52:00,44.0,34.8,29.79,SW,217,8.0,19.0,70,0.00,,,0.00,VWS V14.01,2013-11-13 10:52:00,
2013-11-13 04:53:00,43.9,34.7,29.80,SW,230,19.0,19.0,70,0.00,,,0.00,VWS V14.01,2013-11-13 10:53:00,
2013-11-13 04:54:00,43.9,34.7,29.80,SW,221,15.0,22.0,70,0.00,,,0.00,VWS V14.01,2013-11-13 10:54:00,
2013-11-13 04:55:00,43.8,34.6,29.80,WSW,240,21.0,22.0,70,0.00,,,0.00,VWS V14.01,2013-11-13 10:55:00,
2013-11-13 04:56:00,43.8,34.6,29.79,SW,219,15.0,22.0,70,0.00,,,0.00,VWS V14.01,2013-11-13 10:56:00,
2013-11-13 04:57:00,43.8,34.6,29.80,SW,217,14.0,22.0,70,0.00,,,0.00,VWS V14.01,2013-11-13 10:57:00,
2013-11-13 04:58:00,43.8,34.6,29.80,SW,215,17.0,22.0,70,0.00,,,0.00,VWS V14.01,2013-11-13 10:58:00,
2013-11-13 04:59:00,43.9,35.0,29.80,SW,230,21.0,23.0,71,0.00,,,0.00,VWS V14.01,2013-11-13 10:59:00,
2013-11-13 05:00:00,43.9,35.0,29.79,SW,228,8.0,23.0,71,0.00,,,0.00,VWS V14.01,2013-11-13 11:00:00,
2013-11-13 05:01:00,43.9,34.7,29.79,SW,232,11.0,18.0,70,0.00,,,0.00,VWS V14.01,2013-11-13 11:01:00,
2013-11-13 05:02:00,43.9,35.0,29.79,SSW,197,12.0,20.0,71,0.00,,,0.00,VWS V14.01,2013-11-13 11:02:00,
2013-11-13 05:03:00,43.9,35.0,29.79,SW,236,10.0,20.0,71,0.00,,,0.00,VWS V14.01,2013-11-13 11:03:00,
2013-11-13 05:04:00,43.8,34.9,29.79,SW,232,19.0,21.0,71,0.00,,,0.00,VWS V14.01,2013-11-13 11:04:00,
2013-11-13 05:05:00,43.8,34.6,29.80,SW,230,14.0,21.0,70,0.00,,,0.00,VWS V14.01,2013-11-13 11:05:00,
2013-11-13 05:06:00,43.8,34.6,29.80,SW,218,16.0,21.0,70,0.00,,,0.00,VWS V14.01,2013-11-13 11:06:00,
2013-11-13 05:07:00,43.8,34.6,29.80,South,190,10.0,21.0,70,0.00,,,0.00,VWS V14.01,2013-11-13 11:07:00,
2013-11-13 05:08:00,43.7,34.5,29.79,SSW,213,16.0,21.0,70,0.00,,,0.00,VWS V14.01,2013-11-13 11:08:00,
2013-11-13 05:09:00,43.7,34.8,29.79,SSW,213,12.0,21.0,71,0.00,,,0.00,VWS V14.01,2013-11-13 11:09:00,
2013-11-13 05:10:00,43.7,34.8,29.79,SSW,209,16.0,21.0,71,0.00,,,0.00,VWS V14.01,2013-11-13 11:10:00,
2013-11-13 05:11:00,43.6,34.7,29.79,SW,226,13.0,22.0,71,0.00,,,0.00,VWS V14.01,2013-11-13 11:11:00,
2013-11-13 05:12:00,43.6,34.7,29.79,SW,217,14.0,24.0,71,0.00,,,0.00,VWS V14.01,2013-11-13 11:12:00,
2013-11-13 05:13:00,43.6,34.7,29.79,SW,226,9.0,24.0,71,0.00,,,0.00,VWS V14.01,2013-11-13 11:13:00,
2013-11-13 05:14:00,43.6,34.7,29.79,SW,232,15.0,24.0,71,0.00,,,0.00,VWS V14.01,2013-11-13 11:14:00,
2013-11-13 05:15:00,43.5,34.6,29.79,SSW,201,12.0,24.0,71,0.00,,,0.00,VWS V14.01,2013-11-13 11:15:00,
2013-11-13 05:16:00,43.4,34.5,29.79,SW,220,9.0,20.0,71,0.00,,,0.00,VWS V14.01,2013-11-13 11:16:00,
2013-11-13 05:17:00,43.4,34.5,29.79,WSW,245,9.0,20.0,71,0.00,,,0.00,VWS V14.01,2013-11-13 11:17:00,
2013-11-13 05:18:00,43.4,34.5,29.79,SSW,209,8.0,20.0,71,0.00,,,0.00,VWS V14.01,2013-11-13 11:18:00,
2013-11-13 05:19:00,43.4,34.5,29.79,SW,215,9.0,20.0,71,0.00,,,0.00,VWS V14.01,2013-11-13 11:19:00,
2013-11-13 05:20:00,43.4,34.5,29.79,SSW,204,19.0,24.0,71,0.00,,,0.00,VWS V14.01,2013-11-13 11:20:00,
2013-11-13 05:21:00,43.5,34.6,29.78,SSW,204,15.0,24.0,71,0.00,,,0.00,VWS V14.01,2013-11-13 11:21:00,
2013-11-13 05:22:00,43.5,34.6,29.78,SW,232,15.0,24.0,71,0.00,,,0.00,VWS V14.01,2013-11-13 11:22:00,
2013-11-13 05:23:00,43.5,34.6,29.78,SSW,199,9.0,24.0,71,0.00,,,0.00,VWS V14.01,2013-11-13 11:23:00,
2013-11-13 05:24:00,43.5,34.6,29.78,SW,226,7.0,24.0,71,0.00,,,0.00,VWS V14.01,2013-11-13 11:24:00,
2013-11-13 05:25:00,43.5,34.6,29.78,SW,221,13.0,24.0,71,0.00,,,0.00,VWS V14.01,2013-11-13 11:25:00,
2013-11-13 05:26:00,43.6,34.7,29.79,SSW,211,16.0,24.0,71,0.00,,,0.00,VWS V14.01,2013-11-13 11:26:00,
2013-11-13 05:27:00,43.6,34.7,29.79,SSW,213,16.0,24.0,71,0.00,,,0.00,VWS V14.01,2013-11-13 11:27:00,
2013-11-13 05:28:00,43.6,35.1,29.78,SW,218,15.0,24.0,72,0.00,,,0.00,VWS V14.01,2013-11-13 11:28:00,
2013-11-13 05:29:00,43.6,34.7,29.77,SW,221,11.0,24.0,71,0.00,,,0.00,VWS V14.01,2013-11-13 11:29:00,
2013-11-13 05:30:00,43.7,34.8,29.77,SSW,209,9.0,24.0,71,0.00,,,0.00,VWS V14.01,2013-11-13 11:30:00,
2013-11-13 05:31:00,43.6,34.7,29.78,SW,222,14.0,20.0,71,0.00,,,0.00,VWS V14.01,2013-11-13 11:31:00,
2013-11-13 05:32:00,43.6,34.7,29.78,SSW,209,13.0,20.0,71,0.00,,,0.00,VWS V14.01,2013-11-13 11:32:00,
2013-11-13 05:33:00,43.5,34.6,29.77,SSW,205,11.0,20.0,71,0.00,,,0.00,VWS V14.01,2013-11-13 11:33:00,
2013-11-13 05:34:00,43.5,34.6,29.77,SW,215,12.0,20.0,71,0.00,,,0.00,VWS V14.01,2013-11-13 11:34:00,
2013-11-13 05:35:00,43.4,34.9,29.77,SSW,207,13.0,20.0,72,0.00,,,0.00,VWS V14.01,2013-11-13 11:35:00,
2013-11-13 05:36:00,43.4,34.5,29.78,SSW,209,15.0,20.0,71,0.00,,,0.00,VWS V14.01,2013-11-13 11:36:00,
2013-11-13 05:37:00,43.3,34.4,29.77,SW,230,11.0,20.0,71,0.00,,,0.00,VWS V14.01,2013-11-13 11:37:00,
2013-11-13 05:38:00,43.3,34.4,29.78,SSW,206,9.0,20.0,71,0.00,,,0.00,VWS V14.01,2013-11-13 11:38:00,
2013-11-13 05:39:00,43.2,34.7,29.77,SW,214,10.0,20.0,72,0.00,,,0.00,VWS V14.01,2013-11-13 11:39:00,
2013-11-13 05:40:00,43.1,34.6,29.77,SW,223,14.0,20.0,72,0.00,,,0.00,VWS V14.01,2013-11-13 11:40:00,
2013-11-13 05:41:00,43.0,34.5,29.77,SW,215,18.0,20.0,72,0.00,,,0.00,VWS V14.01,2013-11-13 11:41:00,
2013-11-13 05:42:00,42.9,34.4,29.77,SSW,196,15.0,20.0,72,0.00,,,0.00,VWS V14.01,2013-11-13 11:42:00,
2013-11-13 05:43:00,42.9,34.4,29.77,SSW,211,16.0,20.0,72,0.00,,,0.00,VWS V14.01,2013-11-13 11:43:00,
2013-11-13 05:44:00,42.8,34.3,29.77,SSW,207,9.0,20.0,72,0.00,,,0.00,VWS V14.01,2013-11-13 11:44:00,
2013-11-13 05:45:00,42.8,34.7,29.78,WSW,237,10.0,21.0,73,0.00,,,0.00,VWS V14.01,2013-11-13 11:45:00,
2013-11-13 05:46:00,42.7,34.6,29.78,SW,227,6.0,15.0,73,0.00,,,0.00,VWS V14.01,2013-11-13 11:46:00,
2013-11-13 05:47:00,42.7,34.6,29.78,SW,232,13.0,18.0,73,0.00,,,0.00,VWS V14.01,2013-11-13 11:47:00,
2013-11-13 05:48:00,42.7,34.6,29.78,SSW,205,6.0,18.0,73,0.00,,,0.00,VWS V14.01,2013-11-13 11:48:00,
2013-11-13 05:49:00,42.6,34.5,29.78,SSW,213,8.0,18.0,73,0.00,,,0.00,VWS V14.01,2013-11-13 11:49:00,
2013-11-13 05:50:00,42.6,34.5,29.78,SW,225,13.0,18.0,73,0.00,,,0.00,VWS V14.01,2013-11-13 11:50:00,
2013-11-13 05:51:00,42.5,34.4,29.78,SW,226,13.0,18.0,73,0.00,,,0.00,VWS V14.01,2013-11-13 11:51:00,
2013-11-13 05:52:00,42.5,34.4,29.78,SW,236,11.0,18.0,73,0.00,,,0.00,VWS V14.01,2013-11-13 11:52:00,
2013-11-13 05:53:00,42.4,34.3,29.78,SW,219,9.0,18.0,73,0.00,,,0.00,VWS V14.01,2013-11-13 11:53:00,
2013-11-13 05:54:00,42.4,34.3,29.78,SSW,213,9.0,18.0,73,0.00,,,0.00,VWS V14.01,2013-11-13 11:54:00,
2013-11-13 05:55:00,42.4,34.3,29.77,SW,217,13.0,18.0,73,0.00,,,0.00,VWS V14.01,2013-11-13 11:55:00,
2013-11-13 05:56:00,42.3,34.5,29.78,SW,215,10.0,18.0,74,0.00,,,0.00,VWS V14.01,2013-11-13 11:56:00,
2013-11-13 05:57:00,42.3,34.5,29.78,SW,228,11.0,18.0,74,0.00,,,0.00,VWS V14.01,2013-11-13 11:57:00,
2013-11-13 05:58:00,42.3,34.5,29.78,SW,215,8.0,18.0,74,0.00,,,0.00,VWS V14.01,2013-11-13 11:58:00,
2013-11-13 05:59:00,42.2,34.4,29.78,SW,221,8.0,18.0,74,0.00,,,0.00,VWS V14.01,2013-11-13 11:59:00,
2013-11-13 06:00:00,42.2,34.4,29.77,SW,215,9.0,18.0,74,0.00,,,0.00,VWS V14.01,2013-11-13 12:00:00,
2013-11-13 06:01:00,42.1,34.3,29.77,SSW,213,11.0,13.0,74,0.00,,,0.00,VWS V14.01,2013-11-13 12:01:00,
2013-11-13 06:02:00,42.1,34.3,29.77,SW,236,8.0,14.0,74,0.00,,,0.00,VWS V14.01,2013-11-13 12:02:00,
2013-11-13 06:03:00,42.1,34.3,29.77,South,186,10.0,15.0,74,0.00,,,0.00,VWS V14.01,2013-11-13 12:03:00,
2013-11-13 06:04:00,42.1,34.3,29.78,SW,225,10.0,15.0,74,0.00,,,0.00,VWS V14.01,2013-11-13 12:04:00,
2013-11-13 06:05:00,42.1,34.3,29.78,SW,218,14.0,15.0,74,0.00,,,0.00,VWS V14.01,2013-11-13 12:05:00,
2013-11-13 06:06:00,42.1,34.7,29.78,SSW,203,13.0,18.0,75,0.00,,,0.00,VWS V14.01,2013-11-13 12:06:00,
2013-11-13 06:07:00,42.1,34.7,29.77,SW,214,8.0,18.0,75,0.00,,,0.00,VWS V14.01,2013-11-13 12:07:00,
2013-11-13 06:08:00,42.2,34.8,29.77,SSW,197,8.0,18.0,75,0.00,,,0.00,VWS V14.01,2013-11-13 12:08:00,
2013-11-13 06:09:00,42.2,34.8,29.77,SW,215,12.0,18.0,75,0.00,,,0.00,VWS V14.01,2013-11-13 12:09:00,
2013-11-13 06:10:00,42.2,34.8,29.77,SW,214,15.0,18.0,75,0.00,,,0.00,VWS V14.01,2013-11-13 12:10:00,
2013-11-13 06:11:00,42.2,34.8,29.77,SSW,207,11.0,18.0,75,0.00,,,0.00,VWS V14.01,2013-11-13 12:11:00,
2013-11-13 06:12:00,42.1,34.7,29.77,SSW,203,11.0,18.0,75,0.00,,,0.00,VWS V14.01,2013-11-13 12:12:00,
2013-11-13 06:13:00,42.1,34.7,29.77,SW,218,12.0,18.0,75,0.00,,,0.00,VWS V14.01,2013-11-13 12:13:00,
2013-11-13 06:14:00,42.1,34.7,29.78,SW,217,14.0,18.0,75,0.00,,,0.00,VWS V14.01,2013-11-13 12:14:00,
2013-11-13 06:15:00,42.1,34.7,29.77,SW,216,11.0,19.0,75,0.00,,,0.00,VWS V14.01,2013-11-13 12:15:00,
2013-11-13 06:16:00,42.2,34.8,29.77,SSW,209,13.0,18.0,75,0.00,,,0.00,VWS V14.01,2013-11-13 12:16:00,
2013-11-13 06:17:00,42.2,34.8,29.77,SW,219,12.0,18.0,75,0.00,,,0.00,VWS V14.01,2013-11-13 12:17:00,
2013-11-13 06:18:00,42.3,34.8,29.77,SW,217,9.0,18.0,75,0.00,,,0.00,VWS V14.01,2013-11-13 12:18:00,
2013-11-13 06:19:00,42.3,34.8,29.78,SW,235,7.0,18.0,75,0.00,,,0.00,VWS V14.01,2013-11-13 12:19:00,
2013-11-13 06:20:00,42.3,34.8,29.78,SSW,199,12.0,21.0,75,0.00,,,0.00,VWS V14.01,2013-11-13 12:20:00,
2013-11-13 06:21:00,42.2,34.8,29.78,SW,221,12.0,21.0,75,0.00,,,0.00,VWS V14.01,2013-11-13 12:21:00,
2013-11-13 06:22:00,42.2,34.8,29.78,SW,227,8.0,21.0,75,0.00,,,0.00,VWS V14.01,2013-11-13 12:22:00,
2013-11-13 06:23:00,42.2,34.8,29.78,SW,221,7.0,21.0,75,0.00,,,0.00,VWS V14.01,2013-11-13 12:23:00,
2013-11-13 06:24:00,42.2,34.8,29.78,SW,233,12.0,21.0,75,0.00,,,0.00,VWS V14.01,2013-11-13 12:24:00,
2013-11-13 06:25:00,42.2,34.8,29.78,SSW,209,8.0,21.0,75,0.00,,,0.00,VWS V14.01,2013-11-13 12:25:00,
2013-11-13 06:26:00,42.2,34.8,29.78,SW,226,9.0,21.0,75,0.00,,,0.00,VWS V14.01,2013-11-13 12:26:00,
2013-11-13 06:27:00,42.3,34.8,29.78,SW,218,8.0,21.0,75,0.00,,,0.00,VWS V14.01,2013-11-13 12:27:00,
2013-11-13 06:28:00,42.3,34.8,29.78,WSW,245,7.0,21.0,75,0.00,,,0.00,VWS V14.01,2013-11-13 12:28:00,
2013-11-13 06:29:00,42.2,34.8,29.78,WNW,302,2.0,21.0,75,0.00,,,0.00,VWS V14.01,2013-11-13 12:29:00,
2013-11-13 06:30:00,42.3,34.8,29.78,WNW,288,4.0,21.0,75,0.00,,,0.00,VWS V14.01,2013-11-13 12:30:00,
2013-11-13 06:31:00,42.3,34.8,29.78,West,270,4.0,7.0,75,0.00,,,0.00,VWS V14.01,2013-11-13 12:31:00,
2013-11-13 06:32:00,42.2,34.8,29.78,WNW,287,8.0,9.0,75,0.00,,,0.00,VWS V14.01,2013-11-13 12:32:00,
2013-11-13 06:33:00,42.2,34.8,29.78,West,263,7.0,9.0,75,0.00,,,0.00,VWS V14.01,2013-11-13 12:33:00,
2013-11-13 06:34:00,42.2,34.8,29.79,West,266,6.0,9.0,75,0.00,,,0.00,VWS V14.01,2013-11-13 12:34:00,
2013-11-13 06:35:00,42.2,34.8,29.79,West,276,7.0,12.0,75,0.00,,,0.00,VWS V14.01,2013-11-13 12:35:00,
2013-11-13 06:36:00,42.2,34.8,29.79,WNW,289,5.0,12.0,75,0.00,,,0.00,VWS V14.01,2013-11-13 12:36:00,
2013-11-13 06:37:00,42.1,34.7,29.79,WSW,238,3.0,12.0,75,0.00,,,0.00,VWS V14.01,2013-11-13 12:37:00,
2013-11-13 06:38:00,42.0,34.6,29.79,WSW,253,6.0,12.0,75,0.00,,,0.00,VWS V14.01,2013-11-13 12:38:00,
2013-11-13 06:39:00,41.9,34.5,29.79,West,269,5.0,12.0,75,0.00,,,0.00,VWS V14.01,2013-11-13 12:39:00,
2013-11-13 06:40:00,41.8,34.4,29.79,West,271,5.0,12.0,75,0.00,,,0.00,VWS V14.01,2013-11-13 12:40:00,
2013-11-13 06:41:00,41.8,34.4,29.78,WNW,282,5.0,12.0,75,0.00,,,0.00,VWS V14.01,2013-11-13 12:41:00,
2013-11-13 06:42:00,41.7,34.3,29.78,West,259,6.0,12.0,75,0.00,,,0.00,VWS V14.01,2013-11-13 12:42:00,
2013-11-13 06:43:00,41.6,34.2,29.78,WSW,257,5.0,12.0,75,0.00,,,0.00,VWS V14.01,2013-11-13 12:43:00,
2013-11-13 06:44:00,41.6,34.5,29.78,West,271,5.0,12.0,76,0.00,,,0.00,VWS V14.01,2013-11-13 12:44:00,
2013-11-13 06:45:00,41.6,34.5,29.78,West,265,5.0,12.0,76,0.00,,,0.00,VWS V14.01,2013-11-13 12:45:00,
2013-11-13 06:46:00,41.5,34.4,29.78,SW,232,10.0,10.0,76,0.00,,,0.00,VWS V14.01,2013-11-13 12:46:00,
2013-11-13 06:47:00,41.5,34.4,29.78,West,263,6.0,12.0,76,0.00,,,0.00,VWS V14.01,2013-11-13 12:47:00,
2013-11-13 06:48:00,41.5,34.4,29.78,SW,233,8.0,12.0,76,0.00,,,0.00,VWS V14.01,2013-11-13 12:48:00,
2013-11-13 06:49:00,41.5,34.4,29.78,SW,219,7.0,12.0,76,0.00,,,0.00,VWS V14.01,2013-11-13 12:49:00,
2013-11-13 06:50:00,41.5,34.4,29.78,West,260,6.0,12.0,76,0.00,,,0.00,VWS V14.01,2013-11-13 12:50:00,
2013-11-13 06:51:00,41.5,34.4,29.78,SW,221,7.0,12.0,76,0.00,,,0.00,VWS V14.01,2013-11-13 12:51:00,
2013-11-13 06:52:00,41.6,34.8,29.78,WSW,253,9.0,15.0,77,0.00,,,0.00,VWS V14.01,2013-11-13 12:52:00,
2013-11-13 06:53:00,41.7,34.9,29.77,SW,230,5.0,15.0,77,0.00,,,0.00,VWS V14.01,2013-11-13 12:53:00,
2013-11-13 06:54:00,41.9,35.1,29.78,WSW,240,7.0,16.0,77,0.00,,,0.00,VWS V14.01,2013-11-13 12:54:00,
2013-11-13 06:55:00,42.0,34.9,29.78,West,271,7.0,16.0,76,0.00,,,0.00,VWS V14.01,2013-11-13 12:55:00,
2013-11-13 06:56:00,42.2,35.1,29.77,WSW,255,6.0,16.0,76,0.00,,,0.00,VWS V14.01,2013-11-13 12:56:00,
2013-11-13 06:57:00,42.3,35.2,29.77,WSW,255,10.0,16.0,76,0.00,,,0.00,VWS V14.01,2013-11-13 12:57:00,
2013-11-13 06:58:00,42.5,35.4,29.77,WSW,251,9.0,16.0,76,0.00,,,0.00,VWS V14.01,2013-11-13 12:58:00,
2013-11-13 06:59:00,42.6,35.5,29.77,West,273,7.0,16.0,76,0.00,,,0.00,VWS V14.01,2013-11-13 12:59:00,
2013-11-13 07:00:00,42.8,35.3,29.77,SW,223,16.0,16.0,75,0.00,,,0.00,VWS V14.01,2013-11-13 13:00:00,
2013-11-13 07:01:00,42.9,35.4,29.77,WSW,241,11.0,14.0,75,0.00,,,0.00,VWS V14.01,2013-11-13 13:01:00,
2013-11-13 07:02:00,43.0,35.5,29.77,West,266,7.0,16.0,75,0.00,,,0.00,VWS V14.01,2013-11-13 13:02:00,
2013-11-13 07:03:00,43.2,35.7,29.76,West,259,11.0,17.0,75,0.00,,,0.00,VWS V14.01,2013-11-13 13:03:00,
2013-11-13 07:04:00,43.3,35.8,29.77,WSW,240,13.0,17.0,75,0.00,,,0.00,VWS V14.01,2013-11-13 13:04:00,
2013-11-13 07:05:00,43.5,35.7,29.77,WSW,237,11.0,17.0,74,0.00,,,0.00,VWS V14.01,2013-11-13 13:05:00,
2013-11-13 07:06:00,43.6,35.8,29.77,SW,221,9.0,18.0,74,0.00,,,0.00,VWS V14.01,2013-11-13 13:06:00,
2013-11-13 07:07:00,43.8,36.0,29.76,SW,232,6.0,18.0,74,0.00,,,0.00,VWS V14.01,2013-11-13 13:07:00,
2013-11-13 07:08:00,43.9,35.7,29.77,WSW,237,17.0,19.0,73,0.00,,,0.00,VWS V14.01,2013-11-13 13:08:00,
2013-11-13 07:09:00,44.1,35.9,29.77,SW,215,14.0,19.0,73,0.00,,,0.00,VWS V14.01,2013-11-13 13:09:00,
2013-11-13 07:10:00,44.2,36.0,29.77,SW,223,15.0,19.0,73,0.00,,,0.00,VWS V14.01,2013-11-13 13:10:00,
2013-11-13 07:11:00,44.2,36.0,29.77,WSW,242,9.0,19.0,73,0.00,,,0.00,VWS V14.01,2013-11-13 13:11:00,
2013-11-13 07:12:00,44.3,36.1,29.76,South,190,11.0,19.0,73,0.00,,,0.00,VWS V14.01,2013-11-13 13:12:00,
2013-11-13 07:13:00,44.3,35.8,29.76,WSW,246,14.0,20.0,72,0.00,,,0.00,VWS V14.01,2013-11-13 13:13:00,
2013-11-13 07:14:00,44.5,35.9,29.77,WSW,240,12.0,22.0,72,0.00,,,0.00,VWS V14.01,2013-11-13 13:14:00,
2013-11-13 07:15:00,44.5,35.9,29.77,SSW,200,10.0,22.0,72,0.00,,,0.00,VWS V14.01,2013-11-13 13:15:00,
2013-11-13 07:16:00,44.5,35.9,29.77,SW,221,10.0,21.0,72,0.00,,,0.00,VWS V14.01,2013-11-13 13:16:00,
2013-11-13 07:17:00,44.5,35.9,29.77,SW,234,12.0,21.0,72,0.00,,,0.00,VWS V14.01,2013-11-13 13:17:00,
2013-11-13 07:18:00,44.5,35.9,29.77,South,180,10.0,21.0,72,0.00,,,0.00,VWS V14.01,2013-11-13 13:18:00,
2013-11-13 07:19:00,44.5,35.9,29.76,SW,219,14.0,21.0,72,0.00,,,0.00,VWS V14.01,2013-11-13 13:19:00,
2013-11-13 07:20:00,44.4,35.8,29.77,WSW,254,9.0,21.0,72,0.00,,,0.00,VWS V14.01,2013-11-13 13:20:00,
2013-11-13 07:21:00,44.4,35.8,29.77,WSW,239,15.0,21.0,72,0.00,,,0.00,VWS V14.01,2013-11-13 13:21:00,
2013-11-13 07:22:00,44.4,35.8,29.77,SW,226,11.0,21.0,72,0.00,,,0.00,VWS V14.01,2013-11-13 13:22:00,
2013-11-13 07:23:00,44.3,35.8,29.77,WSW,251,10.0,21.0,72,0.00,,,0.00,VWS V14.01,2013-11-13 13:23:00,
2013-11-13 07:24:00,44.3,35.8,29.77,West,279,14.0,21.0,72,0.00,,,0.00,VWS V14.01,2013-11-13 13:24:00,
2013-11-13 07:25:00,44.3,35.8,29.77,SW,223,9.0,21.0,72,0.00,,,0.00,VWS V14.01,2013-11-13 13:25:00,
2013-11-13 07:26:00,44.3,35.8,29.77,WSW,244,10.0,21.0,72,0.00,,,0.00,VWS V14.01,2013-11-13 13:26:00,
2013-11-13 07:27:00,44.2,35.7,29.78,WSW,247,7.0,21.0,72,0.00,,,0.00,VWS V14.01,2013-11-13 13:27:00,
2013-11-13 07:28:00,44.2,35.7,29.78,WSW,242,10.0,21.0,72,0.00,,,0.00,VWS V14.01,2013-11-13 13:28:00,
2013-11-13 07:29:00,44.2,35.7,29.78,West,268,10.0,21.0,72,0.00,,,0.00,VWS V14.01,2013-11-13 13:29:00,
2013-11-13 07:30:00,44.1,35.6,29.78,WSW,253,6.0,21.0,72,0.00,,,0.00,VWS V14.01,2013-11-13 13:30:00,
2013-11-13 07:31:00,44.1,35.6,29.78,West,265,8.0,18.0,72,0.00,,,0.00,VWS V14.01,2013-11-13 13:31:00,
2013-11-13 07:32:00,44.1,35.6,29.78,WSW,238,9.0,18.0,72,0.00,,,0.00,VWS V14.01,2013-11-13 13:32:00,
2013-11-13 07:33:00,44.1,35.6,29.78,SW,226,11.0,18.0,72,0.00,,,0.00,VWS V14.01,2013-11-13 13:33:00,
2013-11-13 07:34:00,44.1,35.6,29.77,SSW,210,12.0,18.0,72,0.00,,,0.00,VWS V14.01,2013-11-13 13:34:00,
2013-11-13 07:35:00,44.1,35.6,29.78,West,281,10.0,18.0,72,0.00,,,0.00,VWS V14.01,2013-11-13 13:35:00,
2013-11-13 07:36:00,44.1,35.6,29.78,SW,226,13.0,18.0,72,0.00,,,0.00,VWS V14.01,2013-11-13 13:36:00,
2013-11-13 07:37:00,44.1,35.6,29.78,West,276,10.0,18.0,72,0.00,,,0.00,VWS V14.01,2013-11-13 13:37:00,
2013-11-13 07:38:00,44.0,35.5,29.78,WNW,294,9.0,18.0,72,0.00,,,0.00,VWS V14.01,2013-11-13 13:38:00,
2013-11-13 07:39:00,44.0,35.5,29.78,WNW,285,6.0,18.0,72,0.00,,,0.00,VWS V14.01,2013-11-13 13:39:00,
2013-11-13 07:40:00,44.0,35.5,29.78,SW,224,8.0,18.0,72,0.00,,,0.00,VWS V14.01,2013-11-13 13:40:00,
2013-11-13 07:41:00,44.0,35.5,29.78,West,280,8.0,19.0,72,0.00,,,0.00,VWS V14.01,2013-11-13 13:41:00,
2013-11-13 07:42:00,44.0,35.5,29.78,WSW,255,5.0,19.0,72,0.00,,,0.00,VWS V14.01,2013-11-13 13:42:00,
2013-11-13 07:43:00,44.0,35.5,29.78,West,265,6.0,19.0,72,0.00,,,0.00,VWS V14.01,2013-11-13 13:43:00,
2013-11-13 07:44:00,44.0,35.5,29.78,WSW,253,8.0,19.0,72,0.00,,,0.00,VWS V14.01,2013-11-13 13:44:00,
2013-11-13 07:45:00,44.0,35.5,29.78,West,271,8.0,19.0,72,0.00,,,0.00,VWS V14.01,2013-11-13 13:45:00,
2013-11-13 07:46:00,43.9,35.4,29.78,WSW,244,6.0,10.0,72,0.00,,,0.00,VWS V14.01,2013-11-13 13:46:00,
2013-11-13 07:47:00,43.9,35.4,29.78,West,273,6.0,15.0,72,0.00,,,0.00,VWS V14.01,2013-11-13 13:47:00,
2013-11-13 07:48:00,43.8,35.3,29.78,West,269,6.0,15.0,72,0.00,,,0.00,VWS V14.01,2013-11-13 13:48:00,
2013-11-13 07:49:00,43.8,35.3,29.78,WNW,284,13.0,15.0,72,0.00,,,0.00,VWS V14.01,2013-11-13 13:49:00,
2013-11-13 07:50:00,43.8,35.3,29.78,West,265,8.0,17.0,72,0.00,,,0.00,VWS V14.01,2013-11-13 13:50:00,
2013-11-13 07:51:00,43.7,35.5,29.78,WSW,253,10.0,17.0,73,0.00,,,0.00,VWS V14.01,2013-11-13 13:51:00,
2013-11-13 07:52:00,43.7,35.5,29.78,WSW,253,6.0,17.0,73,0.00,,,0.00,VWS V14.01,2013-11-13 13:52:00,
2013-11-13 07:53:00,43.8,35.6,29.78,West,273,9.0,17.0,73,0.00,,,0.00,VWS V14.01,2013-11-13 13:53:00,
2013-11-13 07:54:00,43.7,35.5,29.78,WNW,303,9.0,17.0,73,0.00,,,0.00,VWS V14.01,2013-11-13 13:54:00,
2013-11-13 07:55:00,43.8,35.6,29.78,WSW,243,9.0,17.0,73,0.00,,,0.00,VWS V14.01,2013-11-13 13:55:00,
2013-11-13 07:56:00,43.8,35.6,29.78,West,262,9.0,17.0,73,0.00,,,0.00,VWS V14.01,2013-11-13 13:56:00,
2013-11-13 07:57:00,43.8,35.6,29.78,NW,305,10.0,17.0,73,0.00,,,0.00,VWS V14.01,2013-11-13 13:57:00,
2013-11-13 07:58:00,43.8,35.6,29.78,WSW,257,9.0,17.0,73,0.00,,,0.00,VWS V14.01,2013-11-13 13:58:00,
2013-11-13 07:59:00,43.8,35.6,29.78,West,280,10.0,17.0,73,0.00,,,0.00,VWS V14.01,2013-11-13 13:59:00,
2013-11-13 08:00:00,43.9,35.7,29.78,WSW,247,6.0,17.0,73,0.00,,,0.00,VWS V14.01,2013-11-13 14:00:00,
2013-11-13 08:01:00,43.9,35.4,29.78,WNW,288,9.0,12.0,72,0.00,,,0.00,VWS V14.01,2013-11-13 14:01:00,
2013-11-13 08:02:00,44.0,35.5,29.78,WSW,243,13.0,16.0,72,0.00,,,0.00,VWS V14.01,2013-11-13 14:02:00,
2013-11-13 08:03:00,44.0,35.5,29.78,West,280,7.0,16.0,72,0.00,,,0.00,VWS V14.01,2013-11-13 14:03:00,
2013-11-13 08:04:00,44.1,35.6,29.78,West,271,9.0,16.0,72,0.00,,,0.00,VWS V14.01,2013-11-13 14:04:00,
2013-11-13 08:05:00,44.1,35.6,29.79,West,277,9.0,16.0,72,0.00,,,0.00,VWS V14.01,2013-11-13 14:05:00,
2013-11-13 08:06:00,44.1,35.6,29.78,West,271,7.0,16.0,72,0.00,,,0.00,VWS V14.01,2013-11-13 14:06:00,
2013-11-13 08:07:00,44.2,35.7,29.79,West,276,10.0,16.0,72,0.00,,,0.00,VWS V14.01,2013-11-13 14:07:00,
2013-11-13 08:08:00,44.2,35.7,29.79,NW,312,7.0,16.0,72,0.00,,,0.00,VWS V14.01,2013-11-13 14:08:00,
2013-11-13 08:09:00,44.2,35.7,29.79,West,265,7.0,16.0,72,0.00,,,0.00,VWS V14.01,2013-11-13 14:09:00,
2013-11-13 08:10:00,44.2,35.7,29.78,WSW,246,11.0,16.0,72,0.00,,,0.00,VWS V14.01,2013-11-13 14:10:00,
2013-11-13 08:11:00,44.2,35.7,29.78,WSW,257,12.0,16.0,72,0.00,,,0.00,VWS V14.01,2013-11-13 14:11:00,
2013-11-13 08:12:00,44.3,35.8,29.78,West,263,17.0,17.0,72,0.00,,,0.00,VWS V14.01,2013-11-13 14:12:00,
2013-11-13 08:13:00,44.3,35.8,29.79,WSW,242,10.0,17.0,72,0.00,,,0.00,VWS V14.01,2013-11-13 14:13:00,
2013-11-13 08:14:00,44.4,35.8,29.78,West,266,12.0,17.0,72,0.00,,,0.00,VWS V14.01,2013-11-13 14:14:00,
2013-11-13 08:15:00,44.5,35.6,29.78,WSW,258,14.0,17.0,71,0.00,,,0.00,VWS V14.01,2013-11-13 14:15:00,
2013-11-13 08:16:00,44.5,35.6,29.78,SW,222,7.0,14.0,71,0.00,,,0.00,VWS V14.01,2013-11-13 14:16:00,
2013-11-13 08:17:00,44.5,35.6,29.78,SW,234,11.0,16.0,71,0.00,,,0.00,VWS V14.01,2013-11-13 14:17:00,
2013-11-13 08:18:00,44.5,35.6,29.79,SW,236,9.0,16.0,71,0.00,,,0.00,VWS V14.01,2013-11-13 14:18:00,
2013-11-13 08:19:00,44.6,35.7,29.78,West,267,6.0,16.0,71,0.00,,,0.00,VWS V14.01,2013-11-13 14:19:00,
2013-11-13 08:20:00,44.6,35.7,29.79,WSW,239,11.0,16.0,71,0.00,,,0.00,VWS V14.01,2013-11-13 14:20:00,
2013-11-13 08:21:00,44.6,35.7,29.79,WNW,286,10.0,16.0,71,0.00,,,0.00,VWS V14.01,2013-11-13 14:21:00,
2013-11-13 08:22:00,44.6,35.7,29.79,WNW,285,7.0,16.0,71,0.00,,,0.00,VWS V14.01,2013-11-13 14:22:00,
2013-11-13 08:23:00,44.6,35.7,29.79,WNW,293,8.0,16.0,71,0.00,,,0.00,VWS V14.01,2013-11-13 14:23:00,
2013-11-13 08:24:00,44.6,35.7,29.79,West,271,7.0,16.0,71,0.00,,,0.00,VWS V14.01,2013-11-13 14:24:00,
2013-11-13 08:25:00,44.5,35.6,29.78,West,265,13.0,16.0,71,0.00,,,0.00,VWS V14.01,2013-11-13 14:25:00,
2013-11-13 08:26:00,44.5,35.6,29.79,SW,227,16.0,16.0,71,0.00,,,0.00,VWS V14.01,2013-11-13 14:26:00,
2013-11-13 08:27:00,44.5,35.6,29.79,WSW,238,6.0,16.0,71,0.00,,,0.00,VWS V14.01,2013-11-13 14:27:00,
2013-11-13 08:28:00,44.5,35.6,29.79,WSW,255,11.0,16.0,71,0.00,,,0.00,VWS V14.01,2013-11-13 14:28:00,
2013-11-13 08:29:00,44.5,35.6,29.79,WNW,284,9.0,16.0,71,0.00,,,0.00,VWS V14.01,2013-11-13 14:29:00,
2013-11-13 08:30:00,44.5,35.6,29.79,WNW,302,11.0,16.0,71,0.00,,,0.00,VWS V14.01,2013-11-13 14:30:00,
2013-11-13 08:31:00,44.5,35.2,29.79,West,273,7.0,13.0,70,0.00,,,0.00,VWS V14.01,2013-11-13 14:31:00,
2013-11-13 08:32:00,44.5,35.2,29.79,West,259,10.0,13.0,70,0.00,,,0.00,VWS V14.01,2013-11-13 14:32:00,
2013-11-13 08:33:00,44.5,35.2,29.79,WSW,251,13.0,18.0,70,0.00,,,0.00,VWS V14.01,2013-11-13 14:33:00,
2013-11-13 08:34:00,44.5,35.2,29.79,West,280,7.0,18.0,70,0.00,,,0.00,VWS V14.01,2013-11-13 14:34:00,
2013-11-13 08:35:00,44.5,35.2,29.79,WSW,244,10.0,18.0,70,0.00,,,0.00,VWS V14.01,2013-11-13 14:35:00,
2013-11-13 08:36:00,44.5,35.2,29.79,WSW,253,11.0,18.0,70,0.00,,,0.00,VWS V14.01,2013-11-13 14:36:00,
2013-11-13 08:37:00,44.5,35.2,29.79,WSW,257,9.0,18.0,70,0.00,,,0.00,VWS V14.01,2013-11-13 14:37:00,
2013-11-13 08:38:00,44.5,35.2,29.79,SW,232,10.0,18.0,70,0.00,,,0.00,VWS V14.01,2013-11-13 14:38:00,
2013-11-13 08:39:00,44.5,35.2,29.80,West,278,9.0,18.0,70,0.00,,,0.00,VWS V14.01,2013-11-13 14:39:00,
2013-11-13 08:40:00,44.5,35.2,29.79,West,269,6.0,18.0,70,0.00,,,0.00,VWS V14.01,2013-11-13 14:40:00,
2013-11-13 08:41:00,44.6,35.3,29.80,West,261,6.0,18.0,70,0.00,,,0.00,VWS V14.01,2013-11-13 14:41:00,
2013-11-13 08:42:00,44.6,35.3,29.80,WSW,246,9.0,18.0,70,0.00,,,0.00,VWS V14.01,2013-11-13 14:42:00,
2013-11-13 08:43:00,44.6,35.3,29.80,SW,224,11.0,18.0,70,0.00,,,0.00,VWS V14.01,2013-11-13 14:43:00,
2013-11-13 08:44:00,44.6,35.3,29.80,WSW,240,15.0,18.0,70,0.00,,,0.00,VWS V14.01,2013-11-13 14:44:00,
2013-11-13 08:45:00,44.6,35.3,29.80,WSW,241,7.0,18.0,70,0.00,,,0.00,VWS V14.01,2013-11-13 14:45:00,
2013-11-13 08:46:00,44.6,35.3,29.80,SSW,209,6.0,14.0,70,0.00,,,0.00,VWS V14.01,2013-11-13 14:46:00,
2013-11-13 08:47:00,44.6,35.3,29.80,SW,235,6.0,14.0,70,0.00,,,0.00,VWS V14.01,2013-11-13 14:47:00,
2013-11-13 08:48:00,44.6,35.3,29.80,West,271,7.0,14.0,70,0.00,,,0.00,VWS V14.01,2013-11-13 14:48:00,
2013-11-13 08:49:00,44.6,35.3,29.80,SW,228,10.0,14.0,70,0.00,,,0.00,VWS V14.01,2013-11-13 14:49:00,
2013-11-13 08:50:00,44.6,35.3,29.80,SW,235,7.0,14.0,70,0.00,,,0.00,VWS V14.01,2013-11-13 14:50:00,
2013-11-13 08:51:00,44.6,35.3,29.80,West,259,11.0,14.0,70,0.00,,,0.00,VWS V14.01,2013-11-13 14:51:00,
2013-11-13 08:52:00,44.6,35.3,29.80,WSW,241,4.0,14.0,70,0.00,,,0.00,VWS V14.01,2013-11-13 14:52:00,
2013-11-13 08:53:00,44.6,35.3,29.80,WSW,257,8.0,14.0,70,0.00,,,0.00,VWS V14.01,2013-11-13 14:53:00,
2013-11-13 08:54:00,44.7,35.4,29.80,West,259,6.0,14.0,70,0.00,,,0.00,VWS V14.01,2013-11-13 14:54:00,
2013-11-13 08:55:00,44.7,35.4,29.80,West,267,9.0,14.0,70,0.00,,,0.00,VWS V14.01,2013-11-13 14:55:00,
2013-11-13 08:56:00,44.7,35.4,29.79,SW,219,7.0,14.0,70,0.00,,,0.00,VWS V14.01,2013-11-13 14:56:00,
2013-11-13 08:57:00,44.7,35.4,29.79,WSW,242,5.0,14.0,70,0.00,,,0.00,VWS V14.01,2013-11-13 14:57:00,
2013-11-13 08:58:00,44.7,35.4,29.80,SW,224,5.0,14.0,70,0.00,,,0.00,VWS V14.01,2013-11-13 14:58:00,
2013-11-13 08:59:00,44.7,35.4,29.80,WSW,246,11.0,14.0,70,0.00,,,0.00,VWS V14.01,2013-11-13 14:59:00,
2013-11-13 09:00:00,44.7,35.4,29.79,WSW,248,6.0,14.0,70,0.00,,,0.00,VWS V14.01,2013-11-13 15:00:00,
2013-11-13 09:01:00,44.7,35.4,29.80,WSW,240,9.0,14.0,70,0.00,,,0.00,VWS V14.01,2013-11-13 15:01:00,
2013-11-13 09:02:00,44.8,35.5,29.80,WNW,282,5.0,14.0,70,0.00,,,0.00,VWS V14.01,2013-11-13 15:02:00,
2013-11-13 09:03:00,44.8,35.5,29.80,WSW,248,7.0,14.0,70,0.00,,,0.00,VWS V14.01,2013-11-13 15:03:00,
2013-11-13 09:04:00,44.8,35.5,29.80,West,261,7.0,14.0,70,0.00,,,0.00,VWS V14.01,2013-11-13 15:04:00,
2013-11-13 09:05:00,44.8,35.2,29.80,SW,236,5.0,14.0,69,0.00,,,0.00,VWS V14.01,2013-11-13 15:05:00,
2013-11-13 09:06:00,44.8,35.2,29.80,WSW,242,4.0,14.0,69,0.00,,,0.00,VWS V14.01,2013-11-13 15:06:00,
2013-11-13 09:07:00,44.9,35.2,29.80,WSW,241,4.0,14.0,69,0.00,,,0.00,VWS V14.01,2013-11-13 15:07:00,
2013-11-13 09:08:00,44.9,35.2,29.80,WNW,286,12.0,14.0,69,0.00,,,0.00,VWS V14.01,2013-11-13 15:08:00,
2013-11-13 09:09:00,44.9,35.2,29.80,West,278,9.0,14.0,69,0.00,,,0.00,VWS V14.01,2013-11-13 15:09:00,
2013-11-13 09:10:00,44.9,35.2,29.80,WNW,288,7.0,14.0,69,0.00,,,0.00,VWS V14.01,2013-11-13 15:10:00,
2013-11-13 09:11:00,45.0,35.3,29.80,WSW,247,5.0,14.0,69,0.00,,,0.00,VWS V14.01,2013-11-13 15:11:00,
2013-11-13 09:12:00,45.0,35.3,29.80,SW,236,7.0,14.0,69,0.00,,,0.00,VWS V14.01,2013-11-13 15:12:00,
2013-11-13 09:13:00,45.0,35.3,29.80,West,280,6.0,14.0,69,0.00,,,0.00,VWS V14.01,2013-11-13 15:13:00,
2013-11-13 09:14:00,45.1,35.4,29.80,West,273,7.0,14.0,69,0.00,,,0.00,VWS V14.01,2013-11-13 15:14:00,
2013-11-13 09:15:00,45.1,35.4,29.80,WSW,256,6.0,14.0,69,0.00,,,0.00,VWS V14.01,2013-11-13 15:15:00,
2013-11-13 09:16:00,45.1,35.4,29.80,West,280,10.0,10.0,69,0.00,,,0.00,VWS V14.01,2013-11-13 15:16:00,
2013-11-13 09:17:00,45.2,35.2,29.80,WSW,242,9.0,10.0,68,0.00,,,0.00,VWS V14.01,2013-11-13 15:17:00,
2013-11-13 09:18:00,45.2,35.2,29.80,West,280,10.0,10.0,68,0.00,,,0.00,VWS V14.01,2013-11-13 15:18:00,
2013-11-13 09:19:00,45.3,35.3,29.80,West,275,7.0,10.0,68,0.00,,,0.00,VWS V14.01,2013-11-13 15:19:00,
2013-11-13 09:20:00,45.4,35.4,29.80,West,278,5.0,12.0,68,0.00,,,0.00,VWS V14.01,2013-11-13 15:20:00,
2013-11-13 09:21:00,45.4,35.4,29.80,West,275,9.0,14.0,68,0.00,,,0.00,VWS V14.01,2013-11-13 15:21:00,
2013-11-13 09:22:00,45.4,35.4,29.80,West,270,6.0,14.0,68,0.00,,,0.00,VWS V14.01,2013-11-13 15:22:00,
2013-11-13 09:23:00,45.5,35.5,29.80,West,271,8.0,14.0,68,0.00,,,0.00,VWS V14.01,2013-11-13 15:23:00,
2013-11-13 09:24:00,45.5,35.5,29.80,West,263,10.0,14.0,68,0.00,,,0.00,VWS V14.01,2013-11-13 15:24:00,
2013-11-13 09:25:00,45.6,35.2,29.80,West,277,7.0,14.0,67,0.00,,,0.00,VWS V14.01,2013-11-13 15:25:00,
2013-11-13 09:26:00,45.6,35.2,29.80,West,281,8.0,15.0,67,0.00,,,0.00,VWS V14.01,2013-11-13 15:26:00,
2013-11-13 09:27:00,45.7,35.3,29.81,WSW,255,7.0,15.0,67,0.00,,,0.00,VWS V14.01,2013-11-13 15:27:00,
2013-11-13 09:28:00,45.7,35.3,29.80,WSW,247,8.0,16.0,67,0.00,,,0.00,VWS V14.01,2013-11-13 15:28:00,
2013-11-13 09:29:00,45.8,35.4,29.81,WNW,282,13.0,16.0,67,0.00,,,0.00,VWS V14.01,2013-11-13 15:29:00,
2013-11-13 09:30:00,45.9,35.5,29.81,WSW,256,9.0,16.0,67,0.00,,,0.00,VWS V14.01,2013-11-13 15:30:00,
2013-11-13 09:31:00,45.9,35.1,29.81,WSW,237,5.0,9.0,66,0.00,,,0.00,VWS V14.01,2013-11-13 15:31:00,
2013-11-13 09:32:00,46.0,35.2,29.81,West,275,6.0,12.0,66,0.00,,,0.00,VWS V14.01,2013-11-13 15:32:00,
2013-11-13 09:33:00,46.0,35.2,29.81,WSW,246,12.0,12.0,66,0.00,,,0.00,VWS V14.01,2013-11-13 15:33:00,
2013-11-13 09:34:00,46.0,35.2,29.80,WNW,286,7.0,12.0,66,0.00,,,0.00,VWS V14.01,2013-11-13 15:34:00,
2013-11-13 09:35:00,46.0,35.2,29.80,West,271,7.0,12.0,66,0.00,,,0.00,VWS V14.01,2013-11-13 15:35:00,
2013-11-13 09:36:00,46.0,35.2,29.81,WSW,253,9.0,12.0,66,0.00,,,0.00,VWS V14.01,2013-11-13 15:36:00,
2013-11-13 09:37:00,46.1,35.3,29.80,WNW,289,6.0,14.0,66,0.00,,,0.00,VWS V14.01,2013-11-13 15:37:00,
2013-11-13 09:38:00,46.1,35.3,29.81,NW,318,10.0,14.0,66,0.00,,,0.00,VWS V14.01,2013-11-13 15:38:00,
2013-11-13 09:39:00,46.1,34.9,29.81,WSW,246,8.0,14.0,65,0.00,,,0.00,VWS V14.01,2013-11-13 15:39:00,
2013-11-13 09:40:00,46.1,34.9,29.81,West,263,9.0,14.0,65,0.00,,,0.00,VWS V14.01,2013-11-13 15:40:00,
2013-11-13 09:41:00,46.1,34.9,29.81,WSW,253,7.0,14.0,65,0.00,,,0.00,VWS V14.01,2013-11-13 15:41:00,
2013-11-13 09:42:00,46.1,35.3,29.80,WSW,243,8.0,17.0,66,0.00,,,0.00,VWS V14.01,2013-11-13 15:42:00,
2013-11-13 09:43:00,46.2,35.0,29.80,WSW,244,8.0,17.0,65,0.00,,,0.00,VWS V14.01,2013-11-13 15:43:00,
2013-11-13 09:44:00,46.2,35.0,29.81,West,276,7.0,17.0,65,0.00,,,0.00,VWS V14.01,2013-11-13 15:44:00,
2013-11-13 09:45:00,46.2,35.0,29.80,NW,305,12.0,17.0,65,0.00,,,0.00,VWS V14.01,2013-11-13 15:45:00,
2013-11-13 09:46:00,46.2,35.0,29.80,WSW,255,13.0,14.0,65,0.00,,,0.00,VWS V14.01,2013-11-13 15:46:00,
2013-11-13 09:47:00,46.2,35.0,29.80,West,278,6.0,18.0,65,0.00,,,0.00,VWS V14.01,2013-11-13 15:47:00,
2013-11-13 09:48:00,46.3,35.1,29.80,WSW,246,5.0,18.0,65,0.00,,,0.00,VWS V14.01,2013-11-13 15:48:00,
2013-11-13 09:49:00,46.3,35.1,29.80,WNW,302,8.0,18.0,65,0.00,,,0.00,VWS V14.01,2013-11-13 15:49:00,
2013-11-13 09:50:00,46.2,35.0,29.80,WNW,285,7.0,18.0,65,0.00,,,0.00,VWS V14.01,2013-11-13 15:50:00,
2013-11-13 09:51:00,46.3,35.1,29.80,West,269,13.0,18.0,65,0.00,,,0.00,VWS V14.01,2013-11-13 15:51:00,
2013-11-13 09:52:00,46.3,35.1,29.80,SW,228,10.0,18.0,65,0.00,,,0.00,VWS V14.01,2013-11-13 15:52:00,
2013-11-13 09:53:00,46.3,35.1,29.80,West,280,8.0,18.0,65,0.00,,,0.00,VWS V14.01,2013-11-13 15:53:00,
2013-11-13 09:54:00,46.3,35.1,29.80,WSW,254,9.0,18.0,65,0.00,,,0.00,VWS V14.01,2013-11-13 15:54:00,
2013-11-13 09:55:00,46.3,35.1,29.80,West,276,10.0,18.0,65,0.00,,,0.00,VWS V14.01,2013-11-13 15:55:00,
2013-11-13 09:56:00,46.3,35.1,29.80,West,267,12.0,18.0,65,0.00,,,0.00,VWS V14.01,2013-11-13 15:56:00,
2013-11-13 09:57:00,46.3,35.1,29.80,West,273,10.0,18.0,65,0.00,,,0.00,VWS V14.01,2013-11-13 15:57:00,
2013-11-13 09:58:00,46.3,35.1,29.80,West,262,3.0,18.0,65,0.00,,,0.00,VWS V14.01,2013-11-13 15:58:00,
2013-11-13 09:59:00,46.3,35.1,29.80,West,279,6.0,18.0,65,0.00,,,0.00,VWS V14.01,2013-11-13 15:59:00,
2013-11-13 10:00:00,46.3,35.1,29.80,SW,220,6.0,18.0,65,0.00,,,0.00,VWS V14.01,2013-11-13 16:00:00,
2013-11-13 10:01:00,46.3,34.7,29.81,WSW,258,5.0,12.0,64,0.00,,,0.00,VWS V14.01,2013-11-13 16:01:00,
2013-11-13 10:02:00,46.4,34.8,29.80,WNW,296,8.0,12.0,64,0.00,,,0.00,VWS V14.01,2013-11-13 16:02:00,
2013-11-13 10:03:00,46.4,34.8,29.80,West,263,10.0,14.0,64,0.00,,,0.00,VWS V14.01,2013-11-13 16:03:00,
2013-11-13 10:04:00,46.4,34.8,29.80,WSW,251,11.0,14.0,64,0.00,,,0.00,VWS V14.01,2013-11-13 16:04:00,
2013-11-13 10:05:00,46.4,34.8,29.81,West,281,7.0,14.0,64,0.00,,,0.00,VWS V14.01,2013-11-13 16:05:00,
2013-11-13 10:06:00,46.4,34.8,29.81,WSW,240,8.0,14.0,64,0.00,,,0.00,VWS V14.01,2013-11-13 16:06:00,
2013-11-13 10:07:00,46.5,34.9,29.81,West,281,7.0,14.0,64,0.00,,,0.00,VWS V14.01,2013-11-13 16:07:00,
2013-11-13 10:08:00,46.5,34.9,29.81,West,261,9.0,14.0,64,0.00,,,0.00,VWS V14.01,2013-11-13 16:08:00,
2013-11-13 10:09:00,46.5,34.9,29.81,SSW,207,6.0,14.0,64,0.00,,,0.00,VWS V14.01,2013-11-13 16:09:00,
2013-11-13 10:10:00,46.5,34.9,29.81,WNW,286,10.0,14.0,64,0.00,,,0.00,VWS V14.01,2013-11-13 16:10:00,
2013-11-13 10:11:00,46.5,35.3,29.81,WSW,254,11.0,14.0,65,0.00,,,0.00,VWS V14.01,2013-11-13 16:11:00,
2013-11-13 10:12:00,46.5,35.3,29.81,WNW,286,7.0,14.0,65,0.00,,,0.00,VWS V14.01,2013-11-13 16:12:00,
2013-11-13 10:13:00,46.5,35.3,29.81,WSW,237,9.0,14.0,65,0.00,,,0.00,VWS V14.01,2013-11-13 16:13:00,
2013-11-13 10:14:00,46.5,35.3,29.81,WNW,299,8.0,14.0,65,0.00,,,0.00,VWS V14.01,2013-11-13 16:14:00,
2013-11-13 10:15:00,46.5,35.3,29.81,WSW,255,7.0,14.0,65,0.00,,,0.00,VWS V14.01,2013-11-13 16:15:00,
2013-11-13 10:16:00,46.5,35.3,29.81,West,263,11.0,15.0,65,0.00,,,0.00,VWS V14.01,2013-11-13 16:16:00,
2013-11-13 10:17:00,46.5,35.3,29.81,WSW,251,9.0,15.0,65,0.00,,,0.00,VWS V14.01,2013-11-13 16:17:00,
2013-11-13 10:18:00,46.5,35.3,29.81,West,275,7.0,15.0,65,0.00,,,0.00,VWS V14.01,2013-11-13 16:18:00,
2013-11-13 10:19:00,46.6,35.0,29.81,WSW,257,4.0,15.0,64,0.00,,,0.00,VWS V14.01,2013-11-13 16:19:00,
2013-11-13 10:20:00,46.6,35.0,29.81,WNW,289,9.0,15.0,64,0.00,,,0.00,VWS V14.01,2013-11-13 16:20:00,
2013-11-13 10:21:00,46.6,35.0,29.81,WSW,258,9.0,15.0,64,0.00,,,0.00,VWS V14.01,2013-11-13 16:21:00,
2013-11-13 10:22:00,46.6,35.0,29.81,WSW,242,7.0,15.0,64,0.00,,,0.00,VWS V14.01,2013-11-13 16:22:00,
2013-11-13 10:23:00,46.7,35.1,29.81,West,277,9.0,15.0,64,0.00,,,0.00,VWS V14.01,2013-11-13 16:23:00,
2013-11-13 10:24:00,46.7,35.1,29.81,WSW,257,7.0,15.0,64,0.00,,,0.00,VWS V14.01,2013-11-13 16:24:00,
2013-11-13 10:25:00,46.7,35.1,29.81,WSW,246,8.0,15.0,64,0.00,,,0.00,VWS V14.01,2013-11-13 16:25:00,
2013-11-13 10:26:00,46.7,35.1,29.81,WSW,251,11.0,15.0,64,0.00,,,0.00,VWS V14.01,2013-11-13 16:26:00,
2013-11-13 10:27:00,46.7,35.1,29.81,SW,217,6.0,16.0,64,0.00,,,0.00,VWS V14.01,2013-11-13 16:27:00,
2013-11-13 10:28:00,46.7,35.1,29.81,SW,226,9.0,16.0,64,0.00,,,0.00,VWS V14.01,2013-11-13 16:28:00,
2013-11-13 10:29:00,46.7,35.1,29.81,WSW,245,6.0,16.0,64,0.00,,,0.00,VWS V14.01,2013-11-13 16:29:00,
2013-11-13 10:30:00,46.7,35.1,29.81,SW,228,6.0,16.0,64,0.00,,,0.00,VWS V14.01,2013-11-13 16:30:00,
2013-11-13 10:31:00,46.8,35.2,29.81,West,265,5.0,16.0,64,0.00,,,0.00,VWS V14.01,2013-11-13 16:31:00,
2013-11-13 10:32:00,46.8,35.2,29.81,West,278,6.0,16.0,64,0.00,,,0.00,VWS V14.01,2013-11-13 16:32:00,
2013-11-13 10:33:00,46.8,35.2,29.81,WSW,237,6.0,16.0,64,0.00,,,0.00,VWS V14.01,2013-11-13 16:33:00,
2013-11-13 10:34:00,46.9,35.3,29.81,West,262,5.0,16.0,64,0.00,,,0.00,VWS V14.01,2013-11-13 16:34:00,
2013-11-13 10:35:00,46.9,35.3,29.81,SW,233,6.0,18.0,64,0.00,,,0.00,VWS V14.01,2013-11-13 16:35:00,
2013-11-13 10:36:00,47.0,35.3,29.81,SW,228,5.0,18.0,64,0.00,,,0.00,VWS V14.01,2013-11-13 16:36:00,
2013-11-13 10:37:00,47.0,35.3,29.81,West,263,10.0,18.0,64,0.00,,,0.00,VWS V14.01,2013-11-13 16:37:00,
2013-11-13 10:38:00,47.1,35.5,29.81,WSW,238,10.0,18.0,64,0.00,,,0.00,VWS V14.01,2013-11-13 16:38:00,
2013-11-13 10:39:00,47.2,35.5,29.81,SW,217,10.0,18.0,64,0.00,,,0.00,VWS V14.01,2013-11-13 16:39:00,
2013-11-13 10:40:00,47.2,35.5,29.81,West,265,7.0,18.0,64,0.00,,,0.00,VWS V14.01,2013-11-13 16:40:00,
2013-11-13 10:41:00,47.3,35.6,29.81,SSW,205,10.0,18.0,64,0.00,,,0.00,VWS V14.01,2013-11-13 16:41:00,
2013-11-13 10:42:00,47.4,35.7,29.81,SW,230,11.0,18.0,64,0.00,,,0.00,VWS V14.01,2013-11-13 16:42:00,
2013-11-13 10:43:00,47.4,35.3,29.81,SW,216,9.0,18.0,63,0.00,,,0.00,VWS V14.01,2013-11-13 16:43:00,
2013-11-13 10:44:00,47.5,35.4,29.81,WSW,250,8.0,18.0,63,0.00,,,0.00,VWS V14.01,2013-11-13 16:44:00,
2013-11-13 10:45:00,47.7,35.6,29.81,West,265,8.0,18.0,63,0.00,,,0.00,VWS V14.01,2013-11-13 16:45:00,
2013-11-13 10:46:00,47.8,35.7,29.81,SW,236,14.0,16.0,63,0.00,,,0.00,VWS V14.01,2013-11-13 16:46:00,
2013-11-13 10:47:00,47.9,35.8,29.81,West,269,7.0,17.0,63,0.00,,,0.00,VWS V14.01,2013-11-13 16:47:00,
2013-11-13 10:48:00,47.9,35.8,29.81,WSW,251,13.0,17.0,63,0.00,,,0.00,VWS V14.01,2013-11-13 16:48:00,
2013-11-13 10:49:00,48.0,35.9,29.81,West,271,7.0,17.0,63,0.00,,,0.00,VWS V14.01,2013-11-13 16:49:00,
2013-11-13 10:50:00,48.1,35.6,29.81,WSW,243,10.0,17.0,62,0.00,,,0.00,VWS V14.01,2013-11-13 16:50:00,
2013-11-13 10:51:00,48.2,35.7,29.81,West,259,7.0,17.0,62,0.00,,,0.00,VWS V14.01,2013-11-13 16:51:00,
2013-11-13 10:52:00,48.3,35.8,29.81,West,273,7.0,17.0,62,0.00,,,0.00,VWS V14.01,2013-11-13 16:52:00,
2013-11-13 10:53:00,48.4,35.9,29.81,SW,236,11.0,17.0,62,0.00,,,0.00,VWS V14.01,2013-11-13 16:53:00,
2013-11-13 10:54:00,48.5,36.0,29.81,SW,222,11.0,17.0,62,0.00,,,0.00,VWS V14.01,2013-11-13 16:54:00,
2013-11-13 10:55:00,48.6,36.1,29.81,West,271,7.0,17.0,62,0.00,,,0.00,VWS V14.01,2013-11-13 16:55:00,
2013-11-13 10:56:00,48.7,36.2,29.81,WNW,285,9.0,17.0,62,0.00,,,0.00,VWS V14.01,2013-11-13 16:56:00,
2013-11-13 10:57:00,48.8,35.8,29.81,WSW,257,8.0,17.0,61,0.00,,,0.00,VWS V14.01,2013-11-13 16:57:00,
2013-11-13 10:58:00,49.0,36.0,29.81,WSW,255,7.0,17.0,61,0.00,,,0.00,VWS V14.01,2013-11-13 16:58:00,
2013-11-13 10:59:00,49.0,36.0,29.81,WNW,289,6.0,17.0,61,0.00,,,0.00,VWS V14.01,2013-11-13 16:59:00,
2013-11-13 11:00:00,49.1,36.1,29.81,WNW,282,8.0,17.0,61,0.00,,,0.00,VWS V14.01,2013-11-13 17:00:00,
2013-11-13 11:01:00,49.2,35.8,29.81,WNW,289,5.0,8.0,60,0.00,,,0.00,VWS V14.01,2013-11-13 17:01:00,
2013-11-13 11:02:00,49.2,35.8,29.81,West,273,11.0,11.0,60,0.00,,,0.00,VWS V14.01,2013-11-13 17:02:00,
2013-11-13 11:03:00,49.3,35.9,29.81,WSW,252,10.0,11.0,60,0.00,,,0.00,VWS V14.01,2013-11-13 17:03:00,
2013-11-13 11:04:00,49.3,35.9,29.81,NW,310,7.0,13.0,60,0.00,,,0.00,VWS V14.01,2013-11-13 17:04:00,
2013-11-13 11:05:00,49.3,35.9,29.81,West,280,7.0,14.0,60,0.00,,,0.00,VWS V14.01,2013-11-13 17:05:00,
2013-11-13 11:06:00,49.3,35.9,29.81,WSW,254,11.0,14.0,60,0.00,,,0.00,VWS V14.01,2013-11-13 17:06:00,
2013-11-13 11:07:00,49.3,35.9,29.81,West,275,8.0,14.0,60,0.00,,,0.00,VWS V14.01,2013-11-13 17:07:00,
2013-11-13 11:08:00,49.3,35.5,29.81,West,274,9.0,14.0,59,0.00,,,0.00,VWS V14.01,2013-11-13 17:08:00,
2013-11-13 11:09:00,49.3,35.5,29.81,WSW,245,8.0,14.0,59,0.00,,,0.00,VWS V14.01,2013-11-13 17:09:00,
2013-11-13 11:10:00,49.3,35.5,29.81,WNW,291,7.0,14.0,59,0.00,,,0.00,VWS V14.01,2013-11-13 17:10:00,
2013-11-13 11:11:00,49.3,35.9,29.81,West,275,5.0,14.0,60,0.00,,,0.00,VWS V14.01,2013-11-13 17:11:00,
2013-11-13 11:12:00,49.2,35.8,29.80,WSW,242,7.0,14.0,60,0.00,,,0.00,VWS V14.01,2013-11-13 17:12:00,
2013-11-13 11:13:00,49.2,35.4,29.80,West,273,8.0,14.0,59,0.00,,,0.00,VWS V14.01,2013-11-13 17:13:00,
2013-11-13 11:14:00,49.2,35.8,29.80,WSW,255,11.0,14.0,60,0.00,,,0.00,VWS V14.01,2013-11-13 17:14:00,
2013-11-13 11:15:00,49.2,35.8,29.80,West,278,10.0,16.0,60,0.00,,,0.00,VWS V14.01,2013-11-13 17:15:00,
2013-11-13 11:16:00,49.1,35.7,29.80,West,271,11.0,13.0,60,0.00,,,0.00,VWS V14.01,2013-11-13 17:16:00,
2013-11-13 11:17:00,49.1,35.7,29.80,West,270,15.0,15.0,60,0.00,,,0.00,VWS V14.01,2013-11-13 17:17:00,
2013-11-13 11:18:00,49.1,35.7,29.80,WSW,251,12.0,15.0,60,0.00,,,0.00,VWS V14.01,2013-11-13 17:18:00,
2013-11-13 11:19:00,49.0,35.6,29.80,West,265,8.0,15.0,60,0.00,,,0.00,VWS V14.01,2013-11-13 17:19:00,
2013-11-13 11:20:00,49.0,35.6,29.80,WSW,258,16.0,16.0,60,0.00,,,0.00,VWS V14.01,2013-11-13 17:20:00,
2013-11-13 11:21:00,49.0,35.6,29.80,WSW,251,7.0,17.0,60,0.00,,,0.00,VWS V14.01,2013-11-13 17:21:00,
2013-11-13 11:22:00,49.0,35.6,29.80,WNW,297,5.0,17.0,60,0.00,,,0.00,VWS V14.01,2013-11-13 17:22:00,
2013-11-13 11:23:00,49.0,35.6,29.80,WSW,258,8.0,17.0,60,0.00,,,0.00,VWS V14.01,2013-11-13 17:23:00,
2013-11-13 11:24:00,49.0,35.6,29.80,West,275,10.0,17.0,60,0.00,,,0.00,VWS V14.01,2013-11-13 17:24:00,
2013-11-13 11:25:00,49.0,35.6,29.80,West,262,12.0,17.0,60,0.00,,,0.00,VWS V14.01,2013-11-13 17:25:00,
2013-11-13 11:26:00,49.0,35.6,29.80,West,273,5.0,17.0,60,0.00,,,0.00,VWS V14.01,2013-11-13 17:26:00,
2013-11-13 11:27:00,49.0,35.6,29.80,WSW,246,5.0,17.0,60,0.00,,,0.00,VWS V14.01,2013-11-13 17:27:00,
2013-11-13 11:28:00,49.0,36.0,29.80,SW,235,6.0,17.0,61,0.00,,,0.00,VWS V14.01,2013-11-13 17:28:00,
2013-11-13 11:29:00,49.0,36.0,29.80,West,265,7.0,17.0,61,0.00,,,0.00,VWS V14.01,2013-11-13 17:29:00,
2013-11-13 11:30:00,49.0,36.0,29.80,West,270,7.0,17.0,61,0.00,,,0.00,VWS V14.01,2013-11-13 17:30:00,
2013-11-13 11:31:00,49.1,36.1,29.80,WSW,254,8.0,10.0,61,0.00,,,0.00,VWS V14.01,2013-11-13 17:31:00,
2013-11-13 11:32:00,49.1,36.1,29.80,West,263,11.0,12.0,61,0.00,,,0.00,VWS V14.01,2013-11-13 17:32:00,
2013-11-13 11:33:00,49.1,36.1,29.80,WSW,255,8.0,16.0,61,0.00,,,0.00,VWS V14.01,2013-11-13 17:33:00,
2013-11-13 11:34:00,49.1,36.1,29.80,West,259,12.0,16.0,61,0.00,,,0.00,VWS V14.01,2013-11-13 17:34:00,
2013-11-13 11:35:00,49.1,36.1,29.80,WNW,283,7.0,16.0,61,0.00,,,0.00,VWS V14.01,2013-11-13 17:35:00,
2013-11-13 11:36:00,49.1,36.1,29.80,WNW,284,6.0,16.0,61,0.00,,,0.00,VWS V14.01,2013-11-13 17:36:00,
2013-11-13 11:37:00,49.1,36.1,29.80,West,276,8.0,16.0,61,0.00,,,0.00,VWS V14.01,2013-11-13 17:37:00,
2013-11-13 11:38:00,49.1,36.1,29.80,West,264,6.0,16.0,61,0.00,,,0.00,VWS V14.01,2013-11-13 17:38:00,
2013-11-13 11:39:00,49.1,36.1,29.80,WSW,253,9.0,16.0,61,0.00,,,0.00,VWS V14.01,2013-11-13 17:39:00,
2013-11-13 11:40:00,49.2,36.2,29.80,SW,227,7.0,16.0,61,0.00,,,0.00,VWS V14.01,2013-11-13 17:40:00,
2013-11-13 11:41:00,49.2,36.2,29.80,SW,230,10.0,16.0,61,0.00,,,0.00,VWS V14.01,2013-11-13 17:41:00,
2013-11-13 11:42:00,49.2,36.2,29.80,WNW,291,6.0,16.0,61,0.00,,,0.00,VWS V14.01,2013-11-13 17:42:00,
2013-11-13 11:43:00,49.2,36.2,29.80,SW,235,10.0,17.0,61,0.00,,,0.00,VWS V14.01,2013-11-13 17:43:00,
2013-11-13 11:44:00,49.2,36.2,29.80,WSW,253,7.0,17.0,61,0.00,,,0.00,VWS V14.01,2013-11-13 17:44:00,
2013-11-13 11:45:00,49.2,36.2,29.80,WSW,245,6.0,17.0,61,0.00,,,0.00,VWS V14.01,2013-11-13 17:45:00,
2013-11-13 11:46:00,49.2,36.2,29.80,WSW,254,6.0,7.0,61,0.00,,,0.00,VWS V14.01,2013-11-13 17:46:00,
2013-11-13 11:47:00,49.2,36.2,29.80,WNW,288,9.0,9.0,61,0.00,,,0.00,VWS V14.01,2013-11-13 17:47:00,
2013-11-13 11:48:00,49.2,36.2,29.80,West,259,9.0,10.0,61,0.00,,,0.00,VWS V14.01,2013-11-13 17:48:00,
2013-11-13 11:49:00,49.2,36.2,29.80,West,265,6.0,12.0,61,0.00,,,0.00,VWS V14.01,2013-11-13 17:49:00,
2013-11-13 11:50:00,49.1,36.1,29.80,WSW,247,8.0,13.0,61,0.00,,,0.00,VWS V14.01,2013-11-13 17:50:00,
2013-11-13 11:51:00,49.1,36.1,29.80,NW,305,8.0,13.0,61,0.00,,,0.00,VWS V14.01,2013-11-13 17:51:00,
2013-11-13 11:52:00,49.1,36.1,29.80,WSW,256,8.0,13.0,61,0.00,,,0.00,VWS V14.01,2013-11-13 17:52:00,
2013-11-13 11:53:00,49.1,36.1,29.80,WSW,252,7.0,13.0,61,0.00,,,0.00,VWS V14.01,2013-11-13 17:53:00,
2013-11-13 11:54:00,49.0,36.0,29.80,WNW,290,6.0,13.0,61,0.00,,,0.00,VWS V14.01,2013-11-13 17:54:00,
2013-11-13 11:55:00,49.0,36.0,29.80,WSW,246,7.0,13.0,61,0.00,,,0.00,VWS V14.01,2013-11-13 17:55:00,
2013-11-13 11:56:00,49.0,36.0,29.80,WSW,253,4.0,13.0,61,0.00,,,0.00,VWS V14.01,2013-11-13 17:56:00,
2013-11-13 11:57:00,49.0,36.0,29.80,WNW,284,6.0,13.0,61,0.00,,,0.00,VWS V14.01,2013-11-13 17:57:00,
2013-11-13 11:58:00,49.0,36.0,29.80,WSW,253,9.0,13.0,61,0.00,,,0.00,VWS V14.01,2013-11-13 17:58:00,
2013-11-13 11:59:00,49.0,36.0,29.80,WSW,256,13.0,15.0,61,0.00,,,0.00,VWS V14.01,2013-11-13 17:59:00,
2013-11-13 12:00:00,49.0,36.0,29.80,WNW,291,7.0,15.0,61,0.00,,,0.00,VWS V14.01,2013-11-13 18:00:00,
2013-11-13 12:01:00,49.1,36.1,29.80,WSW,257,6.0,8.0,61,0.00,,,0.00,VWS V14.01,2013-11-13 18:01:00,
2013-11-13 12:02:00,49.1,36.1,29.80,WNW,297,9.0,12.0,61,0.00,,,0.00,VWS V14.01,2013-11-13 18:02:00,
2013-11-13 12:03:00,49.2,36.2,29.80,SW,230,6.0,12.0,61,0.00,,,0.00,VWS V14.01,2013-11-13 18:03:00,
2013-11-13 12:04:00,49.3,36.3,29.79,WNW,284,9.0,12.0,61,0.00,,,0.00,VWS V14.01,2013-11-13 18:04:00,
2013-11-13 12:05:00,49.5,36.5,29.79,WSW,238,7.0,13.0,61,0.00,,,0.00,VWS V14.01,2013-11-13 18:05:00,
2013-11-13 12:06:00,49.6,36.6,29.79,WSW,245,5.0,13.0,61,0.00,,,0.00,VWS V14.01,2013-11-13 18:06:00,
2013-11-13 12:07:00,49.7,36.3,29.79,SSW,203,7.0,13.0,60,0.00,,,0.00,VWS V14.01,2013-11-13 18:07:00,
2013-11-13 12:08:00,49.8,36.4,29.79,West,260,9.0,13.0,60,0.00,,,0.00,VWS V14.01,2013-11-13 18:08:00,
2013-11-13 12:09:00,49.9,36.5,29.79,West,265,5.0,13.0,60,0.00,,,0.00,VWS V14.01,2013-11-13 18:09:00,
2013-11-13 12:10:00,50.0,36.5,29.79,SW,230,9.0,13.0,60,0.00,,,0.00,VWS V14.01,2013-11-13 18:10:00,
2013-11-13 12:11:00,50.0,36.5,29.79,WSW,244,5.0,13.0,60,0.00,,,0.00,VWS V14.01,2013-11-13 18:11:00,
2013-11-13 12:12:00,50.1,36.6,29.79,West,269,7.0,13.0,60,0.00,,,0.00,VWS V14.01,2013-11-13 18:12:00,
2013-11-13 12:13:00,50.2,36.7,29.79,WNW,292,11.0,13.0,60,0.00,,,0.00,VWS V14.01,2013-11-13 18:13:00,
2013-11-13 12:14:00,50.3,36.4,29.79,WNW,296,7.0,14.0,59,0.00,,,0.00,VWS V14.01,2013-11-13 18:14:00,
2013-11-13 12:15:00,50.4,36.5,29.79,West,271,7.0,14.0,59,0.00,,,0.00,VWS V14.01,2013-11-13 18:15:00,
2013-11-13 12:16:00,50.5,36.6,29.79,WSW,253,8.0,11.0,59,0.00,,,0.00,VWS V14.01,2013-11-13 18:16:00,
2013-11-13 12:17:00,50.6,36.7,29.79,SW,233,8.0,13.0,59,0.00,,,0.00,VWS V14.01,2013-11-13 18:17:00,
2013-11-13 12:18:00,50.7,36.8,29.79,WNW,292,8.0,13.0,59,0.00,,,0.00,VWS V14.01,2013-11-13 18:18:00,
2013-11-13 12:19:00,50.8,36.9,29.79,WSW,238,7.0,14.0,59,0.00,,,0.00,VWS V14.01,2013-11-13 18:19:00,
2013-11-13 12:20:00,50.9,37.0,29.79,SW,222,7.0,14.0,59,0.00,,,0.00,VWS V14.01,2013-11-13 18:20:00,
2013-11-13 12:21:00,51.0,37.1,29.79,West,264,7.0,14.0,59,0.00,,,0.00,VWS V14.01,2013-11-13 18:21:00,
2013-11-13 12:22:00,51.2,36.8,29.79,SW,230,9.0,14.0,58,0.00,,,0.00,VWS V14.01,2013-11-13 18:22:00,
2013-11-13 12:23:00,51.2,36.8,29.79,West,271,7.0,14.0,58,0.00,,,0.00,VWS V14.01,2013-11-13 18:23:00,
2013-11-13 12:24:00,51.3,36.9,29.78,WNW,300,9.0,14.0,58,0.00,,,0.00,VWS V14.01,2013-11-13 18:24:00,
2013-11-13 12:25:00,51.4,37.0,29.78,West,268,7.0,14.0,58,0.00,,,0.00,VWS V14.01,2013-11-13 18:25:00,
2013-11-13 12:26:00,51.4,37.0,29.78,West,268,9.0,14.0,58,0.00,,,0.00,VWS V14.01,2013-11-13 18:26:00,
2013-11-13 12:27:00,51.5,37.1,29.78,WNW,282,10.0,14.0,58,0.00,,,0.00,VWS V14.01,2013-11-13 18:27:00,
2013-11-13 12:28:00,51.5,37.1,29.78,SW,234,5.0,14.0,58,0.00,,,0.00,VWS V14.01,2013-11-13 18:28:00,
2013-11-13 12:29:00,51.5,37.1,29.78,WNW,286,5.0,14.0,58,0.00,,,0.00,VWS V14.01,2013-11-13 18:29:00,
2013-11-13 12:30:00,51.6,37.2,29.78,NW,307,7.0,14.0,58,0.00,,,0.00,VWS V14.01,2013-11-13 18:30:00,
2013-11-13 12:31:00,51.7,36.8,29.78,West,260,5.0,12.0,57,0.00,,,0.00,VWS V14.01,2013-11-13 18:31:00,
2013-11-13 12:32:00,51.7,36.8,29.78,West,273,6.0,12.0,57,0.00,,,0.00,VWS V14.01,2013-11-13 18:32:00,
2013-11-13 12:33:00,51.8,36.9,29.78,WSW,248,7.0,12.0,57,0.00,,,0.00,VWS V14.01,2013-11-13 18:33:00,
2013-11-13 12:34:00,51.9,37.5,29.78,WSW,255,9.0,12.0,58,0.00,,,0.00,VWS V14.01,2013-11-13 18:34:00,
2013-11-13 12:35:00,52.0,37.1,29.78,West,262,6.0,12.0,57,0.00,,,0.00,VWS V14.01,2013-11-13 18:35:00,
2013-11-13 12:36:00,52.0,37.1,29.78,West,271,7.0,12.0,57,0.00,,,0.00,VWS V14.01,2013-11-13 18:36:00,
2013-11-13 12:37:00,52.1,37.2,29.78,West,260,9.0,12.0,57,0.00,,,0.00,VWS V14.01,2013-11-13 18:37:00,
2013-11-13 12:38:00,52.2,37.3,29.78,WNW,282,9.0,12.0,57,0.00,,,0.00,VWS V14.01,2013-11-13 18:38:00,
2013-11-13 12:39:00,52.2,37.3,29.78,SW,229,8.0,12.0,57,0.00,,,0.00,VWS V14.01,2013-11-13 18:39:00,
2013-11-13 12:40:00,52.3,37.4,29.78,NW,314,7.0,12.0,57,0.00,,,0.00,VWS V14.01,2013-11-13 18:40:00,
2013-11-13 12:41:00,52.3,37.4,29.78,West,274,9.0,12.0,57,0.00,,,0.00,VWS V14.01,2013-11-13 18:41:00,
2013-11-13 12:42:00,52.4,37.0,29.78,WSW,255,6.0,12.0,56,0.00,,,0.00,VWS V14.01,2013-11-13 18:42:00,
2013-11-13 12:43:00,52.4,37.0,29.78,WNW,290,7.0,12.0,56,0.00,,,0.00,VWS V14.01,2013-11-13 18:43:00,
2013-11-13 12:44:00,52.5,37.1,29.78,West,271,8.0,12.0,56,0.00,,,0.00,VWS V14.01,2013-11-13 18:44:00,
2013-11-13 12:45:00,52.6,37.2,29.78,WNW,284,8.0,12.0,56,0.00,,,0.00,VWS V14.01,2013-11-13 18:45:00,
2013-11-13 12:46:00,52.6,37.2,29.78,West,274,7.0,9.0,56,0.00,,,0.00,VWS V14.01,2013-11-13 18:46:00,
2013-11-13 12:47:00,52.5,37.1,29.78,West,264,7.0,13.0,56,0.00,,,0.00,VWS V14.01,2013-11-13 18:47:00,
2013-11-13 12:48:00,52.5,37.1,29.78,West,261,7.0,13.0,56,0.00,,,0.00,VWS V14.01,2013-11-13 18:48:00,
2013-11-13 12:49:00,52.5,37.1,29.78,West,259,9.0,13.0,56,0.00,,,0.00,VWS V14.01,2013-11-13 18:49:00,
2013-11-13 12:50:00,52.6,37.2,29.77,West,273,5.0,13.0,56,0.00,,,0.00,VWS V14.01,2013-11-13 18:50:00,
2013-11-13 12:51:00,52.6,37.2,29.77,West,265,5.0,13.0,56,0.00,,,0.00,VWS V14.01,2013-11-13 18:51:00,
2013-11-13 12:52:00,52.6,37.2,29.78,West,273,5.0,13.0,56,0.00,,,0.00,VWS V14.01,2013-11-13 18:52:00,
2013-11-13 12:53:00,52.7,37.3,29.78,SW,235,8.0,13.0,56,0.00,,,0.00,VWS V14.01,2013-11-13 18:53:00,
2013-11-13 12:54:00,52.7,37.3,29.78,WSW,255,11.0,16.0,56,0.00,,,0.00,VWS V14.01,2013-11-13 18:54:00,
2013-11-13 12:55:00,52.7,36.9,29.77,NW,311,7.0,16.0,55,0.00,,,0.00,VWS V14.01,2013-11-13 18:55:00,
2013-11-13 12:56:00,52.7,36.9,29.78,West,264,7.0,16.0,55,0.00,,,0.00,VWS V14.01,2013-11-13 18:56:00,
2013-11-13 12:57:00,52.7,36.9,29.77,SW,224,12.0,16.0,55,0.00,,,0.00,VWS V14.01,2013-11-13 18:57:00,
2013-11-13 12:58:00,52.7,36.9,29.77,West,265,10.0,16.0,55,0.00,,,0.00,VWS V14.01,2013-11-13 18:58:00,
2013-11-13 12:59:00,52.7,36.9,29.78,West,262,9.0,16.0,55,0.00,,,0.00,VWS V14.01,2013-11-13 18:59:00,
2013-11-13 13:00:00,52.7,36.9,29.78,WSW,253,10.0,16.0,55,0.00,,,0.00,VWS V14.01,2013-11-13 19:00:00,
2013-11-13 13:01:00,52.8,37.0,29.78,West,280,7.0,10.0,55,0.00,,,0.00,VWS V14.01,2013-11-13 19:01:00,
2013-11-13 13:02:00,52.8,37.0,29.78,WSW,240,7.0,11.0,55,0.00,,,0.00,VWS V14.01,2013-11-13 19:02:00,
2013-11-13 13:03:00,52.8,37.0,29.78,SW,235,6.0,11.0,55,0.00,,,0.00,VWS V14.01,2013-11-13 19:03:00,
2013-11-13 13:04:00,52.9,37.0,29.78,West,259,9.0,13.0,55,0.00,,,0.00,VWS V14.01,2013-11-13 19:04:00,
2013-11-13 13:05:00,53.0,37.1,29.78,WSW,253,6.0,13.0,55,0.00,,,0.00,VWS V14.01,2013-11-13 19:05:00,
2013-11-13 13:06:00,53.1,37.2,29.78,West,273,7.0,13.0,55,0.00,,,0.00,VWS V14.01,2013-11-13 19:06:00,
2013-11-13 13:07:00,53.2,36.9,29.78,WSW,246,6.0,13.0,54,0.00,,,0.00,VWS V14.01,2013-11-13 19:07:00,
2013-11-13 13:08:00,53.3,37.0,29.78,WSW,243,5.0,13.0,54,0.00,,,0.00,VWS V14.01,2013-11-13 19:08:00,
2013-11-13 13:09:00,53.4,37.0,29.78,WSW,244,9.0,13.0,54,0.00,,,0.00,VWS V14.01,2013-11-13 19:09:00,
2013-11-13 13:10:00,53.4,37.0,29.78,WNW,285,6.0,13.0,54,0.00,,,0.00,VWS V14.01,2013-11-13 19:10:00,
2013-11-13 13:11:00,53.5,36.7,29.77,SW,225,9.0,13.0,53,0.00,,,0.00,VWS V14.01,2013-11-13 19:11:00,
2013-11-13 13:12:00,53.6,36.8,29.77,West,265,7.0,13.0,53,0.00,,,0.00,VWS V14.01,2013-11-13 19:12:00,
2013-11-13 13:13:00,53.6,36.8,29.77,WSW,245,14.0,15.0,53,0.00,,,0.00,VWS V14.01,2013-11-13 19:13:00,
2013-11-13 13:14:00,53.6,36.3,29.77,WNW,283,6.0,15.0,52,0.00,,,0.00,VWS V14.01,2013-11-13 19:14:00,
2013-11-13 13:15:00,53.6,36.3,29.77,WSW,246,5.0,15.0,52,0.00,,,0.00,VWS V14.01,2013-11-13 19:15:00,
2013-11-13 13:16:00,53.6,36.3,29.77,WSW,242,10.0,10.0,52,0.00,,,0.00,VWS V14.01,2013-11-13 19:16:00,
2013-11-13 13:17:00,53.6,36.3,29.77,West,274,7.0,10.0,52,0.00,,,0.00,VWS V14.01,2013-11-13 19:17:00,
2013-11-13 13:18:00,53.6,36.3,29.78,WNW,286,6.0,10.0,52,0.00,,,0.00,VWS V14.01,2013-11-13 19:18:00,
2013-11-13 13:19:00,53.6,36.3,29.78,West,281,3.0,10.0,52,0.00,,,0.00,VWS V14.01,2013-11-13 19:19:00,
2013-11-13 13:20:00,53.7,36.4,29.77,WNW,290,6.0,11.0,52,0.00,,,0.00,VWS V14.01,2013-11-13 19:20:00,
2013-11-13 13:21:00,53.7,36.4,29.78,WNW,288,8.0,11.0,52,0.00,,,0.00,VWS V14.01,2013-11-13 19:21:00,
2013-11-13 13:22:00,53.7,36.4,29.78,WSW,249,6.0,11.0,52,0.00,,,0.00,VWS V14.01,2013-11-13 19:22:00,
2013-11-13 13:23:00,53.7,36.4,29.77,West,276,5.0,12.0,52,0.00,,,0.00,VWS V14.01,2013-11-13 19:23:00,
2013-11-13 13:24:00,53.7,36.4,29.78,WSW,244,4.0,12.0,52,0.00,,,0.00,VWS V14.01,2013-11-13 19:24:00,
2013-11-13 13:25:00,53.7,36.4,29.78,West,265,5.0,12.0,52,0.00,,,0.00,VWS V14.01,2013-11-13 19:25:00,
2013-11-13 13:26:00,53.7,36.4,29.78,SSW,211,5.0,12.0,52,0.00,,,0.00,VWS V14.01,2013-11-13 19:26:00,
2013-11-13 13:27:00,53.7,35.9,29.77,WNW,286,7.0,12.0,51,0.00,,,0.00,VWS V14.01,2013-11-13 19:27:00,
2013-11-13 13:28:00,53.7,35.9,29.77,WNW,289,9.0,12.0,51,0.00,,,0.00,VWS V14.01,2013-11-13 19:28:00,
2013-11-13 13:29:00,53.8,36.0,29.78,WSW,256,5.0,12.0,51,0.00,,,0.00,VWS V14.01,2013-11-13 19:29:00,
2013-11-13 13:30:00,53.9,36.1,29.77,West,259,6.0,12.0,51,0.00,,,0.00,VWS V14.01,2013-11-13 19:30:00,
2013-11-13 13:31:00,53.9,36.1,29.77,WSW,244,7.0,11.0,51,0.00,,,0.00,VWS V14.01,2013-11-13 19:31:00,
2013-11-13 13:32:00,54.0,36.2,29.77,West,263,5.0,11.0,51,0.00,,,0.00,VWS V14.01,2013-11-13 19:32:00,
2013-11-13 13:33:00,54.1,36.2,29.77,West,271,8.0,11.0,51,0.00,,,0.00,VWS V14.01,2013-11-13 19:33:00,
2013-11-13 13:34:00,54.2,36.3,29.77,WSW,239,10.0,13.0,51,0.00,,,0.00,VWS V14.01,2013-11-13 19:34:00,
2013-11-13 13:35:00,54.4,36.0,29.77,NW,307,9.0,13.0,50,0.00,,,0.00,VWS V14.01,2013-11-13 19:35:00,
2013-11-13 13:36:00,54.4,36.0,29.77,WSW,257,6.0,13.0,50,0.00,,,0.00,VWS V14.01,2013-11-13 19:36:00,
2013-11-13 13:37:00,54.5,36.1,29.77,West,275,10.0,13.0,50,0.00,,,0.00,VWS V14.01,2013-11-13 19:37:00,
2013-11-13 13:38:00,54.6,36.2,29.77,West,269,6.0,13.0,50,0.00,,,0.00,VWS V14.01,2013-11-13 19:38:00,
2013-11-13 13:39:00,54.7,36.3,29.77,WNW,291,6.0,14.0,50,0.00,,,0.00,VWS V14.01,2013-11-13 19:39:00,
2013-11-13 13:40:00,54.8,35.9,29.77,West,278,11.0,14.0,49,0.00,,,0.00,VWS V14.01,2013-11-13 19:40:00,
2013-11-13 13:41:00,54.8,35.9,29.77,West,274,11.0,14.0,49,0.00,,,0.00,VWS V14.01,2013-11-13 19:41:00,
2013-11-13 13:42:00,54.8,35.9,29.77,West,275,5.0,14.0,49,0.00,,,0.00,VWS V14.01,2013-11-13 19:42:00,
2013-11-13 13:43:00,54.8,35.9,29.77,West,280,4.0,14.0,49,0.00,,,0.00,VWS V14.01,2013-11-13 19:43:00,
2013-11-13 13:44:00,54.8,35.9,29.77,WNW,294,5.0,14.0,49,0.00,,,0.00,VWS V14.01,2013-11-13 19:44:00,
2013-11-13 13:45:00,54.8,35.9,29.77,NW,309,8.0,14.0,49,0.00,,,0.00,VWS V14.01,2013-11-13 19:45:00,
2013-11-13 13:46:00,54.8,35.9,29.77,West,267,8.0,13.0,49,0.00,,,0.00,VWS V14.01,2013-11-13 19:46:00,
2013-11-13 13:47:00,54.8,35.9,29.77,West,273,7.0,13.0,49,0.00,,,0.00,VWS V14.01,2013-11-13 19:47:00,
2013-11-13 13:48:00,54.8,35.9,29.77,West,275,6.0,13.0,49,0.00,,,0.00,VWS V14.01,2013-11-13 19:48:00,
2013-11-13 13:49:00,54.7,35.8,29.77,West,260,9.0,14.0,49,0.00,,,0.00,VWS V14.01,2013-11-13 19:49:00,
2013-11-13 13:50:00,54.7,35.8,29.77,WSW,258,8.0,14.0,49,0.00,,,0.00,VWS V14.01,2013-11-13 19:50:00,
2013-11-13 13:51:00,54.7,35.8,29.77,NW,305,8.0,14.0,49,0.00,,,0.00,VWS V14.01,2013-11-13 19:51:00,
2013-11-13 13:52:00,54.6,35.7,29.77,WSW,254,11.0,14.0,49,0.00,,,0.00,VWS V14.01,2013-11-13 19:52:00,
2013-11-13 13:53:00,54.6,35.7,29.77,WNW,284,8.0,14.0,49,0.00,,,0.00,VWS V14.01,2013-11-13 19:53:00,
2013-11-13 13:54:00,54.6,35.7,29.76,West,280,8.0,14.0,49,0.00,,,0.00,VWS V14.01,2013-11-13 19:54:00,
2013-11-13 13:55:00,54.6,35.7,29.76,West,271,7.0,14.0,49,0.00,,,0.00,VWS V14.01,2013-11-13 19:55:00,
2013-11-13 13:56:00,54.6,35.7,29.76,West,271,10.0,14.0,49,0.00,,,0.00,VWS V14.01,2013-11-13 19:56:00,
2013-11-13 13:57:00,54.6,35.2,29.76,West,280,9.0,14.0,48,0.00,,,0.00,VWS V14.01,2013-11-13 19:57:00,
2013-11-13 13:58:00,54.5,35.1,29.76,West,277,15.0,15.0,48,0.00,,,0.00,VWS V14.01,2013-11-13 19:58:00,
2013-11-13 13:59:00,54.5,35.1,29.76,WNW,295,11.0,15.0,48,0.00,,,0.00,VWS V14.01,2013-11-13 19:59:00,
2013-11-13 14:00:00,54.5,35.6,29.76,West,273,7.0,15.0,49,0.00,,,0.00,VWS V14.01,2013-11-13 20:00:00,
2013-11-13 14:01:00,54.5,35.1,29.76,West,280,7.0,8.0,48,0.00,,,0.00,VWS V14.01,2013-11-13 20:01:00,
2013-11-13 14:02:00,54.6,35.7,29.76,WNW,288,9.0,10.0,49,0.00,,,0.00,VWS V14.01,2013-11-13 20:02:00,
2013-11-13 14:03:00,54.6,35.7,29.76,West,279,12.0,12.0,49,0.00,,,0.00,VWS V14.01,2013-11-13 20:03:00,
2013-11-13 14:04:00,54.6,35.2,29.76,NW,310,9.0,12.0,48,0.00,,,0.00,VWS V14.01,2013-11-13 20:04:00,
2013-11-13 14:05:00,54.7,35.3,29.76,WNW,283,6.0,12.0,48,0.00,,,0.00,VWS V14.01,2013-11-13 20:05:00,
2013-11-13 14:06:00,54.7,35.3,29.76,West,281,7.0,12.0,48,0.00,,,0.00,VWS V14.01,2013-11-13 20:06:00,
2013-11-13 14:07:00,54.7,35.3,29.76,West,279,7.0,12.0,48,0.00,,,0.00,VWS V14.01,2013-11-13 20:07:00,
2013-11-13 14:08:00,54.7,35.3,29.76,WNW,296,13.0,13.0,48,0.00,,,0.00,VWS V14.01,2013-11-13 20:08:00,
2013-11-13 14:09:00,54.7,35.3,29.76,WSW,249,7.0,13.0,48,0.00,,,0.00,VWS V14.01,2013-11-13 20:09:00,
2013-11-13 14:10:00,54.7,35.3,29.76,WNW,298,6.0,13.0,48,0.00,,,0.00,VWS V14.01,2013-11-13 20:10:00,
2013-11-13 14:11:00,54.7,35.3,29.76,West,269,8.0,13.0,48,0.00,,,0.00,VWS V14.01,2013-11-13 20:11:00,
2013-11-13 14:12:00,54.7,35.3,29.76,West,276,8.0,13.0,48,0.00,,,0.00,VWS V14.01,2013-11-13 20:12:00,
2013-11-13 14:13:00,54.7,35.3,29.76,WNW,287,7.0,13.0,48,0.00,,,0.00,VWS V14.01,2013-11-13 20:13:00,
2013-11-13 14:14:00,54.7,35.3,29.76,West,277,7.0,13.0,48,0.00,,,0.00,VWS V14.01,2013-11-13 20:14:00,
2013-11-13 14:15:00,54.7,35.3,29.76,West,259,8.0,13.0,48,0.00,,,0.00,VWS V14.01,2013-11-13 20:15:00,
2013-11-13 14:16:00,54.6,35.2,29.76,WSW,257,6.0,12.0,48,0.00,,,0.00,VWS V14.01,2013-11-13 20:16:00,
2013-11-13 14:17:00,54.6,35.2,29.76,West,279,10.0,12.0,48,0.00,,,0.00,VWS V14.01,2013-11-13 20:17:00,
2013-11-13 14:18:00,54.6,35.2,29.76,WSW,249,4.0,13.0,48,0.00,,,0.00,VWS V14.01,2013-11-13 20:18:00,
2013-11-13 14:19:00,54.6,35.2,29.76,WNW,285,6.0,13.0,48,0.00,,,0.00,VWS V14.01,2013-11-13 20:19:00,
2013-11-13 14:20:00,54.6,35.2,29.76,SW,236,10.0,13.0,48,0.00,,,0.00,VWS V14.01,2013-11-13 20:20:00,
2013-11-13 14:21:00,54.6,35.2,29.76,WNW,295,4.0,13.0,48,0.00,,,0.00,VWS V14.01,2013-11-13 20:21:00,
2013-11-13 14:22:00,54.6,35.2,29.76,WNW,293,7.0,13.0,48,0.00,,,0.00,VWS V14.01,2013-11-13 20:22:00,
2013-11-13 14:23:00,54.6,35.2,29.76,West,271,7.0,13.0,48,0.00,,,0.00,VWS V14.01,2013-11-13 20:23:00,
2013-11-13 14:24:00,54.6,35.2,29.76,SW,223,6.0,13.0,48,0.00,,,0.00,VWS V14.01,2013-11-13 20:24:00,
2013-11-13 14:25:00,54.6,35.2,29.76,WSW,253,7.0,13.0,48,0.00,,,0.00,VWS V14.01,2013-11-13 20:25:00,
2013-11-13 14:26:00,54.7,35.3,29.76,West,260,9.0,13.0,48,0.00,,,0.00,VWS V14.01,2013-11-13 20:26:00,
2013-11-13 14:27:00,54.7,35.3,29.76,West,267,3.0,13.0,48,0.00,,,0.00,VWS V14.01,2013-11-13 20:27:00,
2013-11-13 14:28:00,54.7,35.3,29.75,WSW,257,4.0,13.0,48,0.00,,,0.00,VWS V14.01,2013-11-13 20:28:00,
2013-11-13 14:29:00,54.8,35.3,29.76,WNW,284,5.0,13.0,48,0.00,,,0.00,VWS V14.01,2013-11-13 20:29:00,
2013-11-13 14:30:00,54.8,35.3,29.76,WSW,246,3.0,13.0,48,0.00,,,0.00,VWS V14.01,2013-11-13 20:30:00,
2013-11-13 14:31:00,54.8,35.3,29.76,WSW,241,3.0,4.0,48,0.00,,,0.00,VWS V14.01,2013-11-13 20:31:00,
2013-11-13 14:32:00,54.9,35.4,29.76,SW,232,7.0,8.0,48,0.00,,,0.00,VWS V14.01,2013-11-13 20:32:00,
2013-11-13 14:33:00,54.9,34.9,29.76,WSW,245,7.0,12.0,47,0.00,,,0.00,VWS V14.01,2013-11-13 20:33:00,
2013-11-13 14:34:00,54.9,34.9,29.76,WNW,286,8.0,12.0,47,0.00,,,0.00,VWS V14.01,2013-11-13 20:34:00,
2013-11-13 14:35:00,54.9,34.9,29.76,WNW,290,4.0,12.0,47,0.00,,,0.00,VWS V14.01,2013-11-13 20:35:00,
2013-11-13 14:36:00,54.9,34.9,29.76,West,262,6.0,12.0,47,0.00,,,0.00,VWS V14.01,2013-11-13 20:36:00,
2013-11-13 14:37:00,54.9,34.9,29.76,West,280,8.0,12.0,47,0.00,,,0.00,VWS V14.01,2013-11-13 20:37:00,
2013-11-13 14:38:00,54.9,34.9,29.76,WSW,253,5.0,12.0,47,0.00,,,0.00,VWS V14.01,2013-11-13 20:38:00,
2013-11-13 14:39:00,54.9,34.9,29.76,WNW,298,4.0,12.0,47,0.00,,,0.00,VWS V14.01,2013-11-13 20:39:00,
2013-11-13 14:40:00,54.9,34.9,29.76,WSW,240,4.0,12.0,47,0.00,,,0.00,VWS V14.01,2013-11-13 20:40:00,
2013-11-13 14:41:00,54.9,34.9,29.76,West,271,2.0,12.0,47,0.00,,,0.00,VWS V14.01,2013-11-13 20:41:00,
2013-11-13 14:42:00,54.9,34.9,29.76,SW,225,5.0,12.0,47,0.00,,,0.00,VWS V14.01,2013-11-13 20:42:00,
2013-11-13 14:43:00,54.8,35.3,29.76,WSW,246,8.0,12.0,48,0.00,,,0.00,VWS V14.01,2013-11-13 20:43:00,
2013-11-13 14:44:00,54.9,36.0,29.76,WSW,246,8.0,12.0,49,0.00,,,0.00,VWS V14.01,2013-11-13 20:44:00,
2013-11-13 14:45:00,54.9,36.0,29.76,SSW,209,5.0,12.0,49,0.00,,,0.00,VWS V14.01,2013-11-13 20:45:00,
2013-11-13 14:46:00,54.9,36.0,29.76,WSW,257,6.0,8.0,49,0.00,,,0.00,VWS V14.01,2013-11-13 20:46:00,
2013-11-13 14:47:00,54.9,36.0,29.76,West,266,7.0,8.0,49,0.00,,,0.00,VWS V14.01,2013-11-13 20:47:00,
2013-11-13 14:48:00,54.9,36.0,29.76,SW,229,6.0,10.0,49,0.00,,,0.00,VWS V14.01,2013-11-13 20:48:00,
2013-11-13 14:49:00,54.9,36.0,29.76,WSW,258,3.0,11.0,49,0.00,,,0.00,VWS V14.01,2013-11-13 20:49:00,
2013-11-13 14:50:00,54.8,35.9,29.76,SW,234,8.0,11.0,49,0.00,,,0.00,VWS V14.01,2013-11-13 20:50:00,
2013-11-13 14:51:00,54.9,36.0,29.76,SW,234,5.0,11.0,49,0.00,,,0.00,VWS V14.01,2013-11-13 20:51:00,
2013-11-13 14:52:00,54.8,35.9,29.76,WSW,243,4.0,11.0,49,0.00,,,0.00,VWS V14.01,2013-11-13 20:52:00,
2013-11-13 14:53:00,54.8,35.3,29.76,WSW,239,4.0,11.0,48,0.00,,,0.00,VWS V14.01,2013-11-13 20:53:00,
2013-11-13 14:54:00,54.8,35.3,29.76,WNW,290,3.0,11.0,48,0.00,,,0.00,VWS V14.01,2013-11-13 20:54:00,
2013-11-13 14:55:00,54.8,35.9,29.76,West,259,2.0,11.0,49,0.00,,,0.00,VWS V14.01,2013-11-13 20:55:00,
2013-11-13 14:56:00,54.8,35.9,29.76,WSW,258,3.0,11.0,49,0.00,,,0.00,VWS V14.01,2013-11-13 20:56:00,
2013-11-13 14:57:00,54.8,35.9,29.76,WSW,238,6.0,11.0,49,0.00,,,0.00,VWS V14.01,2013-11-13 20:57:00,
2013-11-13 14:58:00,54.8,35.9,29.76,WSW,254,5.0,11.0,49,0.00,,,0.00,VWS V14.01,2013-11-13 20:58:00,
2013-11-13 14:59:00,54.8,35.9,29.76,SW,219,6.0,11.0,49,0.00,,,0.00,VWS V14.01,2013-11-13 20:59:00,
2013-11-13 15:00:00,54.8,35.9,29.76,SW,234,5.0,11.0,49,0.00,,,0.00,VWS V14.01,2013-11-13 21:00:00,
2013-11-13 15:01:00,54.9,36.0,29.76,WSW,238,5.0,7.0,49,0.00,,,0.00,VWS V14.01,2013-11-13 21:01:00,
2013-11-13 15:02:00,54.9,36.0,29.76,SW,234,9.0,9.0,49,0.00,,,0.00,VWS V14.01,2013-11-13 21:02:00,
2013-11-13 15:03:00,55.0,36.0,29.76,WSW,256,4.0,12.0,49,0.00,,,0.00,VWS V14.01,2013-11-13 21:03:00,
2013-11-13 15:04:00,55.0,36.0,29.76,SSW,203,4.0,12.0,49,0.00,,,0.00,VWS V14.01,2013-11-13 21:04:00,
2013-11-13 15:05:00,55.0,36.0,29.76,SW,232,3.0,12.0,49,0.00,,,0.00,VWS V14.01,2013-11-13 21:05:00,
2013-11-13 15:06:00,55.0,36.0,29.76,WSW,253,4.0,12.0,49,0.00,,,0.00,VWS V14.01,2013-11-13 21:06:00,
2013-11-13 15:07:00,55.0,35.5,29.76,WSW,253,6.0,12.0,48,0.00,,,0.00,VWS V14.01,2013-11-13 21:07:00,
2013-11-13 15:08:00,55.0,35.5,29.76,West,268,6.0,12.0,48,0.00,,,0.00,VWS V14.01,2013-11-13 21:08:00,
2013-11-13 15:09:00,55.0,35.5,29.76,SW,225,7.0,12.0,48,0.00,,,0.00,VWS V14.01,2013-11-13 21:09:00,
2013-11-13 15:10:00,55.0,35.5,29.76,WNW,295,4.0,12.0,48,0.00,,,0.00,VWS V14.01,2013-11-13 21:10:00,
2013-11-13 15:11:00,55.0,35.5,29.76,WSW,248,5.0,12.0,48,0.00,,,0.00,VWS V14.01,2013-11-13 21:11:00,
2013-11-13 15:12:00,55.0,36.0,29.76,WSW,247,2.0,12.0,49,0.00,,,0.00,VWS V14.01,2013-11-13 21:12:00,
2013-11-13 15:13:00,55.0,36.0,29.76,WSW,242,5.0,12.0,49,0.00,,,0.00,VWS V14.01,2013-11-13 21:13:00,
2013-11-13 15:14:00,55.0,36.0,29.76,West,263,4.0,12.0,49,0.00,,,0.00,VWS V14.01,2013-11-13 21:14:00,
2013-11-13 15:15:00,55.0,36.0,29.76,WSW,238,5.0,12.0,49,0.00,,,0.00,VWS V14.01,2013-11-13 21:15:00,
2013-11-13 15:16:00,55.0,36.0,29.76,SW,231,6.0,7.0,49,0.00,,,0.00,VWS V14.01,2013-11-13 21:16:00,
2013-11-13 15:17:00,54.9,36.0,29.76,WSW,258,5.0,7.0,49,0.00,,,0.00,VWS V14.01,2013-11-13 21:17:00,
2013-11-13 15:18:00,55.0,36.0,29.76,SW,221,5.0,7.0,49,0.00,,,0.00,VWS V14.01,2013-11-13 21:18:00,
2013-11-13 15:19:00,54.9,36.0,29.76,WSW,249,5.0,9.0,49,0.00,,,0.00,VWS V14.01,2013-11-13 21:19:00,
2013-11-13 15:20:00,55.0,36.6,29.76,SW,226,8.0,9.0,50,0.00,,,0.00,VWS V14.01,2013-11-13 21:20:00,
2013-11-13 15:21:00,54.9,36.5,29.76,SW,229,7.0,9.0,50,0.00,,,0.00,VWS V14.01,2013-11-13 21:21:00,
2013-11-13 15:22:00,54.9,36.5,29.76,West,262,6.0,9.0,50,0.00,,,0.00,VWS V14.01,2013-11-13 21:22:00,
2013-11-13 15:23:00,54.9,36.5,29.76,SSW,209,4.0,9.0,50,0.00,,,0.00,VWS V14.01,2013-11-13 21:23:00,
2013-11-13 15:24:00,54.9,36.5,29.76,West,259,4.0,9.0,50,0.00,,,0.00,VWS V14.01,2013-11-13 21:24:00,
2013-11-13 15:25:00,54.9,36.5,29.76,SW,215,4.0,9.0,50,0.00,,,0.00,VWS V14.01,2013-11-13 21:25:00,
2013-11-13 15:26:00,54.8,36.4,29.76,SW,230,3.0,9.0,50,0.00,,,0.00,VWS V14.01,2013-11-13 21:26:00,
2013-11-13 15:27:00,54.8,36.4,29.76,WSW,244,6.0,9.0,50,0.00,,,0.00,VWS V14.01,2013-11-13 21:27:00,
2013-11-13 15:28:00,54.8,36.4,29.76,SW,232,6.0,9.0,50,0.00,,,0.00,VWS V14.01,2013-11-13 21:28:00,
2013-11-13 15:29:00,54.8,36.4,29.76,SW,234,6.0,9.0,50,0.00,,,0.00,VWS V14.01,2013-11-13 21:29:00,
2013-11-13 15:30:00,54.7,36.3,29.76,West,280,4.0,9.0,50,0.00,,,0.00,VWS V14.01,2013-11-13 21:30:00,
2013-11-13 15:31:00,54.7,36.3,29.76,West,278,5.0,5.0,50,0.00,,,0.00,VWS V14.01,2013-11-13 21:31:00,
2013-11-13 15:32:00,54.7,36.3,29.76,West,281,3.0,5.0,50,0.00,,,0.00,VWS V14.01,2013-11-13 21:32:00,
2013-11-13 15:33:00,54.7,36.3,29.76,WSW,238,5.0,7.0,50,0.00,,,0.00,VWS V14.01,2013-11-13 21:33:00,
2013-11-13 15:34:00,54.7,36.3,29.76,WSW,255,3.0,7.0,50,0.00,,,0.00,VWS V14.01,2013-11-13 21:34:00,
2013-11-13 15:35:00,54.6,36.2,29.76,WSW,248,2.0,7.0,50,0.00,,,0.00,VWS V14.01,2013-11-13 21:35:00,
2013-11-13 15:36:00,54.6,36.2,29.76,SW,228,5.0,7.0,50,0.00,,,0.00,VWS V14.01,2013-11-13 21:36:00,
2013-11-13 15:37:00,54.5,36.1,29.76,West,262,5.0,7.0,50,0.00,,,0.00,VWS V14.01,2013-11-13 21:37:00,
2013-11-13 15:38:00,54.4,36.0,29.76,WSW,240,6.0,7.0,50,0.00,,,0.00,VWS V14.01,2013-11-13 21:38:00,
2013-11-13 15:39:00,54.4,36.0,29.76,WSW,237,2.0,9.0,50,0.00,,,0.00,VWS V14.01,2013-11-13 21:39:00,
2013-11-13 15:40:00,54.3,36.4,29.76,West,263,1.0,9.0,51,0.00,,,0.00,VWS V14.01,2013-11-13 21:40:00,
2013-11-13 15:41:00,54.3,36.4,29.76,SW,232,5.0,9.0,51,0.00,,,0.00,VWS V14.01,2013-11-13 21:41:00,
2013-11-13 15:42:00,54.2,36.3,29.76,WSW,250,3.0,9.0,51,0.00,,,0.00,VWS V14.01,2013-11-13 21:42:00,
2013-11-13 15:43:00,54.2,36.3,29.76,WSW,249,6.0,9.0,51,0.00,,,0.00,VWS V14.01,2013-11-13 21:43:00,
2013-11-13 15:44:00,54.2,36.3,29.76,WSW,244,4.0,9.0,51,0.00,,,0.00,VWS V14.01,2013-11-13 21:44:00,
2013-11-13 15:45:00,54.1,36.2,29.76,WSW,241,4.0,9.0,51,0.00,,,0.00,VWS V14.01,2013-11-13 21:45:00,
2013-11-13 15:46:00,54.1,36.2,29.76,SW,233,2.0,4.0,51,0.00,,,0.00,VWS V14.01,2013-11-13 21:46:00,
2013-11-13 15:47:00,54.0,36.2,29.76,WSW,253,6.0,6.0,51,0.00,,,0.00,VWS V14.01,2013-11-13 21:47:00,
2013-11-13 15:48:00,54.0,36.2,29.76,SW,232,3.0,6.0,51,0.00,,,0.00,VWS V14.01,2013-11-13 21:48:00,
2013-11-13 15:49:00,53.9,36.1,29.76,SW,235,2.0,6.0,51,0.00,,,0.00,VWS V14.01,2013-11-13 21:49:00,
2013-11-13 15:50:00,53.9,36.1,29.76,WSW,237,4.0,6.0,51,0.00,,,0.00,VWS V14.01,2013-11-13 21:50:00,
2013-11-13 15:51:00,53.8,36.0,29.76,WSW,243,2.0,6.0,51,0.00,,,0.00,VWS V14.01,2013-11-13 21:51:00,
2013-11-13 15:52:00,53.7,35.9,29.75,WSW,242,3.0,6.0,51,0.00,,,0.00,VWS V14.01,2013-11-13 21:52:00,
2013-11-13 15:53:00,53.6,35.8,29.75,SW,234,3.0,9.0,51,0.00,,,0.00,VWS V14.01,2013-11-13 21:53:00,
2013-11-13 15:54:00,53.6,35.8,29.76,SW,224,5.0,9.0,51,0.00,,,0.00,VWS V14.01,2013-11-13 21:54:00,
2013-11-13 15:55:00,53.6,35.8,29.75,SW,234,5.0,9.0,51,0.00,,,0.00,VWS V14.01,2013-11-13 21:55:00,
2013-11-13 15:56:00,53.5,35.7,29.75,WSW,239,3.0,9.0,51,0.00,,,0.00,VWS V14.01,2013-11-13 21:56:00,
2013-11-13 15:57:00,53.4,35.6,29.75,SW,223,3.0,9.0,51,0.00,,,0.00,VWS V14.01,2013-11-13 21:57:00,
2013-11-13 15:58:00,53.4,35.6,29.75,SW,230,2.0,9.0,51,0.00,,,0.00,VWS V14.01,2013-11-13 21:58:00,
2013-11-13 15:59:00,53.3,36.0,29.75,SW,234,1.0,9.0,52,0.00,,,0.00,VWS V14.01,2013-11-13 21:59:00,
2013-11-13 16:00:00,53.2,35.9,29.75,SW,232,3.0,9.0,52,0.00,,,0.00,VWS V14.01,2013-11-13 22:00:00,
2013-11-13 16:01:00,53.1,35.8,29.75,WSW,238,2.0,5.0,52,0.00,,,0.00,VWS V14.01,2013-11-13 22:01:00,
2013-11-13 16:02:00,53.1,35.8,29.75,SW,232,3.0,5.0,52,0.00,,,0.00,VWS V14.01,2013-11-13 22:02:00,
2013-11-13 16:03:00,53.0,35.7,29.75,WSW,238,4.0,5.0,52,0.00,,,0.00,VWS V14.01,2013-11-13 22:03:00,
2013-11-13 16:04:00,53.0,35.7,29.75,SW,231,2.0,6.0,52,0.00,,,0.00,VWS V14.01,2013-11-13 22:04:00,
2013-11-13 16:05:00,52.9,35.6,29.75,WSW,258,3.0,6.0,52,0.00,,,0.00,VWS V14.01,2013-11-13 22:05:00,
2013-11-13 16:06:00,52.8,35.5,29.75,SW,236,2.0,6.0,52,0.00,,,0.00,VWS V14.01,2013-11-13 22:06:00,
2013-11-13 16:07:00,52.8,35.5,29.75,SW,230,4.0,6.0,52,0.00,,,0.00,VWS V14.01,2013-11-13 22:07:00,
2013-11-13 16:08:00,52.8,35.5,29.75,West,261,3.0,6.0,52,0.00,,,0.00,VWS V14.01,2013-11-13 22:08:00,
2013-11-13 16:09:00,52.7,35.9,29.75,West,262,3.0,6.0,53,0.00,,,0.00,VWS V14.01,2013-11-13 22:09:00,
2013-11-13 16:10:00,52.7,35.9,29.75,WSW,239,4.0,6.0,53,0.00,,,0.00,VWS V14.01,2013-11-13 22:10:00,
2013-11-13 16:11:00,52.6,35.8,29.75,WSW,237,2.0,6.0,53,0.00,,,0.00,VWS V14.01,2013-11-13 22:11:00,
2013-11-13 16:12:00,52.6,35.8,29.75,West,265,3.0,6.0,53,0.00,,,0.00,VWS V14.01,2013-11-13 22:12:00,
2013-11-13 16:13:00,52.5,35.7,29.75,WSW,254,2.0,6.0,53,0.00,,,0.00,VWS V14.01,2013-11-13 22:13:00,
2013-11-13 16:14:00,52.4,35.6,29.75,WSW,242,4.0,6.0,53,0.00,,,0.00,VWS V14.01,2013-11-13 22:14:00,
2013-11-13 16:15:00,52.4,35.6,29.75,WSW,243,3.0,6.0,53,0.00,,,0.00,VWS V14.01,2013-11-13 22:15:00,
2013-11-13 16:16:00,52.4,35.6,29.75,WSW,242,5.0,6.0,53,0.00,,,0.00,VWS V14.01,2013-11-13 22:16:00,
2013-11-13 16:17:00,52.3,35.5,29.75,WSW,246,4.0,6.0,53,0.00,,,0.00,VWS V14.01,2013-11-13 22:17:00,
2013-11-13 16:18:00,52.3,35.5,29.75,West,266,4.0,7.0,53,0.00,,,0.00,VWS V14.01,2013-11-13 22:18:00,
2013-11-13 16:19:00,52.2,35.5,29.75,West,261,3.0,7.0,53,0.00,,,0.00,VWS V14.01,2013-11-13 22:19:00,
2013-11-13 16:20:00,52.2,35.5,29.75,West,259,4.0,7.0,53,0.00,,,0.00,VWS V14.01,2013-11-13 22:20:00,
2013-11-13 16:21:00,52.2,35.5,29.75,WSW,257,4.0,7.0,53,0.00,,,0.00,VWS V14.01,2013-11-13 22:21:00,
2013-11-13 16:22:00,52.1,35.4,29.75,West,271,4.0,7.0,53,0.00,,,0.00,VWS V14.01,2013-11-13 22:22:00,
2013-11-13 16:23:00,52.1,35.4,29.75,WSW,245,5.0,7.0,53,0.00,,,0.00,VWS V14.01,2013-11-13 22:23:00,
2013-11-13 16:24:00,52.0,35.3,29.75,West,261,3.0,7.0,53,0.00,,,0.00,VWS V14.01,2013-11-13 22:24:00,
2013-11-13 16:25:00,52.0,35.3,29.75,West,262,4.0,7.0,53,0.00,,,0.00,VWS V14.01,2013-11-13 22:25:00,
2013-11-13 16:26:00,51.9,35.2,29.75,SW,233,4.0,7.0,53,0.00,,,0.00,VWS V14.01,2013-11-13 22:26:00,
2013-11-13 16:27:00,51.9,35.2,29.75,WSW,254,4.0,7.0,53,0.00,,,0.00,VWS V14.01,2013-11-13 22:27:00,
2013-11-13 16:28:00,51.8,35.1,29.75,West,263,4.0,7.0,53,0.00,,,0.00,VWS V14.01,2013-11-13 22:28:00,
2013-11-13 16:29:00,51.8,35.1,29.75,WSW,249,5.0,7.0,53,0.00,,,0.00,VWS V14.01,2013-11-13 22:29:00,
2013-11-13 16:30:00,51.8,35.1,29.75,WSW,256,4.0,7.0,53,0.00,,,0.00,VWS V14.01,2013-11-13 22:30:00,
2013-11-13 16:31:00,51.7,35.0,29.75,WSW,256,5.0,7.0,53,0.00,,,0.00,VWS V14.01,2013-11-13 22:31:00,
2013-11-13 16:32:00,51.7,35.0,29.75,West,259,4.0,7.0,53,0.00,,,0.00,VWS V14.01,2013-11-13 22:32:00,
2013-11-13 16:33:00,51.6,34.9,29.75,West,265,4.0,7.0,53,0.00,,,0.00,VWS V14.01,2013-11-13 22:33:00,
2013-11-13 16:34:00,51.5,34.8,29.75,West,278,3.0,7.0,53,0.00,,,0.00,VWS V14.01,2013-11-13 22:34:00,
2013-11-13 16:35:00,51.5,34.8,29.75,West,259,3.0,7.0,53,0.00,,,0.00,VWS V14.01,2013-11-13 22:35:00,
2013-11-13 16:36:00,51.4,34.7,29.75,West,277,3.0,7.0,53,0.00,,,0.00,VWS V14.01,2013-11-13 22:36:00,
2013-11-13 16:37:00,51.3,35.1,29.75,West,270,6.0,7.0,54,0.00,,,0.00,VWS V14.01,2013-11-13 22:37:00,
2013-11-13 16:38:00,51.2,35.0,29.75,WNW,282,3.0,7.0,54,0.00,,,0.00,VWS V14.01,2013-11-13 22:38:00,
2013-11-13 16:39:00,51.1,34.9,29.75,WNW,282,5.0,7.0,54,0.00,,,0.00,VWS V14.01,2013-11-13 22:39:00,
2013-11-13 16:40:00,51.0,34.8,29.75,West,263,4.0,7.0,54,0.00,,,0.00,VWS V14.01,2013-11-13 22:40:00,
2013-11-13 16:41:00,50.9,34.7,29.75,West,269,3.0,7.0,54,0.00,,,0.00,VWS V14.01,2013-11-13 22:41:00,
2013-11-13 16:42:00,50.8,34.6,29.75,WSW,246,4.0,7.0,54,0.00,,,0.00,VWS V14.01,2013-11-13 22:42:00,
2013-11-13 16:43:00,50.8,34.6,29.75,West,278,3.0,7.0,54,0.00,,,0.00,VWS V14.01,2013-11-13 22:43:00,
2013-11-13 16:44:00,50.7,34.5,29.75,WNW,282,5.0,7.0,54,0.00,,,0.00,VWS V14.01,2013-11-13 22:44:00,
2013-11-13 16:45:00,50.6,34.4,29.75,West,276,5.0,7.0,54,0.00,,,0.00,VWS V14.01,2013-11-13 22:45:00,
2013-11-13 16:46:00,50.5,34.8,29.75,West,280,7.0,7.0,55,0.00,,,0.00,VWS V14.01,2013-11-13 22:46:00,
2013-11-13 16:47:00,50.5,34.8,29.75,WNW,285,2.0,7.0,55,0.00,,,0.00,VWS V14.01,2013-11-13 22:47:00,
2013-11-13 16:48:00,50.5,34.8,29.75,West,259,4.0,7.0,55,0.00,,,0.00,VWS V14.01,2013-11-13 22:48:00,
2013-11-13 16:49:00,50.4,34.7,29.75,West,266,2.0,7.0,55,0.00,,,0.00,VWS V14.01,2013-11-13 22:49:00,
2013-11-13 16:50:00,50.4,34.7,29.75,West,269,3.0,7.0,55,0.00,,,0.00,VWS V14.01,2013-11-13 22:50:00,
2013-11-13 16:51:00,50.3,34.6,29.75,WSW,251,4.0,7.0,55,0.00,,,0.00,VWS V14.01,2013-11-13 22:51:00,
2013-11-13 16:52:00,50.3,34.6,29.75,West,277,4.0,7.0,55,0.00,,,0.00,VWS V14.01,2013-11-13 22:52:00,
2013-11-13 16:53:00,50.2,34.5,29.75,West,280,3.0,7.0,55,0.00,,,0.00,VWS V14.01,2013-11-13 22:53:00,
2013-11-13 16:54:00,50.1,34.4,29.75,West,261,3.0,7.0,55,0.00,,,0.00,VWS V14.01,2013-11-13 22:54:00,
2013-11-13 16:55:00,50.1,34.9,29.75,WNW,286,3.0,7.0,56,0.00,,,0.00,VWS V14.01,2013-11-13 22:55:00,
2013-11-13 16:56:00,50.0,34.8,29.75,WNW,284,3.0,7.0,56,0.00,,,0.00,VWS V14.01,2013-11-13 22:56:00,
2013-11-13 16:57:00,49.9,34.7,29.75,West,270,2.0,7.0,56,0.00,,,0.00,VWS V14.01,2013-11-13 22:57:00,
2013-11-13 16:58:00,49.9,34.7,29.75,West,269,3.0,7.0,56,0.00,,,0.00,VWS V14.01,2013-11-13 22:58:00,
2013-11-13 16:59:00,49.8,34.6,29.75,WSW,248,2.0,7.0,56,0.00,,,0.00,VWS V14.01,2013-11-13 22:59:00,
2013-11-13 17:00:00,49.8,34.6,29.75,SW,232,1.0,7.0,56,0.00,,,0.00,VWS V14.01,2013-11-13 23:00:00,
2013-11-13 17:01:00,49.7,34.5,29.75,SW,215,3.0,3.0,56,0.00,,,0.00,VWS V14.01,2013-11-13 23:01:00,
2013-11-13 17:02:00,49.6,34.4,29.75,SSW,211,3.0,4.0,56,0.00,,,0.00,VWS V14.01,2013-11-13 23:02:00,
2013-11-13 17:03:00,49.4,34.2,29.75,SSW,211,4.0,4.0,56,0.00,,,0.00,VWS V14.01,2013-11-13 23:03:00,
2013-11-13 17:04:00,49.1,34.0,29.75,SSW,211,3.0,4.0,56,0.00,,,0.00,VWS V14.01,2013-11-13 23:04:00,
2013-11-13 17:05:00,48.9,33.8,29.75,SSW,203,2.0,4.0,56,0.00,,,0.00,VWS V14.01,2013-11-13 23:05:00,
2013-11-13 17:06:00,48.7,34.0,29.75,SSW,198,2.0,4.0,57,0.00,,,0.00,VWS V14.01,2013-11-13 23:06:00,
2013-11-13 17:07:00,48.4,33.8,29.75,SSW,192,3.0,4.0,57,0.00,,,0.00,VWS V14.01,2013-11-13 23:07:00,
2013-11-13 17:08:00,48.2,33.6,29.75,SSW,196,3.0,4.0,57,0.00,,,0.00,VWS V14.01,2013-11-13 23:08:00,
2013-11-13 17:09:00,47.9,33.3,29.75,SSW,192,4.0,4.0,57,0.00,,,0.00,VWS V14.01,2013-11-13 23:09:00,
2013-11-13 17:10:00,47.7,33.5,29.75,SSW,207,2.0,5.0,58,0.00,,,0.00,VWS V14.01,2013-11-13 23:10:00,
2013-11-13 17:11:00,47.4,33.2,29.75,SSW,201,4.0,5.0,58,0.00,,,0.00,VWS V14.01,2013-11-13 23:11:00,
2013-11-13 17:12:00,47.1,33.4,29.75,SSW,212,4.0,5.0,59,0.00,,,0.00,VWS V14.01,2013-11-13 23:12:00,
2013-11-13 17:13:00,46.9,34.5,29.75,SSW,203,4.0,6.0,62,0.00,,,0.00,VWS V14.01,2013-11-13 23:13:00,
2013-11-13 17:14:00,46.6,32.9,29.75,SSW,209,4.0,6.0,59,0.00,,,0.00,VWS V14.01,2013-11-13 23:14:00,
2013-11-13 17:15:00,46.4,33.2,29.75,SSW,204,4.0,6.0,60,0.00,,,0.00,VWS V14.01,2013-11-13 23:15:00,
2013-11-13 17:16:00,46.2,33.0,29.75,SSW,209,3.0,5.0,60,0.00,,,0.00,VWS V14.01,2013-11-13 23:16:00,
2013-11-13 17:17:00,46.0,33.2,29.75,SSW,192,4.0,5.0,61,0.00,,,0.00,VWS V14.01,2013-11-13 23:17:00,
2013-11-13 17:18:00,45.8,33.0,29.75,SSW,193,3.0,5.0,61,0.00,,,0.00,VWS V14.01,2013-11-13 23:18:00,
2013-11-13 17:19:00,45.7,32.9,29.76,SW,216,4.0,6.0,61,0.00,,,0.00,VWS V14.01,2013-11-13 23:19:00,
2013-11-13 17:20:00,45.6,33.2,29.76,SW,215,5.0,7.0,62,0.00,,,0.00,VWS V14.01,2013-11-13 23:20:00,
2013-11-13 17:21:00,45.5,33.1,29.76,SSW,212,5.0,7.0,62,0.00,,,0.00,VWS V14.01,2013-11-13 23:21:00,
2013-11-13 17:22:00,45.4,33.4,29.76,SW,219,5.0,7.0,63,0.00,,,0.00,VWS V14.01,2013-11-13 23:22:00,
2013-11-13 17:23:00,45.3,33.3,29.76,SSW,209,3.0,7.0,63,0.00,,,0.00,VWS V14.01,2013-11-13 23:23:00,
2013-11-13 17:24:00,45.2,33.2,29.76,SSW,202,4.0,7.0,63,0.00,,,0.00,VWS V14.01,2013-11-13 23:24:00,
2013-11-13 17:25:00,45.2,33.2,29.76,SSW,211,4.0,7.0,63,0.00,,,0.00,VWS V14.01,2013-11-13 23:25:00,
2013-11-13 17:26:00,45.1,33.5,29.76,SSW,211,6.0,7.0,64,0.00,,,0.00,VWS V14.01,2013-11-13 23:26:00,
2013-11-13 17:27:00,45.1,33.5,29.76,SSW,207,4.0,7.0,64,0.00,,,0.00,VWS V14.01,2013-11-13 23:27:00,
2013-11-13 17:28:00,45.0,33.5,29.76,SW,217,4.0,7.0,64,0.00,,,0.00,VWS V14.01,2013-11-13 23:28:00,
2013-11-13 17:29:00,45.0,33.5,29.76,SSW,208,5.0,7.0,64,0.00,,,0.00,VWS V14.01,2013-11-13 23:29:00,
2013-11-13 17:30:00,45.0,33.8,29.76,SSW,205,4.0,7.0,65,0.00,,,0.00,VWS V14.01,2013-11-13 23:30:00,
2013-11-13 17:31:00,45.0,33.8,29.76,SW,222,4.0,5.0,65,0.00,,,0.00,VWS V14.01,2013-11-13 23:31:00,
2013-11-13 17:32:00,45.0,33.8,29.76,SSW,203,3.0,5.0,65,0.00,,,0.00,VWS V14.01,2013-11-13 23:32:00,
2013-11-13 17:33:00,45.0,33.8,29.76,SSW,192,5.0,5.0,65,0.00,,,0.00,VWS V14.01,2013-11-13 23:33:00,
2013-11-13 17:34:00,44.9,33.8,29.76,SSW,201,5.0,5.0,65,0.00,,,0.00,VWS V14.01,2013-11-13 23:34:00,
2013-11-13 17:35:00,44.9,33.8,29.76,SSW,204,4.0,5.0,65,0.00,,,0.00,VWS V14.01,2013-11-13 23:35:00,
2013-11-13 17:36:00,44.9,33.8,29.76,SSW,210,4.0,7.0,65,0.00,,,0.00,VWS V14.01,2013-11-13 23:36:00,
2013-11-13 17:37:00,44.9,33.8,29.76,SSW,213,5.0,7.0,65,0.00,,,0.00,VWS V14.01,2013-11-13 23:37:00,
2013-11-13 17:38:00,44.9,33.8,29.76,SSW,213,4.0,7.0,65,0.00,,,0.00,VWS V14.01,2013-11-13 23:38:00,
2013-11-13 17:39:00,44.9,34.1,29.76,SW,225,4.0,7.0,66,0.00,,,0.00,VWS V14.01,2013-11-13 23:39:00,
2013-11-13 17:40:00,44.9,34.1,29.76,SW,228,5.0,7.0,66,0.00,,,0.00,VWS V14.01,2013-11-13 23:40:00,
2013-11-13 17:41:00,44.9,34.1,29.76,SW,219,3.0,7.0,66,0.00,,,0.00,VWS V14.01,2013-11-13 23:41:00,
2013-11-13 17:42:00,44.9,34.5,29.76,SW,223,4.0,7.0,67,0.00,,,0.00,VWS V14.01,2013-11-13 23:42:00,
2013-11-13 17:43:00,45.0,34.6,29.76,SW,224,5.0,7.0,67,0.00,,,0.00,VWS V14.01,2013-11-13 23:43:00,
2013-11-13 17:44:00,45.1,34.7,29.76,SW,221,4.0,7.0,67,0.00,,,0.00,VWS V14.01,2013-11-13 23:44:00,
2013-11-13 17:45:00,45.2,34.8,29.76,SW,236,4.0,7.0,67,0.00,,,0.00,VWS V14.01,2013-11-13 23:45:00,
2013-11-13 17:46:00,45.2,34.4,29.76,WSW,247,5.0,6.0,66,0.00,,,0.00,VWS V14.01,2013-11-13 23:46:00,
2013-11-13 17:47:00,45.3,34.5,29.76,SW,232,5.0,7.0,66,0.00,,,0.00,VWS V14.01,2013-11-13 23:47:00,
2013-11-13 17:48:00,45.5,34.7,29.76,SW,234,4.0,7.0,66,0.00,,,0.00,VWS V14.01,2013-11-13 23:48:00,
2013-11-13 17:49:00,45.6,34.8,29.76,WSW,239,4.0,7.0,66,0.00,,,0.00,VWS V14.01,2013-11-13 23:49:00,
2013-11-13 17:50:00,45.8,35.0,29.76,SW,226,5.0,7.0,66,0.00,,,0.00,VWS V14.01,2013-11-13 23:50:00,
2013-11-13 17:51:00,45.9,34.7,29.76,SW,234,2.0,7.0,65,0.00,,,0.00,VWS V14.01,2013-11-13 23:51:00,
2013-11-13 17:52:00,46.1,34.9,29.75,SW,218,4.0,7.0,65,0.00,,,0.00,VWS V14.01,2013-11-13 23:52:00,
2013-11-13 17:53:00,46.2,35.0,29.75,WSW,238,3.0,7.0,65,0.00,,,0.00,VWS V14.01,2013-11-13 23:53:00,
2013-11-13 17:54:00,46.3,35.1,29.75,SW,232,3.0,7.0,65,0.00,,,0.00,VWS V14.01,2013-11-13 23:54:00,
2013-11-13 17:55:00,46.4,34.8,29.75,WSW,238,5.0,8.0,64,0.00,,,0.00,VWS V14.01,2013-11-13 23:55:00,
2013-11-13 17:56:00,46.5,34.9,29.75,SW,217,3.0,8.0,64,0.00,,,0.00,VWS V14.01,2013-11-13 23:56:00,
2013-11-13 17:57:00,46.6,35.0,29.75,SW,226,4.0,8.0,64,0.00,,,0.00,VWS V14.01,2013-11-13 23:57:00,
2013-11-13 17:58:00,46.6,35.0,29.75,SW,218,4.0,8.0,64,0.00,,,0.00,VWS V14.01,2013-11-13 23:58:00,
2013-11-13 17:59:00,46.6,35.0,29.75,SW,230,3.0,8.0,64,0.00,,,0.00,VWS V14.01,2013-11-13 23:59:00,
2013-11-13 18:00:00,46.6,35.0,29.75,SSW,211,2.0,8.0,64,0.00,,,0.00,VWS V14.01,2013-11-14 00:00:00,
2013-11-13 18:01:00,46.5,34.9,29.75,SW,222,3.0,5.0,64,0.00,,,0.00,VWS V14.01,2013-11-14 00:01:00,
2013-11-13 18:02:00,46.5,34.9,29.75,SW,235,3.0,5.0,64,0.00,,,0.00,VWS V14.01,2013-11-14 00:02:00,
2013-11-13 18:03:00,46.5,34.9,29.75,SW,217,4.0,7.0,64,0.00,,,0.00,VWS V14.01,2013-11-14 00:03:00,
2013-11-13 18:04:00,46.4,34.8,29.75,SW,234,4.0,7.0,64,0.00,,,0.00,VWS V14.01,2013-11-14 00:04:00,
2013-11-13 18:05:00,46.4,34.8,29.75,SW,218,2.0,7.0,64,0.00,,,0.00,VWS V14.01,2013-11-14 00:05:00,
2013-11-13 18:06:00,46.4,34.8,29.75,SW,230,3.0,7.0,64,0.00,,,0.00,VWS V14.01,2013-11-14 00:06:00,
2013-11-13 18:07:00,46.4,34.8,29.75,West,267,3.0,7.0,64,0.00,,,0.00,VWS V14.01,2013-11-14 00:07:00,
2013-11-13 18:08:00,46.4,34.8,29.75,SW,232,6.0,7.0,64,0.00,,,0.00,VWS V14.01,2013-11-14 00:08:00,
2013-11-13 18:09:00,46.4,34.8,29.75,SW,219,3.0,7.0,64,0.00,,,0.00,VWS V14.01,2013-11-14 00:09:00,
2013-11-13 18:10:00,46.5,34.9,29.75,WSW,252,6.0,7.0,64,0.00,,,0.00,VWS V14.01,2013-11-14 00:10:00,
2013-11-13 18:11:00,46.5,34.9,29.75,SW,216,4.0,7.0,64,0.00,,,0.00,VWS V14.01,2013-11-14 00:11:00,
2013-11-13 18:12:00,46.5,34.9,29.75,SW,217,5.0,7.0,64,0.00,,,0.00,VWS V14.01,2013-11-14 00:12:00,
2013-11-13 18:13:00,46.5,34.9,29.75,SW,215,5.0,7.0,64,0.00,,,0.00,VWS V14.01,2013-11-14 00:13:00,
2013-11-13 18:14:00,46.5,34.9,29.75,SW,226,3.0,7.0,64,0.00,,,0.00,VWS V14.01,2013-11-14 00:14:00,
2013-11-13 18:15:00,46.5,34.9,29.75,SW,231,3.0,7.0,64,0.00,,,0.00,VWS V14.01,2013-11-14 00:15:00,
2013-11-13 18:16:00,46.4,34.8,29.75,SW,231,3.0,5.0,64,0.00,,,0.00,VWS V14.01,2013-11-14 00:16:00,
2013-11-13 18:17:00,46.4,34.8,29.75,WSW,237,2.0,6.0,64,0.00,,,0.00,VWS V14.01,2013-11-14 00:17:00,
2013-11-13 18:18:00,46.4,34.8,29.75,SW,224,4.0,6.0,64,0.00,,,0.00,VWS V14.01,2013-11-14 00:18:00,
2013-11-13 18:19:00,46.4,35.2,29.75,WSW,246,4.0,6.0,65,0.00,,,0.00,VWS V14.01,2013-11-14 00:19:00,
2013-11-13 18:20:00,46.3,35.1,29.75,West,267,4.0,6.0,65,0.00,,,0.00,VWS V14.01,2013-11-14 00:20:00,
2013-11-13 18:21:00,46.4,35.2,29.75,WNW,285,3.0,6.0,65,0.00,,,0.00,VWS V14.01,2013-11-14 00:21:00,
2013-11-13 18:22:00,46.4,35.2,29.75,West,265,3.0,6.0,65,0.00,,,0.00,VWS V14.01,2013-11-14 00:22:00,
2013-11-13 18:23:00,46.3,35.1,29.75,WSW,254,2.0,6.0,65,0.00,,,0.00,VWS V14.01,2013-11-14 00:23:00,
2013-11-13 18:24:00,46.3,35.1,29.75,WSW,244,3.0,6.0,65,0.00,,,0.00,VWS V14.01,2013-11-14 00:24:00,
2013-11-13 18:25:00,46.3,35.1,29.75,West,266,2.0,6.0,65,0.00,,,0.00,VWS V14.01,2013-11-14 00:25:00,
2013-11-13 18:26:00,46.3,35.1,29.75,WSW,237,3.0,6.0,65,0.00,,,0.00,VWS V14.01,2013-11-14 00:26:00,
2013-11-13 18:27:00,46.3,35.1,29.75,West,263,3.0,6.0,65,0.00,,,0.00,VWS V14.01,2013-11-14 00:27:00,
2013-11-13 18:28:00,46.3,35.1,29.75,West,275,6.0,6.0,65,0.00,,,0.00,VWS V14.01,2013-11-14 00:28:00,
2013-11-13 18:29:00,46.3,35.1,29.75,SW,236,5.0,6.0,65,0.00,,,0.00,VWS V14.01,2013-11-14 00:29:00,
2013-11-13 18:30:00,46.4,35.2,29.75,SW,234,5.0,7.0,65,0.00,,,0.00,VWS V14.01,2013-11-14 00:30:00,
2013-11-13 18:31:00,46.4,34.8,29.75,WSW,242,3.0,8.0,64,0.00,,,0.00,VWS V14.01,2013-11-14 00:31:00,
2013-11-13 18:32:00,46.4,34.8,29.75,West,262,4.0,8.0,64,0.00,,,0.00,VWS V14.01,2013-11-14 00:32:00,
2013-11-13 18:33:00,46.5,34.9,29.75,SW,230,4.0,8.0,64,0.00,,,0.00,VWS V14.01,2013-11-14 00:33:00,
2013-11-13 18:34:00,46.4,34.8,29.75,SW,226,4.0,8.0,64,0.00,,,0.00,VWS V14.01,2013-11-14 00:34:00,
2013-11-13 18:35:00,46.5,34.9,29.75,WSW,248,3.0,8.0,64,0.00,,,0.00,VWS V14.01,2013-11-14 00:35:00,
2013-11-13 18:36:00,46.5,34.9,29.74,WSW,244,3.0,8.0,64,0.00,,,0.00,VWS V14.01,2013-11-14 00:36:00,
2013-11-13 18:37:00,46.4,34.8,29.74,SW,236,2.0,8.0,64,0.00,,,0.00,VWS V14.01,2013-11-14 00:37:00,
2013-11-13 18:38:00,46.4,34.8,29.74,SW,217,4.0,8.0,64,0.00,,,0.00,VWS V14.01,2013-11-14 00:38:00,
2013-11-13 18:39:00,46.4,34.8,29.74,SW,236,3.0,8.0,64,0.00,,,0.00,VWS V14.01,2013-11-14 00:39:00,
2013-11-13 18:40:00,46.4,34.8,29.74,SW,223,5.0,8.0,64,0.00,,,0.00,VWS V14.01,2013-11-14 00:40:00,
2013-11-13 18:41:00,46.4,34.8,29.74,SW,232,3.0,8.0,64,0.00,,,0.00,VWS V14.01,2013-11-14 00:41:00,
2013-11-13 18:42:00,46.4,34.8,29.74,SW,223,3.0,8.0,64,0.00,,,0.00,VWS V14.01,2013-11-14 00:42:00,
2013-11-13 18:43:00,46.4,34.8,29.74,SW,226,3.0,8.0,64,0.00,,,0.00,VWS V14.01,2013-11-14 00:43:00,
2013-11-13 18:44:00,46.4,34.8,29.74,SW,226,2.0,8.0,64,0.00,,,0.00,VWS V14.01,2013-11-14 00:44:00,
2013-11-13 18:45:00,46.3,34.7,29.74,WSW,253,4.0,8.0,64,0.00,,,0.00,VWS V14.01,2013-11-14 00:45:00,
2013-11-13 18:46:00,46.3,34.7,29.74,West,268,2.0,4.0,64,0.00,,,0.00,VWS V14.01,2013-11-14 00:46:00,
2013-11-13 18:47:00,46.3,34.7,29.74,West,269,1.0,4.0,64,0.00,,,0.00,VWS V14.01,2013-11-14 00:47:00,
2013-11-13 18:48:00,46.3,34.7,29.74,West,269,0.0,4.0,64,0.00,,,0.00,VWS V14.01,2013-11-14 00:48:00,
2013-11-13 18:49:00,46.3,34.7,29.74,West,269,1.0,4.0,64,0.00,,,0.00,VWS V14.01,2013-11-14 00:49:00,
2013-11-13 18:50:00,46.3,34.7,29.74,West,269,0.0,4.0,64,0.00,,,0.00,VWS V14.01,2013-11-14 00:50:00,
2013-11-13 18:51:00,46.2,34.6,29.74,West,269,1.0,4.0,64,0.00,,,0.00,VWS V14.01,2013-11-14 00:51:00,
2013-11-13 18:52:00,46.2,34.6,29.74,West,269,2.0,4.0,64,0.00,,,0.00,VWS V14.01,2013-11-14 00:52:00,
2013-11-13 18:53:00,46.1,34.5,29.74,WSW,258,2.0,4.0,64,0.00,,,0.00,VWS V14.01,2013-11-14 00:53:00,
2013-11-13 18:54:00,46.1,34.5,29.74,WSW,253,2.0,4.0,64,0.00,,,0.00,VWS V14.01,2013-11-14 00:54:00,
2013-11-13 18:55:00,46.1,34.5,29.74,WSW,253,2.0,4.0,64,0.00,,,0.00,VWS V14.01,2013-11-14 00:55:00,
2013-11-13 18:56:00,46.1,34.5,29.74,WSW,241,2.0,4.0,64,0.00,,,0.00,VWS V14.01,2013-11-14 00:56:00,
2013-11-13 18:57:00,46.1,34.5,29.74,WSW,241,1.0,4.0,64,0.00,,,0.00,VWS V14.01,2013-11-14 00:57:00,
2013-11-13 18:58:00,46.1,34.9,29.74,WSW,241,1.0,4.0,65,0.00,,,0.00,VWS V14.01,2013-11-14 00:58:00,
2013-11-13 18:59:00,46.1,34.9,29.74,WSW,241,0.0,4.0,65,0.00,,,0.00,VWS V14.01,2013-11-14 00:59:00,
2013-11-13 19:00:00,46.1,34.9,29.74,WSW,241,0.0,4.0,65,0.00,,,0.00,VWS V14.01,2013-11-14 01:00:00,
2013-11-13 19:01:00,46.1,34.9,29.75,WNW,283,2.0,3.0,65,0.00,,,0.00,VWS V14.01,2013-11-14 01:01:00,
2013-11-13 19:02:00,46.1,34.9,29.74,West,269,2.0,3.0,65,0.00,,,0.00,VWS V14.01,2013-11-14 01:02:00,
2013-11-13 19:03:00,46.1,34.9,29.75,West,269,3.0,3.0,65,0.00,,,0.00,VWS V14.01,2013-11-14 01:03:00,
2013-11-13 19:04:00,46.1,34.9,29.74,WSW,245,2.0,4.0,65,0.00,,,0.00,VWS V14.01,2013-11-14 01:04:00,
2013-11-13 19:05:00,46.0,35.2,29.75,WSW,251,4.0,4.0,66,0.00,,,0.00,VWS V14.01,2013-11-14 01:05:00,
2013-11-13 19:06:00,46.0,35.2,29.75,WSW,245,4.0,6.0,66,0.00,,,0.00,VWS V14.01,2013-11-14 01:06:00,
2013-11-13 19:07:00,46.0,35.2,29.75,SW,226,2.0,6.0,66,0.00,,,0.00,VWS V14.01,2013-11-14 01:07:00,
2013-11-13 19:08:00,46.0,35.2,29.74,WSW,240,3.0,6.0,66,0.00,,,0.00,VWS V14.01,2013-11-14 01:08:00,
2013-11-13 19:09:00,45.9,35.1,29.75,SW,234,1.0,6.0,66,0.00,,,0.00,VWS V14.01,2013-11-14 01:09:00,
2013-11-13 19:10:00,45.9,35.1,29.75,SW,234,2.0,6.0,66,0.00,,,0.00,VWS V14.01,2013-11-14 01:10:00,
2013-11-13 19:11:00,45.8,35.0,29.75,SW,234,3.0,6.0,66,0.00,,,0.00,VWS V14.01,2013-11-14 01:11:00,
2013-11-13 19:12:00,45.8,35.0,29.75,SW,234,2.0,6.0,66,0.00,,,0.00,VWS V14.01,2013-11-14 01:12:00,
2013-11-13 19:13:00,45.8,35.4,29.75,WSW,238,2.0,6.0,67,0.00,,,0.00,VWS V14.01,2013-11-14 01:13:00,
2013-11-13 19:14:00,45.7,35.3,29.75,WSW,253,3.0,6.0,67,0.00,,,0.00,VWS V14.01,2013-11-14 01:14:00,
2013-11-13 19:15:00,45.7,35.3,29.75,SW,236,1.0,6.0,67,0.00,,,0.00,VWS V14.01,2013-11-14 01:15:00,
2013-11-13 19:16:00,45.6,35.2,29.75,SSW,209,2.0,4.0,67,0.00,,,0.00,VWS V14.01,2013-11-14 01:16:00,
2013-11-13 19:17:00,45.6,35.2,29.75,West,271,3.0,5.0,67,0.00,,,0.00,VWS V14.01,2013-11-14 01:17:00,
2013-11-13 19:18:00,45.6,35.2,29.75,West,262,3.0,5.0,67,0.00,,,0.00,VWS V14.01,2013-11-14 01:18:00,
2013-11-13 19:19:00,45.7,35.3,29.75,West,263,1.0,5.0,67,0.00,,,0.00,VWS V14.01,2013-11-14 01:19:00,
2013-11-13 19:20:00,45.7,35.3,29.74,West,261,2.0,5.0,67,0.00,,,0.00,VWS V14.01,2013-11-14 01:20:00,
2013-11-13 19:21:00,45.8,35.4,29.74,West,264,1.0,5.0,67,0.00,,,0.00,VWS V14.01,2013-11-14 01:21:00,
2013-11-13 19:22:00,45.8,35.4,29.74,WSW,249,3.0,5.0,67,0.00,,,0.00,VWS V14.01,2013-11-14 01:22:00,
2013-11-13 19:23:00,45.8,35.4,29.74,WSW,248,2.0,5.0,67,0.00,,,0.00,VWS V14.01,2013-11-14 01:23:00,
2013-11-13 19:24:00,45.8,35.4,29.74,WSW,246,2.0,5.0,67,0.00,,,0.00,VWS V14.01,2013-11-14 01:24:00,
2013-11-13 19:25:00,45.8,35.4,29.74,SW,230,3.0,5.0,67,0.00,,,0.00,VWS V14.01,2013-11-14 01:25:00,
2013-11-13 19:26:00,45.8,35.4,29.74,WSW,238,3.0,5.0,67,0.00,,,0.00,VWS V14.01,2013-11-14 01:26:00,
2013-11-13 19:27:00,45.8,35.4,29.74,SW,236,1.0,5.0,67,0.00,,,0.00,VWS V14.01,2013-11-14 01:27:00,
2013-11-13 19:28:00,45.7,35.7,29.74,WSW,250,1.0,5.0,68,0.00,,,0.00,VWS V14.01,2013-11-14 01:28:00,
2013-11-13 19:29:00,45.7,35.7,29.74,WSW,251,2.0,5.0,68,0.00,,,0.00,VWS V14.01,2013-11-14 01:29:00,
2013-11-13 19:30:00,45.8,35.7,29.74,WSW,251,0.0,5.0,68,0.00,,,0.00,VWS V14.01,2013-11-14 01:30:00,
2013-11-13 19:31:00,45.7,35.3,29.74,WSW,251,0.0,0.0,67,0.00,,,0.00,VWS V14.01,2013-11-14 01:31:00,
2013-11-13 19:32:00,45.7,35.3,29.74,WSW,251,0.0,0.0,67,0.00,,,0.00,VWS V14.01,2013-11-14 01:32:00,
2013-11-13 19:33:00,45.6,35.2,29.74,WSW,251,0.0,0.0,67,0.00,,,0.00,VWS V14.01,2013-11-14 01:33:00,
2013-11-13 19:34:00,45.6,35.2,29.73,WSW,251,0.0,0.0,67,0.00,,,0.00,VWS V14.01,2013-11-14 01:34:00,
2013-11-13 19:35:00,45.6,35.2,29.74,WSW,251,1.0,1.0,67,0.00,,,0.00,VWS V14.01,2013-11-14 01:35:00,
2013-11-13 19:36:00,45.5,35.1,29.74,WSW,251,2.0,2.0,67,0.00,,,0.00,VWS V14.01,2013-11-14 01:36:00,
2013-11-13 19:37:00,45.5,35.5,29.73,WSW,251,2.0,2.0,68,0.00,,,0.00,VWS V14.01,2013-11-14 01:37:00,
2013-11-13 19:38:00,45.4,35.4,29.73,WSW,251,1.0,2.0,68,0.00,,,0.00,VWS V14.01,2013-11-14 01:38:00,
2013-11-13 19:39:00,45.4,35.4,29.73,WSW,251,0.0,2.0,68,0.00,,,0.00,VWS V14.01,2013-11-14 01:39:00,
2013-11-13 19:40:00,45.4,35.4,29.73,WSW,251,1.0,2.0,68,0.00,,,0.00,VWS V14.01,2013-11-14 01:40:00,
2013-11-13 19:41:00,45.4,35.4,29.73,WSW,251,2.0,2.0,68,0.00,,,0.00,VWS V14.01,2013-11-14 01:41:00,
2013-11-13 19:42:00,45.3,35.6,29.73,SW,232,2.0,3.0,69,0.00,,,0.00,VWS V14.01,2013-11-14 01:42:00,
2013-11-13 19:43:00,45.3,35.6,29.73,SSW,209,4.0,4.0,69,0.00,,,0.00,VWS V14.01,2013-11-14 01:43:00,
2013-11-13 19:44:00,45.3,35.6,29.73,SSW,197,3.0,4.0,69,0.00,,,0.00,VWS V14.01,2013-11-14 01:44:00,
2013-11-13 19:45:00,45.2,35.5,29.73,SSW,201,3.0,4.0,69,0.00,,,0.00,VWS V14.01,2013-11-14 01:45:00,
2013-11-13 19:46:00,45.2,35.9,29.73,SSW,206,2.0,4.0,70,0.00,,,0.00,VWS V14.01,2013-11-14 01:46:00,
2013-11-13 19:47:00,45.2,35.9,29.73,SSW,200,2.0,4.0,70,0.00,,,0.00,VWS V14.01,2013-11-14 01:47:00,
2013-11-13 19:48:00,45.2,35.5,29.73,South,178,4.0,4.0,69,0.00,,,0.00,VWS V14.01,2013-11-14 01:48:00,
2013-11-13 19:49:00,45.2,35.9,29.73,SSW,197,2.0,4.0,70,0.00,,,0.00,VWS V14.01,2013-11-14 01:49:00,
2013-11-13 19:50:00,45.1,35.8,29.73,South,189,2.0,4.0,70,0.00,,,0.00,VWS V14.01,2013-11-14 01:50:00,
2013-11-13 19:51:00,45.1,35.4,29.73,South,189,2.0,4.0,69,0.00,,,0.00,VWS V14.01,2013-11-14 01:51:00,
2013-11-13 19:52:00,45.1,35.4,29.73,South,189,1.0,4.0,69,0.00,,,0.00,VWS V14.01,2013-11-14 01:52:00,
2013-11-13 19:53:00,45.1,35.4,29.73,South,189,2.0,4.0,69,0.00,,,0.00,VWS V14.01,2013-11-14 01:53:00,
2013-11-13 19:54:00,45.0,35.3,29.73,South,189,1.0,4.0,69,0.00,,,0.00,VWS V14.01,2013-11-14 01:54:00,
2013-11-13 19:55:00,44.9,35.2,29.73,SSW,196,3.0,4.0,69,0.00,,,0.00,VWS V14.01,2013-11-14 01:55:00,
2013-11-13 19:56:00,44.9,35.6,29.73,SSW,207,3.0,4.0,70,0.00,,,0.00,VWS V14.01,2013-11-14 01:56:00,
2013-11-13 19:57:00,44.9,35.6,29.73,SSW,196,3.0,4.0,70,0.00,,,0.00,VWS V14.01,2013-11-14 01:57:00,
2013-11-13 19:58:00,44.8,35.5,29.73,SSW,202,2.0,4.0,70,0.00,,,0.00,VWS V14.01,2013-11-14 01:58:00,
2013-11-13 19:59:00,44.7,35.4,29.73,SSW,207,2.0,4.0,70,0.00,,,0.00,VWS V14.01,2013-11-14 01:59:00,
2013-11-13 20:00:00,44.7,35.4,29.73,SSW,201,3.0,4.0,70,0.00,,,0.00,VWS V14.01,2013-11-14 02:00:00,
2013-11-13 20:01:00,44.6,35.3,29.73,SSW,203,3.0,4.0,70,0.00,,,0.00,VWS V14.01,2013-11-14 02:01:00,
2013-11-13 20:02:00,44.6,35.3,29.73,SSW,195,4.0,4.0,70,0.00,,,0.00,VWS V14.01,2013-11-14 02:02:00,
2013-11-13 20:03:00,44.6,35.7,29.73,SSW,198,4.0,6.0,71,0.00,,,0.00,VWS V14.01,2013-11-14 02:03:00,
2013-11-13 20:04:00,44.6,35.7,29.73,SSW,205,5.0,7.0,71,0.00,,,0.00,VWS V14.01,2013-11-14 02:04:00,
2013-11-13 20:05:00,44.6,35.7,29.73,SSW,197,3.0,7.0,71,0.00,,,0.00,VWS V14.01,2013-11-14 02:05:00,
2013-11-13 20:06:00,44.6,35.7,29.73,SSW,204,6.0,8.0,71,0.00,,,0.00,VWS V14.01,2013-11-14 02:06:00,
2013-11-13 20:07:00,44.6,35.7,29.73,South,184,5.0,8.0,71,0.00,,,0.00,VWS V14.01,2013-11-14 02:07:00,
2013-11-13 20:08:00,44.6,35.7,29.73,South,184,4.0,8.0,71,0.00,,,0.00,VWS V14.01,2013-11-14 02:08:00,
2013-11-13 20:09:00,44.6,35.7,29.73,South,188,7.0,9.0,71,0.00,,,0.00,VWS V14.01,2013-11-14 02:09:00,
2013-11-13 20:10:00,44.6,35.7,29.73,SSW,192,7.0,9.0,71,0.00,,,0.00,VWS V14.01,2013-11-14 02:10:00,
2013-11-13 20:11:00,44.6,35.7,29.73,SSW,205,5.0,9.0,71,0.00,,,0.00,VWS V14.01,2013-11-14 02:11:00,
2013-11-13 20:12:00,44.7,35.8,29.73,South,186,7.0,9.0,71,0.00,,,0.00,VWS V14.01,2013-11-14 02:12:00,
2013-11-13 20:13:00,44.8,35.9,29.73,SSW,202,4.0,9.0,71,0.00,,,0.00,VWS V14.01,2013-11-14 02:13:00,
2013-11-13 20:14:00,44.8,35.9,29.73,SSW,213,4.0,9.0,71,0.00,,,0.00,VWS V14.01,2013-11-14 02:14:00,
2013-11-13 20:15:00,44.9,36.0,29.73,SW,217,5.0,9.0,71,0.00,,,0.00,VWS V14.01,2013-11-14 02:15:00,
2013-11-13 20:16:00,44.9,36.0,29.73,South,186,4.0,5.0,71,0.00,,,0.00,VWS V14.01,2013-11-14 02:16:00,
2013-11-13 20:17:00,45.0,35.7,29.72,South,182,2.0,5.0,70,0.00,,,0.00,VWS V14.01,2013-11-14 02:17:00,
2013-11-13 20:18:00,45.0,35.7,29.72,South,187,2.0,5.0,70,0.00,,,0.00,VWS V14.01,2013-11-14 02:18:00,
2013-11-13 20:19:00,45.0,35.7,29.72,South,179,2.0,5.0,70,0.00,,,0.00,VWS V14.01,2013-11-14 02:19:00,
2013-11-13 20:20:00,45.0,35.7,29.72,South,186,2.0,5.0,70,0.00,,,0.00,VWS V14.01,2013-11-14 02:20:00,
2013-11-13 20:21:00,45.0,35.7,29.72,South,189,3.0,5.0,70,0.00,,,0.00,VWS V14.01,2013-11-14 02:21:00,
2013-11-13 20:22:00,45.0,35.7,29.72,South,189,2.0,5.0,70,0.00,,,0.00,VWS V14.01,2013-11-14 02:22:00,
2013-11-13 20:23:00,45.0,35.7,29.72,SSW,192,1.0,5.0,70,0.00,,,0.00,VWS V14.01,2013-11-14 02:23:00,
2013-11-13 20:24:00,45.0,35.7,29.72,SSW,192,0.0,5.0,70,0.00,,,0.00,VWS V14.01,2013-11-14 02:24:00,
2013-11-13 20:25:00,45.0,35.7,29.72,SSW,192,1.0,5.0,70,0.00,,,0.00,VWS V14.01,2013-11-14 02:25:00,
2013-11-13 20:26:00,44.9,35.6,29.72,SSW,194,0.0,5.0,70,0.00,,,0.00,VWS V14.01,2013-11-14 02:26:00,
2013-11-13 20:27:00,44.9,35.6,29.72,SSW,194,0.0,5.0,70,0.00,,,0.00,VWS V14.01,2013-11-14 02:27:00,
2013-11-13 20:28:00,44.9,35.6,29.72,SSW,194,0.0,5.0,70,0.00,,,0.00,VWS V14.01,2013-11-14 02:28:00,
2013-11-13 20:29:00,44.8,35.5,29.72,SSW,194,0.0,5.0,70,0.00,,,0.00,VWS V14.01,2013-11-14 02:29:00,
2013-11-13 20:30:00,44.8,35.5,29.72,SSW,194,0.0,5.0,70,0.00,,,0.00,VWS V14.01,2013-11-14 02:30:00,
2013-11-13 20:31:00,44.7,35.4,29.72,SSW,194,0.0,1.0,70,0.00,,,0.00,VWS V14.01,2013-11-14 02:31:00,
2013-11-13 20:32:00,44.6,35.3,29.72,SSW,194,2.0,3.0,70,0.00,,,0.00,VWS V14.01,2013-11-14 02:32:00,
2013-11-13 20:33:00,44.6,35.3,29.72,SSW,199,2.0,3.0,70,0.00,,,0.00,VWS V14.01,2013-11-14 02:33:00,
2013-11-13 20:34:00,44.6,35.3,29.72,SSW,201,2.0,3.0,70,0.00,,,0.00,VWS V14.01,2013-11-14 02:34:00,
2013-11-13 20:35:00,44.6,35.3,29.72,SW,214,1.0,3.0,70,0.00,,,0.00,VWS V14.01,2013-11-14 02:35:00,
2013-11-13 20:36:00,44.6,35.3,29.72,SW,214,0.0,3.0,70,0.00,,,0.00,VWS V14.01,2013-11-14 02:36:00,
2013-11-13 20:37:00,44.6,35.3,29.72,SW,214,0.0,3.0,70,0.00,,,0.00,VWS V14.01,2013-11-14 02:37:00,
2013-11-13 20:38:00,44.6,35.3,29.72,SW,214,0.0,3.0,70,0.00,,,0.00,VWS V14.01,2013-11-14 02:38:00,
2013-11-13 20:39:00,44.5,35.2,29.72,SW,214,0.0,3.0,70,0.00,,,0.00,VWS V14.01,2013-11-14 02:39:00,
2013-11-13 20:40:00,44.5,35.2,29.72,SW,214,0.0,3.0,70,0.00,,,0.00,VWS V14.01,2013-11-14 02:40:00,
2013-11-13 20:41:00,44.5,35.2,29.72,SW,214,1.0,3.0,70,0.00,,,0.00,VWS V14.01,2013-11-14 02:41:00,
2013-11-13 20:42:00,44.5,35.2,29.72,SW,214,1.0,3.0,70,0.00,,,0.00,VWS V14.01,2013-11-14 02:42:00,
2013-11-13 20:43:00,44.5,35.2,29.72,SW,219,2.0,4.0,70,0.00,,,0.00,VWS V14.01,2013-11-14 02:43:00,
2013-11-13 20:44:00,44.4,35.1,29.72,SW,219,2.0,4.0,70,0.00,,,0.00,VWS V14.01,2013-11-14 02:44:00,
2013-11-13 20:45:00,44.4,35.5,29.72,SW,219,1.0,4.0,71,0.00,,,0.00,VWS V14.01,2013-11-14 02:45:00,
2013-11-13 20:46:00,44.4,35.5,29.72,SW,227,2.0,3.0,71,0.00,,,0.00,VWS V14.01,2013-11-14 02:46:00,
2013-11-13 20:47:00,44.4,35.5,29.72,WSW,238,1.0,4.0,71,0.00,,,0.00,VWS V14.01,2013-11-14 02:47:00,
2013-11-13 20:48:00,44.4,35.5,29.72,WSW,238,0.0,4.0,71,0.00,,,0.00,VWS V14.01,2013-11-14 02:48:00,
2013-11-13 20:49:00,44.4,35.5,29.72,WSW,238,2.0,4.0,71,0.00,,,0.00,VWS V14.01,2013-11-14 02:49:00,
2013-11-13 20:50:00,44.4,35.5,29.72,WSW,238,2.0,4.0,71,0.00,,,0.00,VWS V14.01,2013-11-14 02:50:00,
2013-11-13 20:51:00,44.4,35.5,29.72,WSW,237,1.0,4.0,71,0.00,,,0.00,VWS V14.01,2013-11-14 02:51:00,
2013-11-13 20:52:00,44.3,35.0,29.72,WSW,237,1.0,4.0,70,0.00,,,0.00,VWS V14.01,2013-11-14 02:52:00,
2013-11-13 20:53:00,44.3,35.4,29.72,SW,233,2.0,4.0,71,0.00,,,0.00,VWS V14.01,2013-11-14 02:53:00,
2013-11-13 20:54:00,44.3,35.4,29.72,SW,230,1.0,4.0,71,0.00,,,0.00,VWS V14.01,2013-11-14 02:54:00,
2013-11-13 20:55:00,44.3,35.4,29.72,SW,219,3.0,4.0,71,0.00,,,0.00,VWS V14.01,2013-11-14 02:55:00,
2013-11-13 20:56:00,44.2,35.3,29.72,SSW,192,3.0,4.0,71,0.00,,,0.00,VWS V14.01,2013-11-14 02:56:00,
2013-11-13 20:57:00,44.2,35.3,29.72,South,184,2.0,4.0,71,0.00,,,0.00,VWS V14.01,2013-11-14 02:57:00,
2013-11-13 20:58:00,44.2,35.3,29.72,SSW,210,4.0,4.0,71,0.00,,,0.00,VWS V14.01,2013-11-14 02:58:00,
2013-11-13 20:59:00,44.1,35.2,29.72,SSW,197,2.0,4.0,71,0.00,,,0.00,VWS V14.01,2013-11-14 02:59:00,
2013-11-13 21:00:00,44.1,35.2,29.72,South,184,2.0,4.0,71,0.00,,,0.00,VWS V14.01,2013-11-14 03:00:00,
2013-11-13 21:01:00,44.0,35.1,29.72,SSW,198,3.0,3.0,71,0.00,,,0.00,VWS V14.01,2013-11-14 03:01:00,
2013-11-13 21:02:00,44.0,35.1,29.72,South,190,2.0,3.0,71,0.00,,,0.00,VWS V14.01,2013-11-14 03:02:00,
2013-11-13 21:03:00,43.9,35.0,29.72,South,190,1.0,3.0,71,0.00,,,0.00,VWS V14.01,2013-11-14 03:03:00,
2013-11-13 21:04:00,43.9,35.0,29.72,SSW,194,3.0,4.0,71,0.00,,,0.00,VWS V14.01,2013-11-14 03:04:00,
2013-11-13 21:05:00,43.8,34.9,29.72,SSW,194,2.0,4.0,71,0.00,,,0.00,VWS V14.01,2013-11-14 03:05:00,
2013-11-13 21:06:00,43.8,34.9,29.72,SSW,194,2.0,4.0,71,0.00,,,0.00,VWS V14.01,2013-11-14 03:06:00,
2013-11-13 21:07:00,43.8,34.9,29.72,South,190,2.0,4.0,71,0.00,,,0.00,VWS V14.01,2013-11-14 03:07:00,
2013-11-13 21:08:00,43.7,34.8,29.72,SSW,192,1.0,4.0,71,0.00,,,0.00,VWS V14.01,2013-11-14 03:08:00,
2013-11-13 21:09:00,43.7,34.8,29.72,South,176,3.0,4.0,71,0.00,,,0.00,VWS V14.01,2013-11-14 03:09:00,
2013-11-13 21:10:00,43.6,35.1,29.72,South,184,3.0,4.0,72,0.00,,,0.00,VWS V14.01,2013-11-14 03:10:00,
2013-11-13 21:11:00,43.6,35.1,29.72,South,184,3.0,5.0,72,0.00,,,0.00,VWS V14.01,2013-11-14 03:11:00,
2013-11-13 21:12:00,43.6,35.1,29.72,SSW,192,2.0,5.0,72,0.00,,,0.00,VWS V14.01,2013-11-14 03:12:00,
2013-11-13 21:13:00,43.5,35.0,29.72,South,172,6.0,6.0,72,0.00,,,0.00,VWS V14.01,2013-11-14 03:13:00,
2013-11-13 21:14:00,43.5,35.0,29.72,South,175,4.0,6.0,72,0.00,,,0.00,VWS V14.01,2013-11-14 03:14:00,
2013-11-13 21:15:00,43.4,34.9,29.71,SSW,202,3.0,6.0,72,0.00,,,0.00,VWS V14.01,2013-11-14 03:15:00,
2013-11-13 21:16:00,43.4,34.9,29.72,South,176,3.0,5.0,72,0.00,,,0.00,VWS V14.01,2013-11-14 03:16:00,
2013-11-13 21:17:00,43.3,34.8,29.71,SSW,209,2.0,5.0,72,0.00,,,0.00,VWS V14.01,2013-11-14 03:17:00,
2013-11-13 21:18:00,43.3,34.8,29.71,SSW,194,4.0,5.0,72,0.00,,,0.00,VWS V14.01,2013-11-14 03:18:00,
2013-11-13 21:19:00,43.3,34.8,29.71,South,187,4.0,6.0,72,0.00,,,0.00,VWS V14.01,2013-11-14 03:19:00,
2013-11-13 21:20:00,43.2,35.0,29.71,SSW,197,4.0,6.0,73,0.00,,,0.00,VWS V14.01,2013-11-14 03:20:00,
2013-11-13 21:21:00,43.2,35.0,29.71,SSW,202,5.0,6.0,73,0.00,,,0.00,VWS V14.01,2013-11-14 03:21:00,
2013-11-13 21:22:00,43.1,34.9,29.71,SSW,201,3.0,6.0,73,0.00,,,0.00,VWS V14.01,2013-11-14 03:22:00,
2013-11-13 21:23:00,43.1,34.9,29.71,SSW,211,4.0,6.0,73,0.00,,,0.00,VWS V14.01,2013-11-14 03:23:00,
2013-11-13 21:24:00,43.0,34.8,29.71,SSW,208,5.0,7.0,73,0.00,,,0.00,VWS V14.01,2013-11-14 03:24:00,
2013-11-13 21:25:00,43.0,34.8,29.71,SW,214,4.0,7.0,73,0.00,,,0.00,VWS V14.01,2013-11-14 03:25:00,
2013-11-13 21:26:00,42.9,34.8,29.71,SW,221,4.0,7.0,73,0.00,,,0.00,VWS V14.01,2013-11-14 03:26:00,
2013-11-13 21:27:00,42.9,34.8,29.71,SSW,199,5.0,7.0,73,0.00,,,0.00,VWS V14.01,2013-11-14 03:27:00,
2013-11-13 21:28:00,42.9,35.1,29.71,SSW,194,3.0,8.0,74,0.00,,,0.00,VWS V14.01,2013-11-14 03:28:00,
2013-11-13 21:29:00,42.9,35.1,29.71,South,186,4.0,8.0,74,0.00,,,0.00,VWS V14.01,2013-11-14 03:29:00,
2013-11-13 21:30:00,42.9,35.1,29.71,South,188,4.0,8.0,74,0.00,,,0.00,VWS V14.01,2013-11-14 03:30:00,
2013-11-13 21:31:00,42.9,35.1,29.71,South,174,6.0,9.0,74,0.00,,,0.00,VWS V14.01,2013-11-14 03:31:00,
2013-11-13 21:32:00,42.9,35.1,29.71,South,183,3.0,9.0,74,0.00,,,0.00,VWS V14.01,2013-11-14 03:32:00,
2013-11-13 21:33:00,42.9,35.1,29.71,South,182,4.0,9.0,74,0.00,,,0.00,VWS V14.01,2013-11-14 03:33:00,
2013-11-13 21:34:00,42.9,35.1,29.71,SSE,165,3.0,9.0,74,0.00,,,0.00,VWS V14.01,2013-11-14 03:34:00,
2013-11-13 21:35:00,42.9,35.1,29.71,SSE,161,6.0,9.0,74,0.00,,,0.00,VWS V14.01,2013-11-14 03:35:00,
2013-11-13 21:36:00,42.9,35.1,29.70,SSE,168,6.0,9.0,74,0.00,,,0.00,VWS V14.01,2013-11-14 03:36:00,
2013-11-13 21:37:00,42.9,35.1,29.70,South,176,7.0,9.0,74,0.00,,,0.00,VWS V14.01,2013-11-14 03:37:00,
2013-11-13 21:38:00,42.9,35.1,29.70,SSE,168,5.0,9.0,74,0.00,,,0.00,VWS V14.01,2013-11-14 03:38:00,
2013-11-13 21:39:00,42.9,35.1,29.70,South,171,7.0,9.0,74,0.00,,,0.00,VWS V14.01,2013-11-14 03:39:00,
2013-11-13 21:40:00,42.8,35.0,29.70,South,169,5.0,9.0,74,0.00,,,0.00,VWS V14.01,2013-11-14 03:40:00,
2013-11-13 21:41:00,42.8,35.0,29.70,South,181,7.0,9.0,74,0.00,,,0.00,VWS V14.01,2013-11-14 03:41:00,
2013-11-13 21:42:00,42.8,35.0,29.70,South,178,8.0,9.0,74,0.00,,,0.00,VWS V14.01,2013-11-14 03:42:00,
2013-11-13 21:43:00,42.8,35.0,29.70,South,171,5.0,9.0,74,0.00,,,0.00,VWS V14.01,2013-11-14 03:43:00,
2013-11-13 21:44:00,42.7,36.2,29.70,South,188,8.0,9.0,78,0.00,,,0.00,VWS V14.01,2013-11-14 03:44:00,
2013-11-13 21:45:00,42.7,34.9,29.70,South,181,5.0,9.0,74,0.00,,,0.00,VWS V14.01,2013-11-14 03:45:00,
2013-11-13 21:46:00,42.6,34.8,29.70,SSE,168,6.0,8.0,74,0.00,,,0.00,VWS V14.01,2013-11-14 03:46:00,
2013-11-13 21:47:00,42.5,34.7,29.70,SSE,165,7.0,8.0,74,0.00,,,0.00,VWS V14.01,2013-11-14 03:47:00,
2013-11-13 21:48:00,42.5,34.7,29.70,South,174,7.0,9.0,74,0.00,,,0.00,VWS V14.01,2013-11-14 03:48:00,
2013-11-13 21:49:00,42.5,34.7,29.70,South,186,8.0,9.0,74,0.00,,,0.00,VWS V14.01,2013-11-14 03:49:00,
2013-11-13 21:50:00,42.5,34.7,29.70,SSE,152,7.0,9.0,74,0.00,,,0.00,VWS V14.01,2013-11-14 03:50:00,
2013-11-13 21:51:00,42.4,34.6,29.70,South,178,7.0,9.0,74,0.00,,,0.00,VWS V14.01,2013-11-14 03:51:00,
2013-11-13 21:52:00,42.4,34.6,29.70,South,180,7.0,10.0,74,0.00,,,0.00,VWS V14.01,2013-11-14 03:52:00,
2013-11-13 21:53:00,42.4,35.0,29.70,South,182,8.0,10.0,75,0.00,,,0.00,VWS V14.01,2013-11-14 03:53:00,
2013-11-13 21:54:00,42.4,34.6,29.70,South,171,8.0,10.0,74,0.00,,,0.00,VWS V14.01,2013-11-14 03:54:00,
2013-11-13 21:55:00,42.4,35.0,29.70,South,178,8.0,10.0,75,0.00,,,0.00,VWS V14.01,2013-11-14 03:55:00,
2013-11-13 21:56:00,42.3,34.8,29.70,South,173,7.0,10.0,75,0.00,,,0.00,VWS V14.01,2013-11-14 03:56:00,
2013-11-13 21:57:00,42.4,35.0,29.70,SSW,194,7.0,10.0,75,0.00,,,0.00,VWS V14.01,2013-11-14 03:57:00,
2013-11-13 21:58:00,42.4,35.0,29.70,South,191,9.0,10.0,75,0.00,,,0.00,VWS V14.01,2013-11-14 03:58:00,
2013-11-13 21:59:00,42.4,35.0,29.69,South,182,8.0,10.0,75,0.00,,,0.00,VWS V14.01,2013-11-14 03:59:00,
2013-11-13 22:00:00,42.4,35.0,29.69,SSW,199,4.0,10.0,75,0.00,,,0.00,VWS V14.01,2013-11-14 04:00:00,
2013-11-13 22:01:00,42.5,35.0,29.69,SSW,196,8.0,10.0,75,0.00,,,0.00,VWS V14.01,2013-11-14 04:01:00,
2013-11-13 22:02:00,42.5,35.0,29.69,South,188,7.0,10.0,75,0.00,,,0.00,VWS V14.01,2013-11-14 04:02:00,
2013-11-13 22:03:00,42.6,35.1,29.69,South,184,7.0,10.0,75,0.00,,,0.00,VWS V14.01,2013-11-14 04:03:00,
2013-11-13 22:04:00,42.7,35.2,29.69,South,187,10.0,10.0,75,0.00,,,0.00,VWS V14.01,2013-11-14 04:04:00,
2013-11-13 22:05:00,42.7,35.2,29.69,SSW,207,6.0,10.0,75,0.00,,,0.00,VWS V14.01,2013-11-14 04:05:00,
2013-11-13 22:06:00,42.8,35.3,29.69,SSW,194,5.0,10.0,75,0.00,,,0.00,VWS V14.01,2013-11-14 04:06:00,
2013-11-13 22:07:00,42.8,35.3,29.69,South,182,5.0,10.0,75,0.00,,,0.00,VWS V14.01,2013-11-14 04:07:00,
2013-11-13 22:08:00,42.9,35.4,29.69,South,170,7.0,10.0,75,0.00,,,0.00,VWS V14.01,2013-11-14 04:08:00,
2013-11-13 22:09:00,42.9,35.4,29.69,SSW,192,7.0,10.0,75,0.00,,,0.00,VWS V14.01,2013-11-14 04:09:00,
2013-11-13 22:10:00,43.0,35.5,29.69,SSW,194,9.0,10.0,75,0.00,,,0.00,VWS V14.01,2013-11-14 04:10:00,
2013-11-13 22:11:00,43.1,35.6,29.69,SSW,199,5.0,10.0,75,0.00,,,0.00,VWS V14.01,2013-11-14 04:11:00,
2013-11-13 22:12:00,43.1,35.6,29.69,SSW,196,9.0,10.0,75,0.00,,,0.00,VWS V14.01,2013-11-14 04:12:00,
2013-11-13 22:13:00,43.2,35.7,29.69,South,187,8.0,10.0,75,0.00,,,0.00,VWS V14.01,2013-11-14 04:13:00,
2013-11-13 22:14:00,43.3,35.8,29.69,SSW,209,5.0,10.0,75,0.00,,,0.00,VWS V14.01,2013-11-14 04:14:00,
2013-11-13 22:15:00,43.4,35.6,29.69,SSW,205,6.0,10.0,74,0.00,,,0.00,VWS V14.01,2013-11-14 04:15:00,
2013-11-13 22:16:00,43.5,35.7,29.69,SSW,199,6.0,6.0,74,0.00,,,0.00,VWS V14.01,2013-11-14 04:16:00,
2013-11-13 22:17:00,43.6,35.8,29.69,SSW,207,4.0,6.0,74,0.00,,,0.00,VWS V14.01,2013-11-14 04:17:00,
2013-11-13 22:18:00,43.6,35.8,29.69,SW,226,1.0,6.0,74,0.00,,,0.00,VWS V14.01,2013-11-14 04:18:00,
2013-11-13 22:19:00,43.6,35.8,29.69,SW,226,2.0,6.0,74,0.00,,,0.00,VWS V14.01,2013-11-14 04:19:00,
2013-11-13 22:20:00,43.6,35.4,29.69,SW,226,1.0,6.0,73,0.00,,,0.00,VWS V14.01,2013-11-14 04:20:00,
2013-11-13 22:21:00,43.6,35.4,29.69,SW,226,1.0,6.0,73,0.00,,,0.00,VWS V14.01,2013-11-14 04:21:00,
2013-11-13 22:22:00,43.6,35.4,29.69,SW,226,1.0,6.0,73,0.00,,,0.00,VWS V14.01,2013-11-14 04:22:00,
2013-11-13 22:23:00,43.6,35.4,29.69,West,265,2.0,6.0,73,0.00,,,0.00,VWS V14.01,2013-11-14 04:23:00,
2013-11-13 22:24:00,43.6,35.4,29.69,West,264,1.0,6.0,73,0.00,,,0.00,VWS V14.01,2013-11-14 04:24:00,
2013-11-13 22:25:00,43.5,35.3,29.69,West,265,1.0,6.0,73,0.00,,,0.00,VWS V14.01,2013-11-14 04:25:00,
2013-11-13 22:26:00,43.4,35.2,29.69,WSW,253,3.0,6.0,73,0.00,,,0.00,VWS V14.01,2013-11-14 04:26:00,
2013-11-13 22:27:00,43.4,35.2,29.69,WSW,238,2.0,6.0,73,0.00,,,0.00,VWS V14.01,2013-11-14 04:27:00,
2013-11-13 22:28:00,43.3,35.1,29.69,SSW,206,4.0,6.0,73,0.00,,,0.00,VWS V14.01,2013-11-14 04:28:00,
2013-11-13 22:29:00,43.3,35.1,29.69,SSW,210,4.0,6.0,73,0.00,,,0.00,VWS V14.01,2013-11-14 04:29:00,
2013-11-13 22:30:00,43.1,34.9,29.68,SSW,199,3.0,6.0,73,0.00,,,0.00,VWS V14.01,2013-11-14 04:30:00,
2013-11-13 22:31:00,43.1,35.3,29.69,SSW,197,4.0,4.0,74,0.00,,,0.00,VWS V14.01,2013-11-14 04:31:00,
2013-11-13 22:32:00,43.0,35.2,29.68,SSW,194,3.0,5.0,74,0.00,,,0.00,VWS V14.01,2013-11-14 04:32:00,
2013-11-13 22:33:00,42.9,35.1,29.68,SSW,206,4.0,7.0,74,0.00,,,0.00,VWS V14.01,2013-11-14 04:33:00,
2013-11-13 22:34:00,42.8,35.0,29.69,SSW,196,3.0,7.0,74,0.00,,,0.00,VWS V14.01,2013-11-14 04:34:00,
2013-11-13 22:35:00,42.8,35.0,29.68,SSW,195,2.0,7.0,74,0.00,,,0.00,VWS V14.01,2013-11-14 04:35:00,
2013-11-13 22:36:00,42.7,34.9,29.68,SSW,195,2.0,7.0,74,0.00,,,0.00,VWS V14.01,2013-11-14 04:36:00,
2013-11-13 22:37:00,42.6,34.8,29.68,SSW,195,3.0,7.0,74,0.00,,,0.00,VWS V14.01,2013-11-14 04:37:00,
2013-11-13 22:38:00,42.5,34.7,29.68,SSW,195,2.0,7.0,74,0.00,,,0.00,VWS V14.01,2013-11-14 04:38:00,
2013-11-13 22:39:00,42.4,35.0,29.68,SSW,196,2.0,7.0,75,0.00,,,0.00,VWS V14.01,2013-11-14 04:39:00,
2013-11-13 22:40:00,42.4,35.0,29.68,SSW,198,3.0,7.0,75,0.00,,,0.00,VWS V14.01,2013-11-14 04:40:00,
2013-11-13 22:41:00,42.3,34.8,29.68,South,190,3.0,7.0,75,0.00,,,0.00,VWS V14.01,2013-11-14 04:41:00,
2013-11-13 22:42:00,42.3,34.8,29.68,SSW,192,3.0,7.0,75,0.00,,,0.00,VWS V14.01,2013-11-14 04:42:00,
2013-11-13 22:43:00,42.2,34.8,29.68,South,187,2.0,7.0,75,0.00,,,0.00,VWS V14.01,2013-11-14 04:43:00,
2013-11-13 22:44:00,42.1,34.7,29.68,SSW,211,4.0,7.0,75,0.00,,,0.00,VWS V14.01,2013-11-14 04:44:00,
2013-11-13 22:45:00,42.0,34.6,29.68,South,169,7.0,7.0,75,0.00,,,0.00,VWS V14.01,2013-11-14 04:45:00,
2013-11-13 22:46:00,42.0,34.9,29.68,South,188,7.0,7.0,76,0.00,,,0.00,VWS V14.01,2013-11-14 04:46:00,
2013-11-13 22:47:00,41.9,34.8,29.68,South,185,8.0,8.0,76,0.00,,,0.00,VWS V14.01,2013-11-14 04:47:00,
2013-11-13 22:48:00,41.9,34.8,29.68,SSW,199,8.0,9.0,76,0.00,,,0.00,VWS V14.01,2013-11-14 04:48:00,
2013-11-13 22:49:00,41.9,34.8,29.68,SSW,192,5.0,9.0,76,0.00,,,0.00,VWS V14.01,2013-11-14 04:49:00,
2013-11-13 22:50:00,41.9,34.8,29.68,South,174,5.0,9.0,76,0.00,,,0.00,VWS V14.01,2013-11-14 04:50:00,
2013-11-13 22:51:00,41.9,34.8,29.68,South,191,7.0,9.0,76,0.00,,,0.00,VWS V14.01,2013-11-14 04:51:00,
2013-11-13 22:52:00,41.8,35.0,29.68,SSW,194,4.0,9.0,77,0.00,,,0.00,VWS V14.01,2013-11-14 04:52:00,
2013-11-13 22:53:00,41.8,34.7,29.68,South,171,6.0,9.0,76,0.00,,,0.00,VWS V14.01,2013-11-14 04:53:00,
2013-11-13 22:54:00,41.8,34.7,29.68,South,181,4.0,9.0,76,0.00,,,0.00,VWS V14.01,2013-11-14 04:54:00,
2013-11-13 22:55:00,41.8,34.7,29.68,SSW,195,3.0,9.0,76,0.00,,,0.00,VWS V14.01,2013-11-14 04:55:00,
2013-11-13 22:56:00,41.8,35.0,29.68,South,190,4.0,9.0,77,0.00,,,0.00,VWS V14.01,2013-11-14 04:56:00,
2013-11-13 22:57:00,41.8,35.0,29.68,SSW,198,5.0,9.0,77,0.00,,,0.00,VWS V14.01,2013-11-14 04:57:00,
2013-11-13 22:58:00,41.7,34.9,29.68,SSW,201,5.0,9.0,77,0.00,,,0.00,VWS V14.01,2013-11-14 04:58:00,
2013-11-13 22:59:00,41.7,34.9,29.68,SSW,201,6.0,9.0,77,0.00,,,0.00,VWS V14.01,2013-11-14 04:59:00,
2013-11-13 23:00:00,41.8,35.0,29.68,South,184,5.0,9.0,77,0.00,,,0.00,VWS V14.01,2013-11-14 05:00:00,
2013-11-13 23:01:00,41.8,35.0,29.68,South,189,5.0,8.0,77,0.00,,,0.00,VWS V14.01,2013-11-14 05:01:00,
2013-11-13 23:02:00,41.7,34.9,29.68,SSW,193,5.0,8.0,77,0.00,,,0.00,VWS V14.01,2013-11-14 05:02:00,
2013-11-13 23:03:00,41.7,34.9,29.68,SSW,201,4.0,8.0,77,0.00,,,0.00,VWS V14.01,2013-11-14 05:03:00,
2013-11-13 23:04:00,41.8,35.0,29.68,South,189,4.0,8.0,77,0.00,,,0.00,VWS V14.01,2013-11-14 05:04:00,
2013-11-13 23:05:00,41.8,35.0,29.68,South,186,7.0,8.0,77,0.00,,,0.00,VWS V14.01,2013-11-14 05:05:00,
2013-11-13 23:06:00,41.7,34.9,29.68,South,177,7.0,8.0,77,0.00,,,0.00,VWS V14.01,2013-11-14 05:06:00,
2013-11-13 23:07:00,41.7,34.9,29.68,SSW,196,8.0,8.0,77,0.00,,,0.00,VWS V14.01,2013-11-14 05:07:00,
2013-11-13 23:08:00,41.8,35.0,29.67,South,186,4.0,9.0,77,0.00,,,0.00,VWS V14.01,2013-11-14 05:08:00,
2013-11-13 23:09:00,41.8,35.0,29.68,SSW,196,5.0,9.0,77,0.00,,,0.00,VWS V14.01,2013-11-14 05:09:00,
2013-11-13 23:10:00,41.8,35.0,29.67,SSW,192,5.0,9.0,77,0.00,,,0.00,VWS V14.01,2013-11-14 05:10:00,
2013-11-13 23:11:00,41.8,35.0,29.67,SSW,192,5.0,9.0,77,0.00,,,0.00,VWS V14.01,2013-11-14 05:11:00,
2013-11-13 23:12:00,41.8,35.0,29.67,SSW,196,7.0,9.0,77,0.00,,,0.00,VWS V14.01,2013-11-14 05:12:00,
2013-11-13 23:13:00,41.8,35.0,29.67,South,191,5.0,9.0,77,0.00,,,0.00,VWS V14.01,2013-11-14 05:13:00,
2013-11-13 23:14:00,41.8,35.0,29.67,South,185,5.0,9.0,77,0.00,,,0.00,VWS V14.01,2013-11-14 05:14:00,
2013-11-13 23:15:00,41.9,35.1,29.67,South,190,7.0,9.0,77,0.00,,,0.00,VWS V14.01,2013-11-14 05:15:00,
2013-11-13 23:16:00,41.9,35.1,29.67,SSW,192,4.0,8.0,77,0.00,,,0.00,VWS V14.01,2013-11-14 05:16:00,
2013-11-13 23:17:00,41.9,35.1,29.67,SSW,193,7.0,8.0,77,0.00,,,0.00,VWS V14.01,2013-11-14 05:17:00,
2013-11-13 23:18:00,41.9,35.1,29.67,SW,217,7.0,9.0,77,0.00,,,0.00,VWS V14.01,2013-11-14 05:18:00,
2013-11-13 23:19:00,41.9,35.1,29.67,SSW,198,5.0,10.0,77,0.00,,,0.00,VWS V14.01,2013-11-14 05:19:00,
2013-11-13 23:20:00,41.9,35.1,29.67,SSW,203,8.0,10.0,77,0.00,,,0.00,VWS V14.01,2013-11-14 05:20:00,
2013-11-13 23:21:00,41.9,35.1,29.67,SSW,213,4.0,10.0,77,0.00,,,0.00,VWS V14.01,2013-11-14 05:21:00,
2013-11-13 23:22:00,41.9,35.1,29.67,SSW,196,7.0,10.0,77,0.00,,,0.00,VWS V14.01,2013-11-14 05:22:00,
2013-11-13 23:23:00,42.0,35.2,29.67,South,188,5.0,10.0,77,0.00,,,0.00,VWS V14.01,2013-11-14 05:23:00,
2013-11-13 23:24:00,42.0,35.2,29.67,SSW,206,6.0,10.0,77,0.00,,,0.00,VWS V14.01,2013-11-14 05:24:00,
2013-11-13 23:25:00,42.0,35.2,29.67,South,191,7.0,10.0,77,0.00,,,0.00,VWS V14.01,2013-11-14 05:25:00,
2013-11-13 23:26:00,42.0,35.2,29.67,SW,217,7.0,10.0,77,0.00,,,0.00,VWS V14.01,2013-11-14 05:26:00,
2013-11-13 23:27:00,42.0,35.2,29.67,SSW,198,5.0,10.0,77,0.00,,,0.00,VWS V14.01,2013-11-14 05:27:00,
2013-11-13 23:28:00,41.9,35.1,29.67,South,190,7.0,10.0,77,0.00,,,0.00,VWS V14.01,2013-11-14 05:28:00,
2013-11-13 23:29:00,41.9,35.1,29.67,SSW,205,3.0,10.0,77,0.00,,,0.00,VWS V14.01,2013-11-14 05:29:00,
2013-11-13 23:30:00,41.9,35.1,29.67,SSW,210,3.0,10.0,77,0.00,,,0.00,VWS V14.01,2013-11-14 05:30:00,
2013-11-13 23:31:00,41.9,35.1,29.67,SSW,199,4.0,9.0,77,0.00,,,0.00,VWS V14.01,2013-11-14 05:31:00,
2013-11-13 23:32:00,41.9,35.1,29.67,SSW,211,4.0,9.0,77,0.00,,,0.00,VWS V14.01,2013-11-14 05:32:00,
2013-11-13 23:33:00,41.9,35.1,29.67,SSW,201,5.0,9.0,77,0.00,,,0.00,VWS V14.01,2013-11-14 05:33:00,
2013-11-13 23:34:00,41.9,35.1,29.67,SSW,194,3.0,9.0,77,0.00,,,0.00,VWS V14.01,2013-11-14 05:34:00,
2013-11-13 23:35:00,41.8,35.0,29.67,SSW,210,3.0,9.0,77,0.00,,,0.00,VWS V14.01,2013-11-14 05:35:00,
2013-11-13 23:36:00,41.8,35.0,29.67,SW,214,4.0,9.0,77,0.00,,,0.00,VWS V14.01,2013-11-14 05:36:00,
2013-11-13 23:37:00,41.8,35.0,29.67,SW,220,4.0,9.0,77,0.00,,,0.00,VWS V14.01,2013-11-14 05:37:00,
2013-11-13 23:38:00,41.8,35.0,29.67,SSW,209,4.0,9.0,77,0.00,,,0.00,VWS V14.01,2013-11-14 05:38:00,
2013-11-13 23:39:00,41.8,35.0,29.67,SSW,211,6.0,9.0,77,0.00,,,0.00,VWS V14.01,2013-11-14 05:39:00,
2013-11-13 23:40:00,41.8,35.0,29.67,SSW,198,5.0,9.0,77,0.00,,,0.00,VWS V14.01,2013-11-14 05:40:00,
2013-11-13 23:41:00,41.8,35.0,29.67,SSW,199,5.0,9.0,77,0.00,,,0.00,VWS V14.01,2013-11-14 05:41:00,
2013-11-13 23:42:00,41.8,35.0,29.67,South,188,8.0,9.0,77,0.00,,,0.00,VWS V14.01,2013-11-14 05:42:00,
2013-11-13 23:43:00,41.9,35.1,29.67,South,180,9.0,9.0,77,0.00,,,0.00,VWS V14.01,2013-11-14 05:43:00,
2013-11-13 23:44:00,41.9,35.1,29.67,SSW,203,7.0,10.0,77,0.00,,,0.00,VWS V14.01,2013-11-14 05:44:00,
2013-11-13 23:45:00,41.9,35.1,29.67,South,185,11.0,11.0,77,0.00,,,0.00,VWS V14.01,2013-11-14 05:45:00,
2013-11-13 23:46:00,42.0,35.2,29.67,SSW,194,5.0,11.0,77,0.00,,,0.00,VWS V14.01,2013-11-14 05:46:00,
2013-11-13 23:47:00,42.0,35.2,29.67,South,189,8.0,11.0,77,0.00,,,0.00,VWS V14.01,2013-11-14 05:47:00,
2013-11-13 23:48:00,42.0,35.2,29.67,South,190,5.0,11.0,77,0.00,,,0.00,VWS V14.01,2013-11-14 05:48:00,
2013-11-13 23:49:00,42.0,35.2,29.67,SSW,203,5.0,11.0,77,0.00,,,0.00,VWS V14.01,2013-11-14 05:49:00,
2013-11-13 23:50:00,42.0,35.2,29.67,SSW,205,8.0,11.0,77,0.00,,,0.00,VWS V14.01,2013-11-14 05:50:00,
2013-11-13 23:51:00,42.0,35.2,29.67,SSW,213,7.0,11.0,77,0.00,,,0.00,VWS V14.01,2013-11-14 05:51:00,
2013-11-13 23:52:00,41.9,35.1,29.67,SSW,193,8.0,11.0,77,0.00,,,0.00,VWS V14.01,2013-11-14 05:52:00,
2013-11-13 23:53:00,41.9,35.1,29.67,SSW,208,5.0,11.0,77,0.00,,,0.00,VWS V14.01,2013-11-14 05:53:00,
2013-11-13 23:54:00,41.9,35.1,29.68,SW,221,8.0,11.0,77,0.00,,,0.00,VWS V14.01,2013-11-14 05:54:00,
2013-11-13 23:55:00,41.9,35.1,29.67,SSW,204,3.0,11.0,77,0.00,,,0.00,VWS V14.01,2013-11-14 05:55:00,
2013-11-13 23:56:00,41.9,35.1,29.68,SW,214,5.0,11.0,77,0.00,,,0.00,VWS V14.01,2013-11-14 05:56:00,
2013-11-13 23:57:00,41.8,35.0,29.68,SSW,205,7.0,11.0,77,0.00,,,0.00,VWS V14.01,2013-11-14 05:57:00,
2013-11-13 23:58:00,41.8,35.0,29.68,SSW,194,7.0,11.0,77,0.00,,,0.00,VWS V14.01,2013-11-14 05:58:00,
2013-11-13 23:59:00,41.9,35.1,29.68,SW,228,3.0,11.0,77,0.00,,,0.00,VWS V14.01,2013-11-14 05:59:00,